<?xml version="1.0" encoding="UTF-8" standalone="no" ?>
<gpx xmlns="http://www.topografix.com/GPX/1/1" xmlns:xsi="http://www.w3.org/2001/XMLSchema-instance" xsi:schemaLocation="http://www.topografix.com/GPX/1/1 http://www.topografix.com/GPX/1/1/gpx.xsd" version="1.1" creator="VisuGPX - https://www.visugpx.com">
  <metadata>
    <name>Saint Cyr de Valorges</name>
    <desc><![CDATA[Magnifique circuit entre Saint Cyr de Valorges, Chirassimont et Sainte Colombe sur Gand.]]></desc>
  </metadata>
  <trk>
    <name><![CDATA[20190429195258-7cSQj]]></name>
    <trkseg>
      <trkpt lat="45.89081" lon="4.3059">
        <ele>691.348</ele>
        <time>2019-04-29T12:09:55Z</time>
      </trkpt>
      <trkpt lat="45.89077" lon="4.30597">
        <ele>689.484</ele>
        <time>2019-04-29T12:10:00Z</time>
      </trkpt>
      <trkpt lat="45.89088" lon="4.30608">
        <ele>692.545</ele>
        <time>2019-04-29T12:10:06Z</time>
      </trkpt>
      <trkpt lat="45.89088" lon="4.30608">
        <ele>687.35</ele>
        <time>2019-04-29T12:10:11Z</time>
      </trkpt>
      <trkpt lat="45.89088" lon="4.30608">
        <ele>686.066</ele>
        <time>2019-04-29T12:10:16Z</time>
      </trkpt>
      <trkpt lat="45.89102" lon="4.30597">
        <ele>685.792</ele>
        <time>2019-04-29T12:10:22Z</time>
      </trkpt>
      <trkpt lat="45.89105" lon="4.30598">
        <ele>685.409</ele>
        <time>2019-04-29T12:10:28Z</time>
      </trkpt>
      <trkpt lat="45.89105" lon="4.30598">
        <ele>685.174</ele>
        <time>2019-04-29T12:10:34Z</time>
      </trkpt>
      <trkpt lat="45.89118" lon="4.30599">
        <ele>685.436</ele>
        <time>2019-04-29T12:10:39Z</time>
      </trkpt>
      <trkpt lat="45.89122" lon="4.30596">
        <ele>685.496</ele>
        <time>2019-04-29T12:10:44Z</time>
      </trkpt>
      <trkpt lat="45.89125" lon="4.30595">
        <ele>685.802</ele>
        <time>2019-04-29T12:10:50Z</time>
      </trkpt>
      <trkpt lat="45.8913" lon="4.30595">
        <ele>687.095</ele>
        <time>2019-04-29T12:10:56Z</time>
      </trkpt>
      <trkpt lat="45.89135" lon="4.30595">
        <ele>688.282</ele>
        <time>2019-04-29T12:11:02Z</time>
      </trkpt>
      <trkpt lat="45.89142" lon="4.30596">
        <ele>689.164</ele>
        <time>2019-04-29T12:11:08Z</time>
      </trkpt>
      <trkpt lat="45.89147" lon="4.30598">
        <ele>689.605</ele>
        <time>2019-04-29T12:11:13Z</time>
      </trkpt>
      <trkpt lat="45.89153" lon="4.306">
        <ele>689.722</ele>
        <time>2019-04-29T12:11:18Z</time>
      </trkpt>
      <trkpt lat="45.89157" lon="4.30599">
        <ele>689.607</ele>
        <time>2019-04-29T12:11:24Z</time>
      </trkpt>
      <trkpt lat="45.89163" lon="4.306">
        <ele>689.67</ele>
        <time>2019-04-29T12:11:29Z</time>
      </trkpt>
      <trkpt lat="45.8917" lon="4.30599">
        <ele>690.046</ele>
        <time>2019-04-29T12:11:35Z</time>
      </trkpt>
      <trkpt lat="45.89174" lon="4.30597">
        <ele>690.463</ele>
        <time>2019-04-29T12:11:40Z</time>
      </trkpt>
      <trkpt lat="45.8918" lon="4.30598">
        <ele>690.619</ele>
        <time>2019-04-29T12:11:47Z</time>
      </trkpt>
      <trkpt lat="45.89186" lon="4.30598">
        <ele>690.776</ele>
        <time>2019-04-29T12:11:52Z</time>
      </trkpt>
      <trkpt lat="45.8919" lon="4.30601">
        <ele>690.995</ele>
        <time>2019-04-29T12:11:58Z</time>
      </trkpt>
      <trkpt lat="45.89198" lon="4.30601">
        <ele>691.173</ele>
        <time>2019-04-29T12:12:04Z</time>
      </trkpt>
      <trkpt lat="45.89202" lon="4.30601">
        <ele>691.75</ele>
        <time>2019-04-29T12:12:09Z</time>
      </trkpt>
      <trkpt lat="45.89205" lon="4.30604">
        <ele>693.157</ele>
        <time>2019-04-29T12:12:15Z</time>
      </trkpt>
      <trkpt lat="45.89211" lon="4.30605">
        <ele>694.08</ele>
        <time>2019-04-29T12:12:21Z</time>
      </trkpt>
      <trkpt lat="45.89216" lon="4.30603">
        <ele>694.733</ele>
        <time>2019-04-29T12:12:27Z</time>
      </trkpt>
      <trkpt lat="45.89222" lon="4.306">
        <ele>695.181</ele>
        <time>2019-04-29T12:12:33Z</time>
      </trkpt>
      <trkpt lat="45.89225" lon="4.30595">
        <ele>695.786</ele>
        <time>2019-04-29T12:12:38Z</time>
      </trkpt>
      <trkpt lat="45.8923" lon="4.30585">
        <ele>696.575</ele>
        <time>2019-04-29T12:12:44Z</time>
      </trkpt>
      <trkpt lat="45.89233" lon="4.30582">
        <ele>696.96</ele>
        <time>2019-04-29T12:12:50Z</time>
      </trkpt>
      <trkpt lat="45.89234" lon="4.30584">
        <ele>696.917</ele>
        <time>2019-04-29T12:12:55Z</time>
      </trkpt>
      <trkpt lat="45.89236" lon="4.30583">
        <ele>696.993</ele>
        <time>2019-04-29T12:13:00Z</time>
      </trkpt>
      <trkpt lat="45.89242" lon="4.30577">
        <ele>696.756</ele>
        <time>2019-04-29T12:13:06Z</time>
      </trkpt>
      <trkpt lat="45.89248" lon="4.30571">
        <ele>696.376</ele>
        <time>2019-04-29T12:13:12Z</time>
      </trkpt>
      <trkpt lat="45.89254" lon="4.30567">
        <ele>695.703</ele>
        <time>2019-04-29T12:13:18Z</time>
      </trkpt>
      <trkpt lat="45.8926" lon="4.30562">
        <ele>695.117</ele>
        <time>2019-04-29T12:13:24Z</time>
      </trkpt>
      <trkpt lat="45.89264" lon="4.3056">
        <ele>694.627</ele>
        <time>2019-04-29T12:13:29Z</time>
      </trkpt>
      <trkpt lat="45.89271" lon="4.30557">
        <ele>694.099</ele>
        <time>2019-04-29T12:13:35Z</time>
      </trkpt>
      <trkpt lat="45.89278" lon="4.30557">
        <ele>693.381</ele>
        <time>2019-04-29T12:13:40Z</time>
      </trkpt>
      <trkpt lat="45.89285" lon="4.30556">
        <ele>692.475</ele>
        <time>2019-04-29T12:13:46Z</time>
      </trkpt>
      <trkpt lat="45.89292" lon="4.30554">
        <ele>691.579</ele>
        <time>2019-04-29T12:13:52Z</time>
      </trkpt>
      <trkpt lat="45.89297" lon="4.30552">
        <ele>691.277</ele>
        <time>2019-04-29T12:13:57Z</time>
      </trkpt>
      <trkpt lat="45.89303" lon="4.30548">
        <ele>691.091</ele>
        <time>2019-04-29T12:14:03Z</time>
      </trkpt>
      <trkpt lat="45.89311" lon="4.30546">
        <ele>690.731</ele>
        <time>2019-04-29T12:14:09Z</time>
      </trkpt>
      <trkpt lat="45.89319" lon="4.30544">
        <ele>690.5</ele>
        <time>2019-04-29T12:14:15Z</time>
      </trkpt>
      <trkpt lat="45.89325" lon="4.30542">
        <ele>690.175</ele>
        <time>2019-04-29T12:14:21Z</time>
      </trkpt>
      <trkpt lat="45.89333" lon="4.3054">
        <ele>690.315</ele>
        <time>2019-04-29T12:14:27Z</time>
      </trkpt>
      <trkpt lat="45.89341" lon="4.30537">
        <ele>690.664</ele>
        <time>2019-04-29T12:14:33Z</time>
      </trkpt>
      <trkpt lat="45.89346" lon="4.30536">
        <ele>690.345</ele>
        <time>2019-04-29T12:14:38Z</time>
      </trkpt>
      <trkpt lat="45.89351" lon="4.30535">
        <ele>690.142</ele>
        <time>2019-04-29T12:14:43Z</time>
      </trkpt>
      <trkpt lat="45.89357" lon="4.30533">
        <ele>690.424</ele>
        <time>2019-04-29T12:14:49Z</time>
      </trkpt>
      <trkpt lat="45.89364" lon="4.30532">
        <ele>690.372</ele>
        <time>2019-04-29T12:14:54Z</time>
      </trkpt>
      <trkpt lat="45.89369" lon="4.3053">
        <ele>690.861</ele>
        <time>2019-04-29T12:15:00Z</time>
      </trkpt>
      <trkpt lat="45.89376" lon="4.30528">
        <ele>691.328</ele>
        <time>2019-04-29T12:15:06Z</time>
      </trkpt>
      <trkpt lat="45.89381" lon="4.30525">
        <ele>691.578</ele>
        <time>2019-04-29T12:15:12Z</time>
      </trkpt>
      <trkpt lat="45.89389" lon="4.30524">
        <ele>691.559</ele>
        <time>2019-04-29T12:15:18Z</time>
      </trkpt>
      <trkpt lat="45.89395" lon="4.30523">
        <ele>691.473</ele>
        <time>2019-04-29T12:15:24Z</time>
      </trkpt>
      <trkpt lat="45.894" lon="4.30521">
        <ele>691.484</ele>
        <time>2019-04-29T12:15:29Z</time>
      </trkpt>
      <trkpt lat="45.89405" lon="4.30519">
        <ele>691.349</ele>
        <time>2019-04-29T12:15:35Z</time>
      </trkpt>
      <trkpt lat="45.89412" lon="4.30515">
        <ele>691.647</ele>
        <time>2019-04-29T12:15:40Z</time>
      </trkpt>
      <trkpt lat="45.89419" lon="4.30514">
        <ele>692.235</ele>
        <time>2019-04-29T12:15:46Z</time>
      </trkpt>
      <trkpt lat="45.8943" lon="4.3051">
        <ele>692.824</ele>
        <time>2019-04-29T12:15:52Z</time>
      </trkpt>
      <trkpt lat="45.89435" lon="4.30509">
        <ele>692.922</ele>
        <time>2019-04-29T12:15:58Z</time>
      </trkpt>
      <trkpt lat="45.8944" lon="4.30508">
        <ele>693.582</ele>
        <time>2019-04-29T12:16:04Z</time>
      </trkpt>
      <trkpt lat="45.89446" lon="4.30507">
        <ele>693.796</ele>
        <time>2019-04-29T12:16:10Z</time>
      </trkpt>
      <trkpt lat="45.89451" lon="4.30506">
        <ele>693.424</ele>
        <time>2019-04-29T12:16:15Z</time>
      </trkpt>
      <trkpt lat="45.89455" lon="4.30505">
        <ele>693.267</ele>
        <time>2019-04-29T12:16:21Z</time>
      </trkpt>
      <trkpt lat="45.89461" lon="4.30504">
        <ele>693.407</ele>
        <time>2019-04-29T12:16:26Z</time>
      </trkpt>
      <trkpt lat="45.89469" lon="4.30503">
        <ele>693.758</ele>
        <time>2019-04-29T12:16:32Z</time>
      </trkpt>
      <trkpt lat="45.89474" lon="4.30503">
        <ele>694.104</ele>
        <time>2019-04-29T12:16:37Z</time>
      </trkpt>
      <trkpt lat="45.89477" lon="4.30503">
        <ele>694.03</ele>
        <time>2019-04-29T12:16:43Z</time>
      </trkpt>
      <trkpt lat="45.89482" lon="4.30501">
        <ele>694.028</ele>
        <time>2019-04-29T12:16:48Z</time>
      </trkpt>
      <trkpt lat="45.8949" lon="4.30498">
        <ele>694.187</ele>
        <time>2019-04-29T12:16:54Z</time>
      </trkpt>
      <trkpt lat="45.89497" lon="4.30494">
        <ele>694.187</ele>
        <time>2019-04-29T12:17:00Z</time>
      </trkpt>
      <trkpt lat="45.89502" lon="4.30494">
        <ele>694.01</ele>
        <time>2019-04-29T12:17:06Z</time>
      </trkpt>
      <trkpt lat="45.89508" lon="4.30491">
        <ele>693.953</ele>
        <time>2019-04-29T12:17:12Z</time>
      </trkpt>
      <trkpt lat="45.89514" lon="4.30486">
        <ele>694.153</ele>
        <time>2019-04-29T12:17:17Z</time>
      </trkpt>
      <trkpt lat="45.8952" lon="4.30483">
        <ele>694.118</ele>
        <time>2019-04-29T12:17:22Z</time>
      </trkpt>
      <trkpt lat="45.89525" lon="4.30479">
        <ele>693.323</ele>
        <time>2019-04-29T12:17:28Z</time>
      </trkpt>
      <trkpt lat="45.89531" lon="4.30475">
        <ele>693.167</ele>
        <time>2019-04-29T12:17:34Z</time>
      </trkpt>
      <trkpt lat="45.89537" lon="4.30469">
        <ele>693.157</ele>
        <time>2019-04-29T12:17:40Z</time>
      </trkpt>
      <trkpt lat="45.89541" lon="4.30467">
        <ele>693.404</ele>
        <time>2019-04-29T12:17:46Z</time>
      </trkpt>
      <trkpt lat="45.89545" lon="4.30466">
        <ele>693.584</ele>
        <time>2019-04-29T12:17:51Z</time>
      </trkpt>
      <trkpt lat="45.89555" lon="4.30463">
        <ele>693.522</ele>
        <time>2019-04-29T12:17:57Z</time>
      </trkpt>
      <trkpt lat="45.89561" lon="4.30458">
        <ele>693.652</ele>
        <time>2019-04-29T12:18:02Z</time>
      </trkpt>
      <trkpt lat="45.89568" lon="4.30452">
        <ele>693.122</ele>
        <time>2019-04-29T12:18:08Z</time>
      </trkpt>
      <trkpt lat="45.89574" lon="4.30449">
        <ele>692.802</ele>
        <time>2019-04-29T12:18:14Z</time>
      </trkpt>
      <trkpt lat="45.89582" lon="4.30446">
        <ele>692.139</ele>
        <time>2019-04-29T12:18:20Z</time>
      </trkpt>
      <trkpt lat="45.89586" lon="4.30445">
        <ele>691.438</ele>
        <time>2019-04-29T12:18:26Z</time>
      </trkpt>
      <trkpt lat="45.89593" lon="4.30443">
        <ele>690.868</ele>
        <time>2019-04-29T12:18:32Z</time>
      </trkpt>
      <trkpt lat="45.89601" lon="4.3044">
        <ele>690.107</ele>
        <time>2019-04-29T12:18:38Z</time>
      </trkpt>
      <trkpt lat="45.89608" lon="4.30437">
        <ele>689.485</ele>
        <time>2019-04-29T12:18:44Z</time>
      </trkpt>
      <trkpt lat="45.89614" lon="4.30434">
        <ele>689.132</ele>
        <time>2019-04-29T12:18:49Z</time>
      </trkpt>
      <trkpt lat="45.89618" lon="4.30433">
        <ele>688.733</ele>
        <time>2019-04-29T12:18:55Z</time>
      </trkpt>
      <trkpt lat="45.89625" lon="4.30431">
        <ele>688.347</ele>
        <time>2019-04-29T12:19:00Z</time>
      </trkpt>
      <trkpt lat="45.89632" lon="4.30428">
        <ele>688.74</ele>
        <time>2019-04-29T12:19:06Z</time>
      </trkpt>
      <trkpt lat="45.89638" lon="4.30427">
        <ele>688.87</ele>
        <time>2019-04-29T12:19:12Z</time>
      </trkpt>
      <trkpt lat="45.89645" lon="4.30424">
        <ele>688.407</ele>
        <time>2019-04-29T12:19:18Z</time>
      </trkpt>
      <trkpt lat="45.89651" lon="4.30422">
        <ele>687.601</ele>
        <time>2019-04-29T12:19:24Z</time>
      </trkpt>
      <trkpt lat="45.89657" lon="4.30419">
        <ele>687.001</ele>
        <time>2019-04-29T12:19:29Z</time>
      </trkpt>
      <trkpt lat="45.89663" lon="4.30418">
        <ele>687.295</ele>
        <time>2019-04-29T12:19:34Z</time>
      </trkpt>
      <trkpt lat="45.89668" lon="4.30417">
        <ele>687.3</ele>
        <time>2019-04-29T12:19:40Z</time>
      </trkpt>
      <trkpt lat="45.89675" lon="4.30416">
        <ele>687.29</ele>
        <time>2019-04-29T12:19:46Z</time>
      </trkpt>
      <trkpt lat="45.89681" lon="4.30415">
        <ele>687.069</ele>
        <time>2019-04-29T12:19:51Z</time>
      </trkpt>
      <trkpt lat="45.89686" lon="4.30417">
        <ele>687.59</ele>
        <time>2019-04-29T12:19:56Z</time>
      </trkpt>
      <trkpt lat="45.89693" lon="4.30416">
        <ele>688.471</ele>
        <time>2019-04-29T12:20:02Z</time>
      </trkpt>
      <trkpt lat="45.89696" lon="4.30415">
        <ele>689.519</ele>
        <time>2019-04-29T12:20:07Z</time>
      </trkpt>
      <trkpt lat="45.89704" lon="4.30414">
        <ele>690.438</ele>
        <time>2019-04-29T12:20:13Z</time>
      </trkpt>
      <trkpt lat="45.89712" lon="4.30414">
        <ele>691.259</ele>
        <time>2019-04-29T12:20:19Z</time>
      </trkpt>
      <trkpt lat="45.89716" lon="4.30412">
        <ele>692.04</ele>
        <time>2019-04-29T12:20:24Z</time>
      </trkpt>
      <trkpt lat="45.89723" lon="4.30412">
        <ele>693.271</ele>
        <time>2019-04-29T12:20:30Z</time>
      </trkpt>
      <trkpt lat="45.89727" lon="4.30411">
        <ele>694.413</ele>
        <time>2019-04-29T12:20:36Z</time>
      </trkpt>
      <trkpt lat="45.89734" lon="4.30409">
        <ele>695.452</ele>
        <time>2019-04-29T12:20:42Z</time>
      </trkpt>
      <trkpt lat="45.8974" lon="4.30405">
        <ele>695.71</ele>
        <time>2019-04-29T12:20:48Z</time>
      </trkpt>
      <trkpt lat="45.89744" lon="4.30395">
        <ele>696.585</ele>
        <time>2019-04-29T12:20:54Z</time>
      </trkpt>
      <trkpt lat="45.89746" lon="4.30387">
        <ele>697.033</ele>
        <time>2019-04-29T12:21:00Z</time>
      </trkpt>
      <trkpt lat="45.89746" lon="4.30379">
        <ele>697.23</ele>
        <time>2019-04-29T12:21:06Z</time>
      </trkpt>
      <trkpt lat="45.89744" lon="4.30373">
        <ele>697.682</ele>
        <time>2019-04-29T12:21:11Z</time>
      </trkpt>
      <trkpt lat="45.89745" lon="4.30362">
        <ele>698.087</ele>
        <time>2019-04-29T12:21:16Z</time>
      </trkpt>
      <trkpt lat="45.89746" lon="4.30353">
        <ele>698.414</ele>
        <time>2019-04-29T12:21:22Z</time>
      </trkpt>
      <trkpt lat="45.89747" lon="4.30343">
        <ele>698.429</ele>
        <time>2019-04-29T12:21:28Z</time>
      </trkpt>
      <trkpt lat="45.89748" lon="4.30334">
        <ele>698.773</ele>
        <time>2019-04-29T12:21:34Z</time>
      </trkpt>
      <trkpt lat="45.8975" lon="4.30326">
        <ele>699.022</ele>
        <time>2019-04-29T12:21:39Z</time>
      </trkpt>
      <trkpt lat="45.8975" lon="4.30318">
        <ele>699.304</ele>
        <time>2019-04-29T12:21:45Z</time>
      </trkpt>
      <trkpt lat="45.89749" lon="4.3031">
        <ele>699.346</ele>
        <time>2019-04-29T12:21:50Z</time>
      </trkpt>
      <trkpt lat="45.89749" lon="4.30303">
        <ele>699.573</ele>
        <time>2019-04-29T12:21:56Z</time>
      </trkpt>
      <trkpt lat="45.89751" lon="4.30296">
        <ele>699.757</ele>
        <time>2019-04-29T12:22:02Z</time>
      </trkpt>
      <trkpt lat="45.89753" lon="4.3029">
        <ele>699.508</ele>
        <time>2019-04-29T12:22:07Z</time>
      </trkpt>
      <trkpt lat="45.89758" lon="4.30282">
        <ele>699.38</ele>
        <time>2019-04-29T12:22:13Z</time>
      </trkpt>
      <trkpt lat="45.89761" lon="4.30275">
        <ele>699.454</ele>
        <time>2019-04-29T12:22:18Z</time>
      </trkpt>
      <trkpt lat="45.89765" lon="4.30267">
        <ele>699.85</ele>
        <time>2019-04-29T12:22:24Z</time>
      </trkpt>
      <trkpt lat="45.89767" lon="4.30262">
        <ele>700.836</ele>
        <time>2019-04-29T12:22:30Z</time>
      </trkpt>
      <trkpt lat="45.8977" lon="4.30256">
        <ele>701.185</ele>
        <time>2019-04-29T12:22:36Z</time>
      </trkpt>
      <trkpt lat="45.89774" lon="4.30251">
        <ele>700.889</ele>
        <time>2019-04-29T12:22:41Z</time>
      </trkpt>
      <trkpt lat="45.89781" lon="4.30245">
        <ele>700.369</ele>
        <time>2019-04-29T12:22:47Z</time>
      </trkpt>
      <trkpt lat="45.89785" lon="4.30242">
        <ele>700.137</ele>
        <time>2019-04-29T12:22:52Z</time>
      </trkpt>
      <trkpt lat="45.89789" lon="4.30239">
        <ele>699.903</ele>
        <time>2019-04-29T12:22:58Z</time>
      </trkpt>
      <trkpt lat="45.89796" lon="4.30233">
        <ele>699.622</ele>
        <time>2019-04-29T12:23:04Z</time>
      </trkpt>
      <trkpt lat="45.89801" lon="4.30228">
        <ele>700.094</ele>
        <time>2019-04-29T12:23:10Z</time>
      </trkpt>
      <trkpt lat="45.89804" lon="4.30225">
        <ele>700.52</ele>
        <time>2019-04-29T12:23:15Z</time>
      </trkpt>
      <trkpt lat="45.89808" lon="4.30219">
        <ele>701.144</ele>
        <time>2019-04-29T12:23:21Z</time>
      </trkpt>
      <trkpt lat="45.89814" lon="4.30211">
        <ele>701.693</ele>
        <time>2019-04-29T12:23:27Z</time>
      </trkpt>
      <trkpt lat="45.89817" lon="4.30208">
        <ele>702.102</ele>
        <time>2019-04-29T12:23:32Z</time>
      </trkpt>
      <trkpt lat="45.89822" lon="4.30201">
        <ele>702.899</ele>
        <time>2019-04-29T12:23:38Z</time>
      </trkpt>
      <trkpt lat="45.89825" lon="4.30199">
        <ele>703.461</ele>
        <time>2019-04-29T12:23:43Z</time>
      </trkpt>
      <trkpt lat="45.8983" lon="4.30195">
        <ele>703.875</ele>
        <time>2019-04-29T12:23:48Z</time>
      </trkpt>
      <trkpt lat="45.89834" lon="4.30191">
        <ele>704.102</ele>
        <time>2019-04-29T12:23:54Z</time>
      </trkpt>
      <trkpt lat="45.89839" lon="4.30184">
        <ele>704.158</ele>
        <time>2019-04-29T12:24:00Z</time>
      </trkpt>
      <trkpt lat="45.89843" lon="4.30178">
        <ele>704.858</ele>
        <time>2019-04-29T12:24:06Z</time>
      </trkpt>
      <trkpt lat="45.89848" lon="4.30172">
        <ele>705.607</ele>
        <time>2019-04-29T12:24:12Z</time>
      </trkpt>
      <trkpt lat="45.89853" lon="4.30165">
        <ele>706.197</ele>
        <time>2019-04-29T12:24:18Z</time>
      </trkpt>
      <trkpt lat="45.89857" lon="4.30157">
        <ele>706.697</ele>
        <time>2019-04-29T12:24:24Z</time>
      </trkpt>
      <trkpt lat="45.8986" lon="4.3015">
        <ele>707.568</ele>
        <time>2019-04-29T12:24:30Z</time>
      </trkpt>
      <trkpt lat="45.89864" lon="4.30142">
        <ele>708.469</ele>
        <time>2019-04-29T12:24:36Z</time>
      </trkpt>
      <trkpt lat="45.89867" lon="4.30131">
        <ele>709.2</ele>
        <time>2019-04-29T12:24:42Z</time>
      </trkpt>
      <trkpt lat="45.8987" lon="4.30125">
        <ele>710.289</ele>
        <time>2019-04-29T12:24:48Z</time>
      </trkpt>
      <trkpt lat="45.89872" lon="4.3012">
        <ele>710.995</ele>
        <time>2019-04-29T12:24:53Z</time>
      </trkpt>
      <trkpt lat="45.89875" lon="4.30113">
        <ele>711.984</ele>
        <time>2019-04-29T12:24:59Z</time>
      </trkpt>
      <trkpt lat="45.89877" lon="4.30106">
        <ele>712.939</ele>
        <time>2019-04-29T12:25:05Z</time>
      </trkpt>
      <trkpt lat="45.8988" lon="4.30099">
        <ele>714.058</ele>
        <time>2019-04-29T12:25:10Z</time>
      </trkpt>
      <trkpt lat="45.89884" lon="4.30092">
        <ele>715.278</ele>
        <time>2019-04-29T12:25:16Z</time>
      </trkpt>
      <trkpt lat="45.89888" lon="4.30086">
        <ele>716.552</ele>
        <time>2019-04-29T12:25:22Z</time>
      </trkpt>
      <trkpt lat="45.89891" lon="4.30079">
        <ele>717.962</ele>
        <time>2019-04-29T12:25:28Z</time>
      </trkpt>
      <trkpt lat="45.89894" lon="4.30073">
        <ele>719.098</ele>
        <time>2019-04-29T12:25:33Z</time>
      </trkpt>
      <trkpt lat="45.89897" lon="4.30065">
        <ele>720.125</ele>
        <time>2019-04-29T12:25:39Z</time>
      </trkpt>
      <trkpt lat="45.899" lon="4.30059">
        <ele>720.73</ele>
        <time>2019-04-29T12:25:44Z</time>
      </trkpt>
      <trkpt lat="45.89903" lon="4.30052">
        <ele>721.338</ele>
        <time>2019-04-29T12:25:50Z</time>
      </trkpt>
      <trkpt lat="45.89905" lon="4.30046">
        <ele>721.942</ele>
        <time>2019-04-29T12:25:55Z</time>
      </trkpt>
      <trkpt lat="45.89908" lon="4.30036">
        <ele>722.652</ele>
        <time>2019-04-29T12:26:00Z</time>
      </trkpt>
      <trkpt lat="45.8991" lon="4.30029">
        <ele>723.307</ele>
        <time>2019-04-29T12:26:06Z</time>
      </trkpt>
      <trkpt lat="45.89913" lon="4.30022">
        <ele>724.062</ele>
        <time>2019-04-29T12:26:11Z</time>
      </trkpt>
      <trkpt lat="45.89918" lon="4.30015">
        <ele>724.894</ele>
        <time>2019-04-29T12:26:17Z</time>
      </trkpt>
      <trkpt lat="45.89919" lon="4.30008">
        <ele>725.549</ele>
        <time>2019-04-29T12:26:23Z</time>
      </trkpt>
      <trkpt lat="45.89922" lon="4.29999">
        <ele>726.178</ele>
        <time>2019-04-29T12:26:29Z</time>
      </trkpt>
      <trkpt lat="45.89924" lon="4.29988">
        <ele>726.588</ele>
        <time>2019-04-29T12:26:34Z</time>
      </trkpt>
      <trkpt lat="45.89926" lon="4.29982">
        <ele>727.046</ele>
        <time>2019-04-29T12:26:39Z</time>
      </trkpt>
      <trkpt lat="45.89928" lon="4.29975">
        <ele>727.444</ele>
        <time>2019-04-29T12:26:44Z</time>
      </trkpt>
      <trkpt lat="45.8993" lon="4.29967">
        <ele>728.009</ele>
        <time>2019-04-29T12:26:50Z</time>
      </trkpt>
      <trkpt lat="45.89934" lon="4.29957">
        <ele>728.772</ele>
        <time>2019-04-29T12:26:56Z</time>
      </trkpt>
      <trkpt lat="45.89937" lon="4.29951">
        <ele>729.158</ele>
        <time>2019-04-29T12:27:01Z</time>
      </trkpt>
      <trkpt lat="45.89939" lon="4.29945">
        <ele>729.695</ele>
        <time>2019-04-29T12:27:06Z</time>
      </trkpt>
      <trkpt lat="45.89941" lon="4.29936">
        <ele>730.182</ele>
        <time>2019-04-29T12:27:12Z</time>
      </trkpt>
      <trkpt lat="45.89942" lon="4.29928">
        <ele>730.842</ele>
        <time>2019-04-29T12:27:18Z</time>
      </trkpt>
      <trkpt lat="45.89944" lon="4.29918">
        <ele>731.491</ele>
        <time>2019-04-29T12:27:24Z</time>
      </trkpt>
      <trkpt lat="45.89945" lon="4.29911">
        <ele>731.773</ele>
        <time>2019-04-29T12:27:30Z</time>
      </trkpt>
      <trkpt lat="45.89947" lon="4.29901">
        <ele>731.879</ele>
        <time>2019-04-29T12:27:36Z</time>
      </trkpt>
      <trkpt lat="45.89949" lon="4.29893">
        <ele>732.278</ele>
        <time>2019-04-29T12:27:42Z</time>
      </trkpt>
      <trkpt lat="45.89951" lon="4.29882">
        <ele>732.674</ele>
        <time>2019-04-29T12:27:48Z</time>
      </trkpt>
      <trkpt lat="45.89952" lon="4.29875">
        <ele>732.997</ele>
        <time>2019-04-29T12:27:53Z</time>
      </trkpt>
      <trkpt lat="45.89953" lon="4.29866">
        <ele>733.115</ele>
        <time>2019-04-29T12:27:58Z</time>
      </trkpt>
      <trkpt lat="45.89954" lon="4.29858">
        <ele>733.377</ele>
        <time>2019-04-29T12:28:04Z</time>
      </trkpt>
      <trkpt lat="45.89956" lon="4.29849">
        <ele>733.585</ele>
        <time>2019-04-29T12:28:10Z</time>
      </trkpt>
      <trkpt lat="45.89958" lon="4.29839">
        <ele>733.787</ele>
        <time>2019-04-29T12:28:16Z</time>
      </trkpt>
      <trkpt lat="45.89961" lon="4.29831">
        <ele>733.837</ele>
        <time>2019-04-29T12:28:22Z</time>
      </trkpt>
      <trkpt lat="45.89963" lon="4.29824">
        <ele>733.97</ele>
        <time>2019-04-29T12:28:28Z</time>
      </trkpt>
      <trkpt lat="45.89964" lon="4.29818">
        <ele>734.026</ele>
        <time>2019-04-29T12:28:34Z</time>
      </trkpt>
      <trkpt lat="45.89967" lon="4.29812">
        <ele>733.778</ele>
        <time>2019-04-29T12:28:39Z</time>
      </trkpt>
      <trkpt lat="45.8997" lon="4.29806">
        <ele>733.555</ele>
        <time>2019-04-29T12:28:45Z</time>
      </trkpt>
      <trkpt lat="45.89971" lon="4.29797">
        <ele>733.381</ele>
        <time>2019-04-29T12:28:51Z</time>
      </trkpt>
      <trkpt lat="45.89974" lon="4.29792">
        <ele>733.358</ele>
        <time>2019-04-29T12:28:57Z</time>
      </trkpt>
      <trkpt lat="45.89976" lon="4.29785">
        <ele>733.169</ele>
        <time>2019-04-29T12:29:02Z</time>
      </trkpt>
      <trkpt lat="45.89977" lon="4.29777">
        <ele>733.09</ele>
        <time>2019-04-29T12:29:07Z</time>
      </trkpt>
      <trkpt lat="45.89978" lon="4.29768">
        <ele>733.013</ele>
        <time>2019-04-29T12:29:12Z</time>
      </trkpt>
      <trkpt lat="45.89979" lon="4.29758">
        <ele>733.178</ele>
        <time>2019-04-29T12:29:18Z</time>
      </trkpt>
      <trkpt lat="45.89979" lon="4.29752">
        <ele>733.702</ele>
        <time>2019-04-29T12:29:24Z</time>
      </trkpt>
      <trkpt lat="45.89979" lon="4.29748">
        <ele>734.072</ele>
        <time>2019-04-29T12:29:29Z</time>
      </trkpt>
      <trkpt lat="45.89981" lon="4.29746">
        <ele>734.278</ele>
        <time>2019-04-29T12:29:35Z</time>
      </trkpt>
      <trkpt lat="45.89982" lon="4.29746">
        <ele>734.402</ele>
        <time>2019-04-29T12:29:41Z</time>
      </trkpt>
      <trkpt lat="45.89981" lon="4.29745">
        <ele>734.662</ele>
        <time>2019-04-29T12:29:46Z</time>
      </trkpt>
      <trkpt lat="45.8998" lon="4.29746">
        <ele>735.221</ele>
        <time>2019-04-29T12:29:52Z</time>
      </trkpt>
      <trkpt lat="45.8998" lon="4.29745">
        <ele>735.671</ele>
        <time>2019-04-29T12:29:58Z</time>
      </trkpt>
      <trkpt lat="45.89979" lon="4.29746">
        <ele>736.168</ele>
        <time>2019-04-29T12:30:04Z</time>
      </trkpt>
      <trkpt lat="45.8998" lon="4.29746">
        <ele>737.048</ele>
        <time>2019-04-29T12:30:10Z</time>
      </trkpt>
      <trkpt lat="45.8998" lon="4.29746">
        <ele>737.319</ele>
        <time>2019-04-29T12:30:16Z</time>
      </trkpt>
      <trkpt lat="45.8998" lon="4.29747">
        <ele>737.606</ele>
        <time>2019-04-29T12:30:21Z</time>
      </trkpt>
      <trkpt lat="45.8998" lon="4.29745">
        <ele>737.766</ele>
        <time>2019-04-29T12:30:27Z</time>
      </trkpt>
      <trkpt lat="45.89981" lon="4.29744">
        <ele>738.317</ele>
        <time>2019-04-29T12:30:33Z</time>
      </trkpt>
      <trkpt lat="45.89982" lon="4.29745">
        <ele>738.756</ele>
        <time>2019-04-29T12:30:39Z</time>
      </trkpt>
      <trkpt lat="45.89982" lon="4.29745">
        <ele>738.824</ele>
        <time>2019-04-29T12:30:45Z</time>
      </trkpt>
      <trkpt lat="45.89983" lon="4.29745">
        <ele>738.859</ele>
        <time>2019-04-29T12:30:50Z</time>
      </trkpt>
      <trkpt lat="45.89982" lon="4.29744">
        <ele>738.973</ele>
        <time>2019-04-29T12:30:56Z</time>
      </trkpt>
      <trkpt lat="45.89981" lon="4.29744">
        <ele>738.888</ele>
        <time>2019-04-29T12:31:02Z</time>
      </trkpt>
      <trkpt lat="45.8998" lon="4.29744">
        <ele>738.929</ele>
        <time>2019-04-29T12:31:07Z</time>
      </trkpt>
      <trkpt lat="45.89981" lon="4.29743">
        <ele>739.002</ele>
        <time>2019-04-29T12:31:13Z</time>
      </trkpt>
      <trkpt lat="45.8998" lon="4.29742">
        <ele>739.148</ele>
        <time>2019-04-29T12:31:18Z</time>
      </trkpt>
      <trkpt lat="45.8998" lon="4.29741">
        <ele>739.292</ele>
        <time>2019-04-29T12:31:24Z</time>
      </trkpt>
      <trkpt lat="45.8998" lon="4.2974">
        <ele>739.46</ele>
        <time>2019-04-29T12:31:29Z</time>
      </trkpt>
      <trkpt lat="45.8998" lon="4.29741">
        <ele>739.614</ele>
        <time>2019-04-29T12:31:35Z</time>
      </trkpt>
      <trkpt lat="45.89979" lon="4.29742">
        <ele>739.734</ele>
        <time>2019-04-29T12:31:41Z</time>
      </trkpt>
      <trkpt lat="45.89979" lon="4.29743">
        <ele>739.704</ele>
        <time>2019-04-29T12:31:47Z</time>
      </trkpt>
      <trkpt lat="45.89979" lon="4.29742">
        <ele>739.722</ele>
        <time>2019-04-29T12:31:53Z</time>
      </trkpt>
      <trkpt lat="45.89979" lon="4.29741">
        <ele>739.949</ele>
        <time>2019-04-29T12:31:58Z</time>
      </trkpt>
      <trkpt lat="45.8998" lon="4.2974">
        <ele>740.304</ele>
        <time>2019-04-29T12:32:03Z</time>
      </trkpt>
      <trkpt lat="45.89981" lon="4.29738">
        <ele>740.386</ele>
        <time>2019-04-29T12:32:09Z</time>
      </trkpt>
      <trkpt lat="45.89984" lon="4.29731">
        <ele>740.16</ele>
        <time>2019-04-29T12:32:15Z</time>
      </trkpt>
      <trkpt lat="45.89987" lon="4.29724">
        <ele>739.842</ele>
        <time>2019-04-29T12:32:21Z</time>
      </trkpt>
      <trkpt lat="45.89988" lon="4.29717">
        <ele>739.361</ele>
        <time>2019-04-29T12:32:26Z</time>
      </trkpt>
      <trkpt lat="45.89992" lon="4.29711">
        <ele>738.771</ele>
        <time>2019-04-29T12:32:32Z</time>
      </trkpt>
      <trkpt lat="45.89994" lon="4.29704">
        <ele>738.442</ele>
        <time>2019-04-29T12:32:37Z</time>
      </trkpt>
      <trkpt lat="45.89996" lon="4.29694">
        <ele>738.097</ele>
        <time>2019-04-29T12:32:43Z</time>
      </trkpt>
      <trkpt lat="45.89998" lon="4.29685">
        <ele>737.757</ele>
        <time>2019-04-29T12:32:49Z</time>
      </trkpt>
      <trkpt lat="45.89999" lon="4.29678">
        <ele>737.307</ele>
        <time>2019-04-29T12:32:54Z</time>
      </trkpt>
      <trkpt lat="45.90002" lon="4.2967">
        <ele>736.712</ele>
        <time>2019-04-29T12:33:00Z</time>
      </trkpt>
      <trkpt lat="45.90004" lon="4.29662">
        <ele>735.907</ele>
        <time>2019-04-29T12:33:06Z</time>
      </trkpt>
      <trkpt lat="45.90006" lon="4.29654">
        <ele>735.064</ele>
        <time>2019-04-29T12:33:12Z</time>
      </trkpt>
      <trkpt lat="45.90009" lon="4.29645">
        <ele>734.269</ele>
        <time>2019-04-29T12:33:18Z</time>
      </trkpt>
      <trkpt lat="45.90011" lon="4.29636">
        <ele>734.079</ele>
        <time>2019-04-29T12:33:23Z</time>
      </trkpt>
      <trkpt lat="45.90014" lon="4.29629">
        <ele>733.745</ele>
        <time>2019-04-29T12:33:29Z</time>
      </trkpt>
      <trkpt lat="45.90015" lon="4.29622">
        <ele>733.39</ele>
        <time>2019-04-29T12:33:35Z</time>
      </trkpt>
      <trkpt lat="45.90017" lon="4.29618">
        <ele>733.385</ele>
        <time>2019-04-29T12:33:40Z</time>
      </trkpt>
      <trkpt lat="45.9002" lon="4.29609">
        <ele>732.738</ele>
        <time>2019-04-29T12:33:46Z</time>
      </trkpt>
      <trkpt lat="45.90022" lon="4.29601">
        <ele>732.447</ele>
        <time>2019-04-29T12:33:52Z</time>
      </trkpt>
      <trkpt lat="45.90026" lon="4.29592">
        <ele>732.095</ele>
        <time>2019-04-29T12:33:58Z</time>
      </trkpt>
      <trkpt lat="45.90028" lon="4.29585">
        <ele>731.542</ele>
        <time>2019-04-29T12:34:04Z</time>
      </trkpt>
      <trkpt lat="45.9003" lon="4.2958">
        <ele>730.983</ele>
        <time>2019-04-29T12:34:10Z</time>
      </trkpt>
      <trkpt lat="45.90033" lon="4.29573">
        <ele>730.145</ele>
        <time>2019-04-29T12:34:16Z</time>
      </trkpt>
      <trkpt lat="45.90037" lon="4.29568">
        <ele>729.375</ele>
        <time>2019-04-29T12:34:21Z</time>
      </trkpt>
      <trkpt lat="45.90042" lon="4.29565">
        <ele>728.282</ele>
        <time>2019-04-29T12:34:27Z</time>
      </trkpt>
      <trkpt lat="45.90045" lon="4.29559">
        <ele>727.334</ele>
        <time>2019-04-29T12:34:33Z</time>
      </trkpt>
      <trkpt lat="45.90047" lon="4.29555">
        <ele>726.429</ele>
        <time>2019-04-29T12:34:39Z</time>
      </trkpt>
      <trkpt lat="45.90051" lon="4.29547">
        <ele>725.829</ele>
        <time>2019-04-29T12:34:44Z</time>
      </trkpt>
      <trkpt lat="45.90058" lon="4.2954">
        <ele>725.338</ele>
        <time>2019-04-29T12:34:50Z</time>
      </trkpt>
      <trkpt lat="45.90063" lon="4.29536">
        <ele>724.689</ele>
        <time>2019-04-29T12:34:56Z</time>
      </trkpt>
      <trkpt lat="45.90068" lon="4.29527">
        <ele>724.16</ele>
        <time>2019-04-29T12:35:02Z</time>
      </trkpt>
      <trkpt lat="45.90072" lon="4.29524">
        <ele>723.59</ele>
        <time>2019-04-29T12:35:07Z</time>
      </trkpt>
      <trkpt lat="45.90078" lon="4.29519">
        <ele>722.91</ele>
        <time>2019-04-29T12:35:13Z</time>
      </trkpt>
      <trkpt lat="45.90081" lon="4.29516">
        <ele>722.231</ele>
        <time>2019-04-29T12:35:18Z</time>
      </trkpt>
      <trkpt lat="45.90078" lon="4.29511">
        <ele>721.68</ele>
        <time>2019-04-29T12:35:24Z</time>
      </trkpt>
      <trkpt lat="45.90073" lon="4.29506">
        <ele>721.007</ele>
        <time>2019-04-29T12:35:30Z</time>
      </trkpt>
      <trkpt lat="45.9007" lon="4.29501">
        <ele>720.452</ele>
        <time>2019-04-29T12:35:35Z</time>
      </trkpt>
      <trkpt lat="45.90067" lon="4.29499">
        <ele>719.895</ele>
        <time>2019-04-29T12:35:41Z</time>
      </trkpt>
      <trkpt lat="45.90064" lon="4.29495">
        <ele>719.422</ele>
        <time>2019-04-29T12:35:46Z</time>
      </trkpt>
      <trkpt lat="45.90059" lon="4.29488">
        <ele>719.062</ele>
        <time>2019-04-29T12:35:51Z</time>
      </trkpt>
      <trkpt lat="45.90054" lon="4.29481">
        <ele>718.382</ele>
        <time>2019-04-29T12:35:57Z</time>
      </trkpt>
      <trkpt lat="45.9005" lon="4.29474">
        <ele>717.567</ele>
        <time>2019-04-29T12:36:03Z</time>
      </trkpt>
      <trkpt lat="45.90046" lon="4.29466">
        <ele>716.999</ele>
        <time>2019-04-29T12:36:08Z</time>
      </trkpt>
      <trkpt lat="45.90042" lon="4.29459">
        <ele>716.255</ele>
        <time>2019-04-29T12:36:14Z</time>
      </trkpt>
      <trkpt lat="45.90038" lon="4.29452">
        <ele>715.615</ele>
        <time>2019-04-29T12:36:20Z</time>
      </trkpt>
      <trkpt lat="45.90036" lon="4.29446">
        <ele>714.881</ele>
        <time>2019-04-29T12:36:25Z</time>
      </trkpt>
      <trkpt lat="45.90035" lon="4.2944">
        <ele>714.288</ele>
        <time>2019-04-29T12:36:30Z</time>
      </trkpt>
      <trkpt lat="45.90033" lon="4.2943">
        <ele>713.504</ele>
        <time>2019-04-29T12:36:36Z</time>
      </trkpt>
      <trkpt lat="45.90032" lon="4.29421">
        <ele>712.975</ele>
        <time>2019-04-29T12:36:42Z</time>
      </trkpt>
      <trkpt lat="45.9003" lon="4.29411">
        <ele>712.206</ele>
        <time>2019-04-29T12:36:48Z</time>
      </trkpt>
      <trkpt lat="45.90029" lon="4.29402">
        <ele>711.458</ele>
        <time>2019-04-29T12:36:54Z</time>
      </trkpt>
      <trkpt lat="45.90029" lon="4.29391">
        <ele>710.711</ele>
        <time>2019-04-29T12:37:00Z</time>
      </trkpt>
      <trkpt lat="45.90027" lon="4.29384">
        <ele>710.218</ele>
        <time>2019-04-29T12:37:05Z</time>
      </trkpt>
      <trkpt lat="45.90027" lon="4.29374">
        <ele>709.363</ele>
        <time>2019-04-29T12:37:11Z</time>
      </trkpt>
      <trkpt lat="45.90029" lon="4.29364">
        <ele>708.835</ele>
        <time>2019-04-29T12:37:17Z</time>
      </trkpt>
      <trkpt lat="45.90031" lon="4.29354">
        <ele>708.369</ele>
        <time>2019-04-29T12:37:22Z</time>
      </trkpt>
      <trkpt lat="45.90032" lon="4.29343">
        <ele>707.96</ele>
        <time>2019-04-29T12:37:28Z</time>
      </trkpt>
      <trkpt lat="45.90031" lon="4.29333">
        <ele>707.653</ele>
        <time>2019-04-29T12:37:34Z</time>
      </trkpt>
      <trkpt lat="45.90032" lon="4.29324">
        <ele>707.014</ele>
        <time>2019-04-29T12:37:39Z</time>
      </trkpt>
      <trkpt lat="45.90033" lon="4.29315">
        <ele>706.585</ele>
        <time>2019-04-29T12:37:45Z</time>
      </trkpt>
      <trkpt lat="45.90035" lon="4.29306">
        <ele>706.187</ele>
        <time>2019-04-29T12:37:51Z</time>
      </trkpt>
      <trkpt lat="45.90037" lon="4.29298">
        <ele>705.84</ele>
        <time>2019-04-29T12:37:56Z</time>
      </trkpt>
      <trkpt lat="45.90039" lon="4.29289">
        <ele>705.672</ele>
        <time>2019-04-29T12:38:01Z</time>
      </trkpt>
      <trkpt lat="45.90042" lon="4.29279">
        <ele>705.282</ele>
        <time>2019-04-29T12:38:07Z</time>
      </trkpt>
      <trkpt lat="45.90044" lon="4.29275">
        <ele>704.84</ele>
        <time>2019-04-29T12:38:12Z</time>
      </trkpt>
      <trkpt lat="45.90048" lon="4.29266">
        <ele>704.354</ele>
        <time>2019-04-29T12:38:18Z</time>
      </trkpt>
      <trkpt lat="45.90052" lon="4.29259">
        <ele>703.945</ele>
        <time>2019-04-29T12:38:24Z</time>
      </trkpt>
      <trkpt lat="45.90056" lon="4.2925">
        <ele>703.426</ele>
        <time>2019-04-29T12:38:30Z</time>
      </trkpt>
      <trkpt lat="45.90059" lon="4.29245">
        <ele>703.066</ele>
        <time>2019-04-29T12:38:35Z</time>
      </trkpt>
      <trkpt lat="45.90063" lon="4.29239">
        <ele>702.5</ele>
        <time>2019-04-29T12:38:41Z</time>
      </trkpt>
      <trkpt lat="45.90067" lon="4.29232">
        <ele>701.985</ele>
        <time>2019-04-29T12:38:46Z</time>
      </trkpt>
      <trkpt lat="45.90071" lon="4.29224">
        <ele>701.644</ele>
        <time>2019-04-29T12:38:52Z</time>
      </trkpt>
      <trkpt lat="45.90075" lon="4.29213">
        <ele>701.509</ele>
        <time>2019-04-29T12:38:58Z</time>
      </trkpt>
      <trkpt lat="45.90077" lon="4.29205">
        <ele>701.726</ele>
        <time>2019-04-29T12:39:03Z</time>
      </trkpt>
      <trkpt lat="45.9008" lon="4.29198">
        <ele>701.692</ele>
        <time>2019-04-29T12:39:08Z</time>
      </trkpt>
      <trkpt lat="45.90081" lon="4.2919">
        <ele>701.851</ele>
        <time>2019-04-29T12:39:13Z</time>
      </trkpt>
      <trkpt lat="45.90082" lon="4.29183">
        <ele>702.064</ele>
        <time>2019-04-29T12:39:18Z</time>
      </trkpt>
      <trkpt lat="45.90085" lon="4.29173">
        <ele>702.318</ele>
        <time>2019-04-29T12:39:24Z</time>
      </trkpt>
      <trkpt lat="45.90086" lon="4.29165">
        <ele>702.627</ele>
        <time>2019-04-29T12:39:29Z</time>
      </trkpt>
      <trkpt lat="45.90088" lon="4.29156">
        <ele>702.835</ele>
        <time>2019-04-29T12:39:34Z</time>
      </trkpt>
      <trkpt lat="45.90087" lon="4.29146">
        <ele>702.967</ele>
        <time>2019-04-29T12:39:40Z</time>
      </trkpt>
      <trkpt lat="45.90087" lon="4.29139">
        <ele>702.971</ele>
        <time>2019-04-29T12:39:45Z</time>
      </trkpt>
      <trkpt lat="45.90087" lon="4.29132">
        <ele>703.21</ele>
        <time>2019-04-29T12:39:50Z</time>
      </trkpt>
      <trkpt lat="45.90086" lon="4.29123">
        <ele>703.047</ele>
        <time>2019-04-29T12:39:56Z</time>
      </trkpt>
      <trkpt lat="45.90085" lon="4.29112">
        <ele>702.551</ele>
        <time>2019-04-29T12:40:02Z</time>
      </trkpt>
      <trkpt lat="45.90085" lon="4.29104">
        <ele>702.105</ele>
        <time>2019-04-29T12:40:07Z</time>
      </trkpt>
      <trkpt lat="45.90084" lon="4.29096">
        <ele>701.507</ele>
        <time>2019-04-29T12:40:13Z</time>
      </trkpt>
      <trkpt lat="45.90081" lon="4.29085">
        <ele>701.245</ele>
        <time>2019-04-29T12:40:19Z</time>
      </trkpt>
      <trkpt lat="45.90081" lon="4.29073">
        <ele>701.448</ele>
        <time>2019-04-29T12:40:24Z</time>
      </trkpt>
      <trkpt lat="45.90078" lon="4.29064">
        <ele>701.789</ele>
        <time>2019-04-29T12:40:30Z</time>
      </trkpt>
      <trkpt lat="45.90077" lon="4.29053">
        <ele>701.988</ele>
        <time>2019-04-29T12:40:36Z</time>
      </trkpt>
      <trkpt lat="45.90077" lon="4.29042">
        <ele>702.183</ele>
        <time>2019-04-29T12:40:42Z</time>
      </trkpt>
      <trkpt lat="45.90079" lon="4.29033">
        <ele>702.211</ele>
        <time>2019-04-29T12:40:48Z</time>
      </trkpt>
      <trkpt lat="45.90079" lon="4.29025">
        <ele>702.221</ele>
        <time>2019-04-29T12:40:54Z</time>
      </trkpt>
      <trkpt lat="45.9008" lon="4.29015">
        <ele>702.034</ele>
        <time>2019-04-29T12:41:00Z</time>
      </trkpt>
      <trkpt lat="45.9008" lon="4.29007">
        <ele>701.721</ele>
        <time>2019-04-29T12:41:06Z</time>
      </trkpt>
      <trkpt lat="45.90081" lon="4.28996">
        <ele>701.548</ele>
        <time>2019-04-29T12:41:12Z</time>
      </trkpt>
      <trkpt lat="45.90081" lon="4.28987">
        <ele>701.723</ele>
        <time>2019-04-29T12:41:17Z</time>
      </trkpt>
      <trkpt lat="45.90082" lon="4.28978">
        <ele>701.497</ele>
        <time>2019-04-29T12:41:23Z</time>
      </trkpt>
      <trkpt lat="45.90082" lon="4.2897">
        <ele>701.289</ele>
        <time>2019-04-29T12:41:28Z</time>
      </trkpt>
      <trkpt lat="45.90084" lon="4.28962">
        <ele>700.993</ele>
        <time>2019-04-29T12:41:34Z</time>
      </trkpt>
      <trkpt lat="45.90084" lon="4.28954">
        <ele>700.649</ele>
        <time>2019-04-29T12:41:39Z</time>
      </trkpt>
      <trkpt lat="45.90085" lon="4.28949">
        <ele>700.008</ele>
        <time>2019-04-29T12:41:45Z</time>
      </trkpt>
      <trkpt lat="45.90084" lon="4.28947">
        <ele>699.546</ele>
        <time>2019-04-29T12:41:51Z</time>
      </trkpt>
      <trkpt lat="45.90085" lon="4.28946">
        <ele>699.033</ele>
        <time>2019-04-29T12:41:56Z</time>
      </trkpt>
      <trkpt lat="45.90085" lon="4.28945">
        <ele>698.67</ele>
        <time>2019-04-29T12:42:02Z</time>
      </trkpt>
      <trkpt lat="45.90087" lon="4.28944">
        <ele>698.143</ele>
        <time>2019-04-29T12:42:07Z</time>
      </trkpt>
      <trkpt lat="45.90088" lon="4.28944">
        <ele>698.102</ele>
        <time>2019-04-29T12:42:13Z</time>
      </trkpt>
      <trkpt lat="45.90088" lon="4.28943">
        <ele>698.127</ele>
        <time>2019-04-29T12:42:18Z</time>
      </trkpt>
      <trkpt lat="45.90086" lon="4.28941">
        <ele>698.3</ele>
        <time>2019-04-29T12:42:24Z</time>
      </trkpt>
      <trkpt lat="45.90086" lon="4.28937">
        <ele>699.122</ele>
        <time>2019-04-29T12:42:30Z</time>
      </trkpt>
      <trkpt lat="45.90087" lon="4.28937">
        <ele>699.478</ele>
        <time>2019-04-29T12:42:36Z</time>
      </trkpt>
      <trkpt lat="45.90087" lon="4.28939">
        <ele>699.255</ele>
        <time>2019-04-29T12:42:42Z</time>
      </trkpt>
      <trkpt lat="45.90087" lon="4.28939">
        <ele>699.177</ele>
        <time>2019-04-29T12:42:47Z</time>
      </trkpt>
      <trkpt lat="45.90088" lon="4.2894">
        <ele>699.189</ele>
        <time>2019-04-29T12:42:52Z</time>
      </trkpt>
      <trkpt lat="45.90088" lon="4.28941">
        <ele>699.33</ele>
        <time>2019-04-29T12:42:58Z</time>
      </trkpt>
      <trkpt lat="45.90089" lon="4.28939">
        <ele>699.313</ele>
        <time>2019-04-29T12:43:03Z</time>
      </trkpt>
      <trkpt lat="45.90089" lon="4.28937">
        <ele>699.273</ele>
        <time>2019-04-29T12:43:09Z</time>
      </trkpt>
      <trkpt lat="45.90089" lon="4.28938">
        <ele>699.268</ele>
        <time>2019-04-29T12:43:14Z</time>
      </trkpt>
      <trkpt lat="45.90089" lon="4.2894">
        <ele>699.296</ele>
        <time>2019-04-29T12:43:19Z</time>
      </trkpt>
      <trkpt lat="45.90089" lon="4.28941">
        <ele>699.431</ele>
        <time>2019-04-29T12:43:24Z</time>
      </trkpt>
      <trkpt lat="45.90089" lon="4.28942">
        <ele>699.605</ele>
        <time>2019-04-29T12:43:29Z</time>
      </trkpt>
      <trkpt lat="45.90089" lon="4.28943">
        <ele>699.711</ele>
        <time>2019-04-29T12:43:35Z</time>
      </trkpt>
      <trkpt lat="45.90088" lon="4.2894">
        <ele>699.473</ele>
        <time>2019-04-29T12:43:40Z</time>
      </trkpt>
      <trkpt lat="45.90087" lon="4.28935">
        <ele>699.169</ele>
        <time>2019-04-29T12:43:46Z</time>
      </trkpt>
      <trkpt lat="45.90086" lon="4.2893">
        <ele>698.562</ele>
        <time>2019-04-29T12:43:52Z</time>
      </trkpt>
      <trkpt lat="45.90086" lon="4.28921">
        <ele>697.888</ele>
        <time>2019-04-29T12:43:58Z</time>
      </trkpt>
      <trkpt lat="45.90087" lon="4.28913">
        <ele>697.3</ele>
        <time>2019-04-29T12:44:03Z</time>
      </trkpt>
      <trkpt lat="45.90089" lon="4.28905">
        <ele>697.116</ele>
        <time>2019-04-29T12:44:09Z</time>
      </trkpt>
      <trkpt lat="45.90089" lon="4.28896">
        <ele>696.965</ele>
        <time>2019-04-29T12:44:15Z</time>
      </trkpt>
      <trkpt lat="45.90089" lon="4.28887">
        <ele>696.889</ele>
        <time>2019-04-29T12:44:21Z</time>
      </trkpt>
      <trkpt lat="45.9009" lon="4.28882">
        <ele>696.728</ele>
        <time>2019-04-29T12:44:26Z</time>
      </trkpt>
      <trkpt lat="45.90089" lon="4.28874">
        <ele>696.414</ele>
        <time>2019-04-29T12:44:31Z</time>
      </trkpt>
      <trkpt lat="45.90089" lon="4.28867">
        <ele>696.194</ele>
        <time>2019-04-29T12:44:37Z</time>
      </trkpt>
      <trkpt lat="45.90088" lon="4.28863">
        <ele>696.028</ele>
        <time>2019-04-29T12:44:42Z</time>
      </trkpt>
      <trkpt lat="45.90088" lon="4.28856">
        <ele>695.696</ele>
        <time>2019-04-29T12:44:47Z</time>
      </trkpt>
      <trkpt lat="45.90087" lon="4.28847">
        <ele>695.12</ele>
        <time>2019-04-29T12:44:53Z</time>
      </trkpt>
      <trkpt lat="45.90088" lon="4.28837">
        <ele>694.833</ele>
        <time>2019-04-29T12:44:59Z</time>
      </trkpt>
      <trkpt lat="45.9009" lon="4.28827">
        <ele>694.435</ele>
        <time>2019-04-29T12:45:05Z</time>
      </trkpt>
      <trkpt lat="45.90091" lon="4.28819">
        <ele>694.038</ele>
        <time>2019-04-29T12:45:10Z</time>
      </trkpt>
      <trkpt lat="45.9009" lon="4.28811">
        <ele>693.568</ele>
        <time>2019-04-29T12:45:16Z</time>
      </trkpt>
      <trkpt lat="45.9009" lon="4.28803">
        <ele>692.991</ele>
        <time>2019-04-29T12:45:22Z</time>
      </trkpt>
      <trkpt lat="45.90091" lon="4.28795">
        <ele>692.337</ele>
        <time>2019-04-29T12:45:28Z</time>
      </trkpt>
      <trkpt lat="45.90093" lon="4.28786">
        <ele>692.154</ele>
        <time>2019-04-29T12:45:33Z</time>
      </trkpt>
      <trkpt lat="45.90094" lon="4.28779">
        <ele>691.881</ele>
        <time>2019-04-29T12:45:39Z</time>
      </trkpt>
      <trkpt lat="45.90097" lon="4.28771">
        <ele>691.46</ele>
        <time>2019-04-29T12:45:45Z</time>
      </trkpt>
      <trkpt lat="45.90098" lon="4.28762">
        <ele>691.016</ele>
        <time>2019-04-29T12:45:51Z</time>
      </trkpt>
      <trkpt lat="45.90098" lon="4.28755">
        <ele>690.689</ele>
        <time>2019-04-29T12:45:56Z</time>
      </trkpt>
      <trkpt lat="45.90098" lon="4.28747">
        <ele>690.153</ele>
        <time>2019-04-29T12:46:02Z</time>
      </trkpt>
      <trkpt lat="45.90099" lon="4.28739">
        <ele>690.108</ele>
        <time>2019-04-29T12:46:07Z</time>
      </trkpt>
      <trkpt lat="45.90099" lon="4.28732">
        <ele>689.837</ele>
        <time>2019-04-29T12:46:12Z</time>
      </trkpt>
      <trkpt lat="45.901" lon="4.28723">
        <ele>689.546</ele>
        <time>2019-04-29T12:46:18Z</time>
      </trkpt>
      <trkpt lat="45.90101" lon="4.28715">
        <ele>689.13</ele>
        <time>2019-04-29T12:46:24Z</time>
      </trkpt>
      <trkpt lat="45.90102" lon="4.28707">
        <ele>688.648</ele>
        <time>2019-04-29T12:46:29Z</time>
      </trkpt>
      <trkpt lat="45.90101" lon="4.28699">
        <ele>687.983</ele>
        <time>2019-04-29T12:46:35Z</time>
      </trkpt>
      <trkpt lat="45.90102" lon="4.28691">
        <ele>687.48</ele>
        <time>2019-04-29T12:46:41Z</time>
      </trkpt>
      <trkpt lat="45.90102" lon="4.28683">
        <ele>686.912</ele>
        <time>2019-04-29T12:46:47Z</time>
      </trkpt>
      <trkpt lat="45.90104" lon="4.28674">
        <ele>686.506</ele>
        <time>2019-04-29T12:46:52Z</time>
      </trkpt>
      <trkpt lat="45.90104" lon="4.28665">
        <ele>686.201</ele>
        <time>2019-04-29T12:46:58Z</time>
      </trkpt>
      <trkpt lat="45.90105" lon="4.28658">
        <ele>685.829</ele>
        <time>2019-04-29T12:47:03Z</time>
      </trkpt>
      <trkpt lat="45.90106" lon="4.28651">
        <ele>685.647</ele>
        <time>2019-04-29T12:47:08Z</time>
      </trkpt>
      <trkpt lat="45.90106" lon="4.28644">
        <ele>685.288</ele>
        <time>2019-04-29T12:47:14Z</time>
      </trkpt>
      <trkpt lat="45.90106" lon="4.28635">
        <ele>684.666</ele>
        <time>2019-04-29T12:47:20Z</time>
      </trkpt>
      <trkpt lat="45.90108" lon="4.28627">
        <ele>684.209</ele>
        <time>2019-04-29T12:47:26Z</time>
      </trkpt>
      <trkpt lat="45.90108" lon="4.28617">
        <ele>683.519</ele>
        <time>2019-04-29T12:47:32Z</time>
      </trkpt>
      <trkpt lat="45.90109" lon="4.28608">
        <ele>683.367</ele>
        <time>2019-04-29T12:47:37Z</time>
      </trkpt>
      <trkpt lat="45.90108" lon="4.28601">
        <ele>682.934</ele>
        <time>2019-04-29T12:47:43Z</time>
      </trkpt>
      <trkpt lat="45.90107" lon="4.28593">
        <ele>682.394</ele>
        <time>2019-04-29T12:47:49Z</time>
      </trkpt>
      <trkpt lat="45.90107" lon="4.28585">
        <ele>682.005</ele>
        <time>2019-04-29T12:47:54Z</time>
      </trkpt>
      <trkpt lat="45.90107" lon="4.28575">
        <ele>681.617</ele>
        <time>2019-04-29T12:48:00Z</time>
      </trkpt>
      <trkpt lat="45.90107" lon="4.28567">
        <ele>681.019</ele>
        <time>2019-04-29T12:48:06Z</time>
      </trkpt>
      <trkpt lat="45.90107" lon="4.28561">
        <ele>680.22</ele>
        <time>2019-04-29T12:48:11Z</time>
      </trkpt>
      <trkpt lat="45.90106" lon="4.28553">
        <ele>679.634</ele>
        <time>2019-04-29T12:48:16Z</time>
      </trkpt>
      <trkpt lat="45.90107" lon="4.28545">
        <ele>679.235</ele>
        <time>2019-04-29T12:48:22Z</time>
      </trkpt>
      <trkpt lat="45.90106" lon="4.28535">
        <ele>678.582</ele>
        <time>2019-04-29T12:48:28Z</time>
      </trkpt>
      <trkpt lat="45.90105" lon="4.28527">
        <ele>678.258</ele>
        <time>2019-04-29T12:48:33Z</time>
      </trkpt>
      <trkpt lat="45.90103" lon="4.28519">
        <ele>677.824</ele>
        <time>2019-04-29T12:48:39Z</time>
      </trkpt>
      <trkpt lat="45.90103" lon="4.28513">
        <ele>677.136</ele>
        <time>2019-04-29T12:48:44Z</time>
      </trkpt>
      <trkpt lat="45.90103" lon="4.28508">
        <ele>675.727</ele>
        <time>2019-04-29T12:48:50Z</time>
      </trkpt>
      <trkpt lat="45.90102" lon="4.285">
        <ele>675.074</ele>
        <time>2019-04-29T12:48:55Z</time>
      </trkpt>
      <trkpt lat="45.90099" lon="4.28495">
        <ele>674.581</ele>
        <time>2019-04-29T12:49:00Z</time>
      </trkpt>
      <trkpt lat="45.90098" lon="4.28489">
        <ele>674.263</ele>
        <time>2019-04-29T12:49:06Z</time>
      </trkpt>
      <trkpt lat="45.90098" lon="4.28488">
        <ele>674.154</ele>
        <time>2019-04-29T12:49:12Z</time>
      </trkpt>
      <trkpt lat="45.90098" lon="4.28486">
        <ele>673.972</ele>
        <time>2019-04-29T12:49:18Z</time>
      </trkpt>
      <trkpt lat="45.90099" lon="4.28485">
        <ele>673.684</ele>
        <time>2019-04-29T12:49:24Z</time>
      </trkpt>
      <trkpt lat="45.90099" lon="4.28485">
        <ele>673.371</ele>
        <time>2019-04-29T12:49:29Z</time>
      </trkpt>
      <trkpt lat="45.901" lon="4.28485">
        <ele>673.384</ele>
        <time>2019-04-29T12:49:34Z</time>
      </trkpt>
      <trkpt lat="45.901" lon="4.28486">
        <ele>673.427</ele>
        <time>2019-04-29T12:49:39Z</time>
      </trkpt>
      <trkpt lat="45.90099" lon="4.28487">
        <ele>673.254</ele>
        <time>2019-04-29T12:49:45Z</time>
      </trkpt>
      <trkpt lat="45.90099" lon="4.28487">
        <ele>672.998</ele>
        <time>2019-04-29T12:49:51Z</time>
      </trkpt>
      <trkpt lat="45.90098" lon="4.28487">
        <ele>672.8</ele>
        <time>2019-04-29T12:49:57Z</time>
      </trkpt>
      <trkpt lat="45.90098" lon="4.28487">
        <ele>672.609</ele>
        <time>2019-04-29T12:50:02Z</time>
      </trkpt>
      <trkpt lat="45.90096" lon="4.28485">
        <ele>672.123</ele>
        <time>2019-04-29T12:50:07Z</time>
      </trkpt>
      <trkpt lat="45.90097" lon="4.28488">
        <ele>671.674</ele>
        <time>2019-04-29T12:50:13Z</time>
      </trkpt>
      <trkpt lat="45.90097" lon="4.28489">
        <ele>671.554</ele>
        <time>2019-04-29T12:50:18Z</time>
      </trkpt>
      <trkpt lat="45.90097" lon="4.2849">
        <ele>671.513</ele>
        <time>2019-04-29T12:50:24Z</time>
      </trkpt>
      <trkpt lat="45.90095" lon="4.28491">
        <ele>671.39</ele>
        <time>2019-04-29T12:50:29Z</time>
      </trkpt>
      <trkpt lat="45.90095" lon="4.28491">
        <ele>670.988</ele>
        <time>2019-04-29T12:50:34Z</time>
      </trkpt>
      <trkpt lat="45.90097" lon="4.28491">
        <ele>670.791</ele>
        <time>2019-04-29T12:50:40Z</time>
      </trkpt>
      <trkpt lat="45.90097" lon="4.2849">
        <ele>670.673</ele>
        <time>2019-04-29T12:50:46Z</time>
      </trkpt>
      <trkpt lat="45.90096" lon="4.28486">
        <ele>670.536</ele>
        <time>2019-04-29T12:50:51Z</time>
      </trkpt>
      <trkpt lat="45.90096" lon="4.28486">
        <ele>670.821</ele>
        <time>2019-04-29T12:50:57Z</time>
      </trkpt>
      <trkpt lat="45.90097" lon="4.28485">
        <ele>671.365</ele>
        <time>2019-04-29T12:51:03Z</time>
      </trkpt>
      <trkpt lat="45.90097" lon="4.28482">
        <ele>671.609</ele>
        <time>2019-04-29T12:51:09Z</time>
      </trkpt>
      <trkpt lat="45.90096" lon="4.28481">
        <ele>671.923</ele>
        <time>2019-04-29T12:51:15Z</time>
      </trkpt>
      <trkpt lat="45.90095" lon="4.28482">
        <ele>671.775</ele>
        <time>2019-04-29T12:51:20Z</time>
      </trkpt>
      <trkpt lat="45.90095" lon="4.28481">
        <ele>671.768</ele>
        <time>2019-04-29T12:51:26Z</time>
      </trkpt>
      <trkpt lat="45.90095" lon="4.28481">
        <ele>671.593</ele>
        <time>2019-04-29T12:51:31Z</time>
      </trkpt>
      <trkpt lat="45.90095" lon="4.28482">
        <ele>671.472</ele>
        <time>2019-04-29T12:51:36Z</time>
      </trkpt>
      <trkpt lat="45.90092" lon="4.28473">
        <ele>671.413</ele>
        <time>2019-04-29T12:51:42Z</time>
      </trkpt>
      <trkpt lat="45.90093" lon="4.28463">
        <ele>671.35</ele>
        <time>2019-04-29T12:51:48Z</time>
      </trkpt>
      <trkpt lat="45.90093" lon="4.28454">
        <ele>671.088</ele>
        <time>2019-04-29T12:51:53Z</time>
      </trkpt>
      <trkpt lat="45.90091" lon="4.28445">
        <ele>670.709</ele>
        <time>2019-04-29T12:51:59Z</time>
      </trkpt>
      <trkpt lat="45.90091" lon="4.28433">
        <ele>670.593</ele>
        <time>2019-04-29T12:52:05Z</time>
      </trkpt>
      <trkpt lat="45.9009" lon="4.28427">
        <ele>670.686</ele>
        <time>2019-04-29T12:52:10Z</time>
      </trkpt>
      <trkpt lat="45.9009" lon="4.28419">
        <ele>670.5</ele>
        <time>2019-04-29T12:52:15Z</time>
      </trkpt>
      <trkpt lat="45.90089" lon="4.2841">
        <ele>669.919</ele>
        <time>2019-04-29T12:52:21Z</time>
      </trkpt>
      <trkpt lat="45.90087" lon="4.28401">
        <ele>669.657</ele>
        <time>2019-04-29T12:52:26Z</time>
      </trkpt>
      <trkpt lat="45.90085" lon="4.28391">
        <ele>669.263</ele>
        <time>2019-04-29T12:52:32Z</time>
      </trkpt>
      <trkpt lat="45.90082" lon="4.28382">
        <ele>669.253</ele>
        <time>2019-04-29T12:52:38Z</time>
      </trkpt>
      <trkpt lat="45.90078" lon="4.28372">
        <ele>669.268</ele>
        <time>2019-04-29T12:52:44Z</time>
      </trkpt>
      <trkpt lat="45.90077" lon="4.28359">
        <ele>669.11</ele>
        <time>2019-04-29T12:52:50Z</time>
      </trkpt>
      <trkpt lat="45.90077" lon="4.28352">
        <ele>669.085</ele>
        <time>2019-04-29T12:52:56Z</time>
      </trkpt>
      <trkpt lat="45.90073" lon="4.28343">
        <ele>669.372</ele>
        <time>2019-04-29T12:53:01Z</time>
      </trkpt>
      <trkpt lat="45.90072" lon="4.28334">
        <ele>669.547</ele>
        <time>2019-04-29T12:53:06Z</time>
      </trkpt>
      <trkpt lat="45.90068" lon="4.28324">
        <ele>669.76</ele>
        <time>2019-04-29T12:53:12Z</time>
      </trkpt>
      <trkpt lat="45.90066" lon="4.28318">
        <ele>669.841</ele>
        <time>2019-04-29T12:53:17Z</time>
      </trkpt>
      <trkpt lat="45.90065" lon="4.28309">
        <ele>669.63</ele>
        <time>2019-04-29T12:53:22Z</time>
      </trkpt>
      <trkpt lat="45.90063" lon="4.28301">
        <ele>669.704</ele>
        <time>2019-04-29T12:53:28Z</time>
      </trkpt>
      <trkpt lat="45.9006" lon="4.28292">
        <ele>669.433</ele>
        <time>2019-04-29T12:53:33Z</time>
      </trkpt>
      <trkpt lat="45.90057" lon="4.28282">
        <ele>669.616</ele>
        <time>2019-04-29T12:53:39Z</time>
      </trkpt>
      <trkpt lat="45.90053" lon="4.28274">
        <ele>669.811</ele>
        <time>2019-04-29T12:53:45Z</time>
      </trkpt>
      <trkpt lat="45.90047" lon="4.28268">
        <ele>669.917</ele>
        <time>2019-04-29T12:53:51Z</time>
      </trkpt>
      <trkpt lat="45.9004" lon="4.28261">
        <ele>669.431</ele>
        <time>2019-04-29T12:53:57Z</time>
      </trkpt>
      <trkpt lat="45.90032" lon="4.28257">
        <ele>669.329</ele>
        <time>2019-04-29T12:54:03Z</time>
      </trkpt>
      <trkpt lat="45.90027" lon="4.28255">
        <ele>669.578</ele>
        <time>2019-04-29T12:54:09Z</time>
      </trkpt>
      <trkpt lat="45.9002" lon="4.28251">
        <ele>669.434</ele>
        <time>2019-04-29T12:54:15Z</time>
      </trkpt>
      <trkpt lat="45.90013" lon="4.28246">
        <ele>669.781</ele>
        <time>2019-04-29T12:54:20Z</time>
      </trkpt>
      <trkpt lat="45.90008" lon="4.28242">
        <ele>670.084</ele>
        <time>2019-04-29T12:54:26Z</time>
      </trkpt>
      <trkpt lat="45.90002" lon="4.28239">
        <ele>670.425</ele>
        <time>2019-04-29T12:54:31Z</time>
      </trkpt>
      <trkpt lat="45.89995" lon="4.28236">
        <ele>670.449</ele>
        <time>2019-04-29T12:54:36Z</time>
      </trkpt>
      <trkpt lat="45.8999" lon="4.28233">
        <ele>670.071</ele>
        <time>2019-04-29T12:54:42Z</time>
      </trkpt>
      <trkpt lat="45.89983" lon="4.2823">
        <ele>669.766</ele>
        <time>2019-04-29T12:54:47Z</time>
      </trkpt>
      <trkpt lat="45.89975" lon="4.28224">
        <ele>669.513</ele>
        <time>2019-04-29T12:54:53Z</time>
      </trkpt>
      <trkpt lat="45.8997" lon="4.28222">
        <ele>669.219</ele>
        <time>2019-04-29T12:54:59Z</time>
      </trkpt>
      <trkpt lat="45.89966" lon="4.28218">
        <ele>669.558</ele>
        <time>2019-04-29T12:55:05Z</time>
      </trkpt>
      <trkpt lat="45.89961" lon="4.28213">
        <ele>669.63</ele>
        <time>2019-04-29T12:55:11Z</time>
      </trkpt>
      <trkpt lat="45.89958" lon="4.28209">
        <ele>669.586</ele>
        <time>2019-04-29T12:55:16Z</time>
      </trkpt>
      <trkpt lat="45.89952" lon="4.28203">
        <ele>669.679</ele>
        <time>2019-04-29T12:55:22Z</time>
      </trkpt>
      <trkpt lat="45.89946" lon="4.28197">
        <ele>669.497</ele>
        <time>2019-04-29T12:55:28Z</time>
      </trkpt>
      <trkpt lat="45.89942" lon="4.28191">
        <ele>669.458</ele>
        <time>2019-04-29T12:55:33Z</time>
      </trkpt>
      <trkpt lat="45.89936" lon="4.28183">
        <ele>669.507</ele>
        <time>2019-04-29T12:55:39Z</time>
      </trkpt>
      <trkpt lat="45.89931" lon="4.28176">
        <ele>669.659</ele>
        <time>2019-04-29T12:55:44Z</time>
      </trkpt>
      <trkpt lat="45.89927" lon="4.28167">
        <ele>669.67</ele>
        <time>2019-04-29T12:55:50Z</time>
      </trkpt>
      <trkpt lat="45.89925" lon="4.28161">
        <ele>669.58</ele>
        <time>2019-04-29T12:55:55Z</time>
      </trkpt>
      <trkpt lat="45.89921" lon="4.28152">
        <ele>669.617</ele>
        <time>2019-04-29T12:56:01Z</time>
      </trkpt>
      <trkpt lat="45.89916" lon="4.28143">
        <ele>669.18</ele>
        <time>2019-04-29T12:56:07Z</time>
      </trkpt>
      <trkpt lat="45.89914" lon="4.28135">
        <ele>668.724</ele>
        <time>2019-04-29T12:56:13Z</time>
      </trkpt>
      <trkpt lat="45.8991" lon="4.28125">
        <ele>668.561</ele>
        <time>2019-04-29T12:56:18Z</time>
      </trkpt>
      <trkpt lat="45.89907" lon="4.28117">
        <ele>668.576</ele>
        <time>2019-04-29T12:56:23Z</time>
      </trkpt>
      <trkpt lat="45.89905" lon="4.28108">
        <ele>668.354</ele>
        <time>2019-04-29T12:56:29Z</time>
      </trkpt>
      <trkpt lat="45.89903" lon="4.28099">
        <ele>667.951</ele>
        <time>2019-04-29T12:56:35Z</time>
      </trkpt>
      <trkpt lat="45.89901" lon="4.28089">
        <ele>667.45</ele>
        <time>2019-04-29T12:56:41Z</time>
      </trkpt>
      <trkpt lat="45.89897" lon="4.2808">
        <ele>667.108</ele>
        <time>2019-04-29T12:56:46Z</time>
      </trkpt>
      <trkpt lat="45.89894" lon="4.2807">
        <ele>666.69</ele>
        <time>2019-04-29T12:56:52Z</time>
      </trkpt>
      <trkpt lat="45.8989" lon="4.28062">
        <ele>666.581</ele>
        <time>2019-04-29T12:56:57Z</time>
      </trkpt>
      <trkpt lat="45.89886" lon="4.28052">
        <ele>666.256</ele>
        <time>2019-04-29T12:57:03Z</time>
      </trkpt>
      <trkpt lat="45.89882" lon="4.28043">
        <ele>666.268</ele>
        <time>2019-04-29T12:57:09Z</time>
      </trkpt>
      <trkpt lat="45.89879" lon="4.28032">
        <ele>666.442</ele>
        <time>2019-04-29T12:57:15Z</time>
      </trkpt>
      <trkpt lat="45.89878" lon="4.28024">
        <ele>666.334</ele>
        <time>2019-04-29T12:57:20Z</time>
      </trkpt>
      <trkpt lat="45.89874" lon="4.28015">
        <ele>666.016</ele>
        <time>2019-04-29T12:57:26Z</time>
      </trkpt>
      <trkpt lat="45.89871" lon="4.28007">
        <ele>665.347</ele>
        <time>2019-04-29T12:57:31Z</time>
      </trkpt>
      <trkpt lat="45.89868" lon="4.27998">
        <ele>664.776</ele>
        <time>2019-04-29T12:57:37Z</time>
      </trkpt>
      <trkpt lat="45.89865" lon="4.27989">
        <ele>664.108</ele>
        <time>2019-04-29T12:57:42Z</time>
      </trkpt>
      <trkpt lat="45.89861" lon="4.2798">
        <ele>663.868</ele>
        <time>2019-04-29T12:57:48Z</time>
      </trkpt>
      <trkpt lat="45.89856" lon="4.2797">
        <ele>663.603</ele>
        <time>2019-04-29T12:57:54Z</time>
      </trkpt>
      <trkpt lat="45.89852" lon="4.27961">
        <ele>663.195</ele>
        <time>2019-04-29T12:58:00Z</time>
      </trkpt>
      <trkpt lat="45.89849" lon="4.27953">
        <ele>662.586</ele>
        <time>2019-04-29T12:58:06Z</time>
      </trkpt>
      <trkpt lat="45.89845" lon="4.27943">
        <ele>662.619</ele>
        <time>2019-04-29T12:58:12Z</time>
      </trkpt>
      <trkpt lat="45.8984" lon="4.27933">
        <ele>662.301</ele>
        <time>2019-04-29T12:58:18Z</time>
      </trkpt>
      <trkpt lat="45.89836" lon="4.27926">
        <ele>661.994</ele>
        <time>2019-04-29T12:58:24Z</time>
      </trkpt>
      <trkpt lat="45.8983" lon="4.27918">
        <ele>661.464</ele>
        <time>2019-04-29T12:58:30Z</time>
      </trkpt>
      <trkpt lat="45.89826" lon="4.27912">
        <ele>661.072</ele>
        <time>2019-04-29T12:58:35Z</time>
      </trkpt>
      <trkpt lat="45.89819" lon="4.27905">
        <ele>660.766</ele>
        <time>2019-04-29T12:58:41Z</time>
      </trkpt>
      <trkpt lat="45.89813" lon="4.279">
        <ele>660.292</ele>
        <time>2019-04-29T12:58:47Z</time>
      </trkpt>
      <trkpt lat="45.8981" lon="4.27896">
        <ele>659.802</ele>
        <time>2019-04-29T12:58:52Z</time>
      </trkpt>
      <trkpt lat="45.89803" lon="4.2789">
        <ele>659.366</ele>
        <time>2019-04-29T12:58:57Z</time>
      </trkpt>
      <trkpt lat="45.89799" lon="4.27885">
        <ele>659.238</ele>
        <time>2019-04-29T12:59:02Z</time>
      </trkpt>
      <trkpt lat="45.89792" lon="4.27877">
        <ele>658.876</ele>
        <time>2019-04-29T12:59:08Z</time>
      </trkpt>
      <trkpt lat="45.89787" lon="4.2787">
        <ele>658.527</ele>
        <time>2019-04-29T12:59:13Z</time>
      </trkpt>
      <trkpt lat="45.89782" lon="4.27864">
        <ele>658.091</ele>
        <time>2019-04-29T12:59:19Z</time>
      </trkpt>
      <trkpt lat="45.89777" lon="4.27858">
        <ele>657.618</ele>
        <time>2019-04-29T12:59:24Z</time>
      </trkpt>
      <trkpt lat="45.89773" lon="4.27851">
        <ele>657.013</ele>
        <time>2019-04-29T12:59:30Z</time>
      </trkpt>
      <trkpt lat="45.89768" lon="4.27844">
        <ele>656.439</ele>
        <time>2019-04-29T12:59:36Z</time>
      </trkpt>
      <trkpt lat="45.89763" lon="4.27835">
        <ele>655.939</ele>
        <time>2019-04-29T12:59:42Z</time>
      </trkpt>
      <trkpt lat="45.89757" lon="4.27827">
        <ele>655.535</ele>
        <time>2019-04-29T12:59:47Z</time>
      </trkpt>
      <trkpt lat="45.89752" lon="4.27823">
        <ele>654.828</ele>
        <time>2019-04-29T12:59:53Z</time>
      </trkpt>
      <trkpt lat="45.89746" lon="4.27816">
        <ele>654.225</ele>
        <time>2019-04-29T12:59:59Z</time>
      </trkpt>
      <trkpt lat="45.89741" lon="4.27808">
        <ele>653.629</ele>
        <time>2019-04-29T13:00:04Z</time>
      </trkpt>
      <trkpt lat="45.89736" lon="4.27801">
        <ele>653.366</ele>
        <time>2019-04-29T13:00:10Z</time>
      </trkpt>
      <trkpt lat="45.89733" lon="4.27795">
        <ele>653.07</ele>
        <time>2019-04-29T13:00:15Z</time>
      </trkpt>
      <trkpt lat="45.89728" lon="4.27783">
        <ele>652.531</ele>
        <time>2019-04-29T13:00:21Z</time>
      </trkpt>
      <trkpt lat="45.89725" lon="4.27773">
        <ele>651.82</ele>
        <time>2019-04-29T13:00:27Z</time>
      </trkpt>
      <trkpt lat="45.89722" lon="4.27761">
        <ele>651.393</ele>
        <time>2019-04-29T13:00:33Z</time>
      </trkpt>
      <trkpt lat="45.89718" lon="4.27753">
        <ele>651.05</ele>
        <time>2019-04-29T13:00:39Z</time>
      </trkpt>
      <trkpt lat="45.89715" lon="4.27746">
        <ele>650.856</ele>
        <time>2019-04-29T13:00:45Z</time>
      </trkpt>
      <trkpt lat="45.89714" lon="4.27736">
        <ele>650.052</ele>
        <time>2019-04-29T13:00:51Z</time>
      </trkpt>
      <trkpt lat="45.89713" lon="4.27727">
        <ele>649.218</ele>
        <time>2019-04-29T13:00:56Z</time>
      </trkpt>
      <trkpt lat="45.89712" lon="4.27715">
        <ele>648.575</ele>
        <time>2019-04-29T13:01:02Z</time>
      </trkpt>
      <trkpt lat="45.89712" lon="4.27703">
        <ele>647.827</ele>
        <time>2019-04-29T13:01:08Z</time>
      </trkpt>
      <trkpt lat="45.89711" lon="4.27695">
        <ele>647.222</ele>
        <time>2019-04-29T13:01:13Z</time>
      </trkpt>
      <trkpt lat="45.89709" lon="4.27685">
        <ele>646.261</ele>
        <time>2019-04-29T13:01:18Z</time>
      </trkpt>
      <trkpt lat="45.89705" lon="4.27676">
        <ele>644.958</ele>
        <time>2019-04-29T13:01:24Z</time>
      </trkpt>
      <trkpt lat="45.89703" lon="4.27671">
        <ele>644.03</ele>
        <time>2019-04-29T13:01:29Z</time>
      </trkpt>
      <trkpt lat="45.89697" lon="4.27663">
        <ele>643.284</ele>
        <time>2019-04-29T13:01:35Z</time>
      </trkpt>
      <trkpt lat="45.89691" lon="4.27656">
        <ele>643.033</ele>
        <time>2019-04-29T13:01:41Z</time>
      </trkpt>
      <trkpt lat="45.89685" lon="4.27651">
        <ele>642.908</ele>
        <time>2019-04-29T13:01:46Z</time>
      </trkpt>
      <trkpt lat="45.89682" lon="4.27646">
        <ele>642.826</ele>
        <time>2019-04-29T13:01:51Z</time>
      </trkpt>
      <trkpt lat="45.89676" lon="4.2764">
        <ele>642.465</ele>
        <time>2019-04-29T13:01:57Z</time>
      </trkpt>
      <trkpt lat="45.89671" lon="4.27637">
        <ele>642.121</ele>
        <time>2019-04-29T13:02:02Z</time>
      </trkpt>
      <trkpt lat="45.89665" lon="4.2763">
        <ele>641.403</ele>
        <time>2019-04-29T13:02:08Z</time>
      </trkpt>
      <trkpt lat="45.89657" lon="4.27625">
        <ele>640.952</ele>
        <time>2019-04-29T13:02:14Z</time>
      </trkpt>
      <trkpt lat="45.8965" lon="4.27619">
        <ele>640.534</ele>
        <time>2019-04-29T13:02:19Z</time>
      </trkpt>
      <trkpt lat="45.89644" lon="4.27614">
        <ele>640.318</ele>
        <time>2019-04-29T13:02:24Z</time>
      </trkpt>
      <trkpt lat="45.89638" lon="4.27607">
        <ele>640.115</ele>
        <time>2019-04-29T13:02:30Z</time>
      </trkpt>
      <trkpt lat="45.89632" lon="4.27602">
        <ele>639.607</ele>
        <time>2019-04-29T13:02:36Z</time>
      </trkpt>
      <trkpt lat="45.89627" lon="4.27595">
        <ele>639.414</ele>
        <time>2019-04-29T13:02:42Z</time>
      </trkpt>
      <trkpt lat="45.89621" lon="4.27588">
        <ele>639.833</ele>
        <time>2019-04-29T13:02:47Z</time>
      </trkpt>
      <trkpt lat="45.89615" lon="4.2758">
        <ele>639.921</ele>
        <time>2019-04-29T13:02:53Z</time>
      </trkpt>
      <trkpt lat="45.8961" lon="4.27578">
        <ele>639.807</ele>
        <time>2019-04-29T13:02:58Z</time>
      </trkpt>
      <trkpt lat="45.89606" lon="4.27576">
        <ele>639.871</ele>
        <time>2019-04-29T13:03:03Z</time>
      </trkpt>
      <trkpt lat="45.89604" lon="4.27576">
        <ele>639.848</ele>
        <time>2019-04-29T13:03:08Z</time>
      </trkpt>
      <trkpt lat="45.89603" lon="4.27575">
        <ele>640.14</ele>
        <time>2019-04-29T13:03:14Z</time>
      </trkpt>
      <trkpt lat="45.89604" lon="4.27575">
        <ele>640.163</ele>
        <time>2019-04-29T13:03:19Z</time>
      </trkpt>
      <trkpt lat="45.89605" lon="4.27576">
        <ele>640.293</ele>
        <time>2019-04-29T13:03:25Z</time>
      </trkpt>
      <trkpt lat="45.89605" lon="4.27576">
        <ele>639.978</ele>
        <time>2019-04-29T13:03:30Z</time>
      </trkpt>
      <trkpt lat="45.89605" lon="4.27573">
        <ele>639.962</ele>
        <time>2019-04-29T13:03:36Z</time>
      </trkpt>
      <trkpt lat="45.89606" lon="4.27574">
        <ele>640.084</ele>
        <time>2019-04-29T13:03:41Z</time>
      </trkpt>
      <trkpt lat="45.89606" lon="4.27575">
        <ele>640.459</ele>
        <time>2019-04-29T13:03:47Z</time>
      </trkpt>
      <trkpt lat="45.89606" lon="4.27575">
        <ele>640.647</ele>
        <time>2019-04-29T13:03:52Z</time>
      </trkpt>
      <trkpt lat="45.89604" lon="4.27575">
        <ele>640.723</ele>
        <time>2019-04-29T13:03:57Z</time>
      </trkpt>
      <trkpt lat="45.89604" lon="4.27574">
        <ele>640.783</ele>
        <time>2019-04-29T13:04:03Z</time>
      </trkpt>
      <trkpt lat="45.89603" lon="4.27575">
        <ele>640.951</ele>
        <time>2019-04-29T13:04:09Z</time>
      </trkpt>
      <trkpt lat="45.89602" lon="4.27574">
        <ele>640.975</ele>
        <time>2019-04-29T13:04:14Z</time>
      </trkpt>
      <trkpt lat="45.89601" lon="4.27575">
        <ele>640.839</ele>
        <time>2019-04-29T13:04:19Z</time>
      </trkpt>
      <trkpt lat="45.896" lon="4.27574">
        <ele>640.939</ele>
        <time>2019-04-29T13:04:25Z</time>
      </trkpt>
      <trkpt lat="45.896" lon="4.27573">
        <ele>641.142</ele>
        <time>2019-04-29T13:04:31Z</time>
      </trkpt>
      <trkpt lat="45.896" lon="4.27573">
        <ele>641.285</ele>
        <time>2019-04-29T13:04:37Z</time>
      </trkpt>
      <trkpt lat="45.89601" lon="4.27573">
        <ele>641.291</ele>
        <time>2019-04-29T13:04:42Z</time>
      </trkpt>
      <trkpt lat="45.89601" lon="4.27573">
        <ele>641.377</ele>
        <time>2019-04-29T13:04:47Z</time>
      </trkpt>
      <trkpt lat="45.896" lon="4.27572">
        <ele>641.087</ele>
        <time>2019-04-29T13:04:53Z</time>
      </trkpt>
      <trkpt lat="45.89597" lon="4.27571">
        <ele>640.753</ele>
        <time>2019-04-29T13:04:59Z</time>
      </trkpt>
      <trkpt lat="45.89594" lon="4.27579">
        <ele>640.522</ele>
        <time>2019-04-29T13:05:05Z</time>
      </trkpt>
      <trkpt lat="45.89589" lon="4.27582">
        <ele>640.632</ele>
        <time>2019-04-29T13:05:11Z</time>
      </trkpt>
      <trkpt lat="45.89582" lon="4.27586">
        <ele>640.865</ele>
        <time>2019-04-29T13:05:17Z</time>
      </trkpt>
      <trkpt lat="45.89575" lon="4.27587">
        <ele>641.025</ele>
        <time>2019-04-29T13:05:23Z</time>
      </trkpt>
      <trkpt lat="45.89568" lon="4.27589">
        <ele>641.211</ele>
        <time>2019-04-29T13:05:29Z</time>
      </trkpt>
      <trkpt lat="45.89563" lon="4.2759">
        <ele>641.314</ele>
        <time>2019-04-29T13:05:34Z</time>
      </trkpt>
      <trkpt lat="45.89554" lon="4.2759">
        <ele>641.252</ele>
        <time>2019-04-29T13:05:40Z</time>
      </trkpt>
      <trkpt lat="45.89547" lon="4.2759">
        <ele>641.246</ele>
        <time>2019-04-29T13:05:46Z</time>
      </trkpt>
      <trkpt lat="45.89542" lon="4.27588">
        <ele>641.276</ele>
        <time>2019-04-29T13:05:51Z</time>
      </trkpt>
      <trkpt lat="45.89533" lon="4.27588">
        <ele>641.185</ele>
        <time>2019-04-29T13:05:57Z</time>
      </trkpt>
      <trkpt lat="45.89527" lon="4.27588">
        <ele>641.348</ele>
        <time>2019-04-29T13:06:03Z</time>
      </trkpt>
      <trkpt lat="45.8952" lon="4.27586">
        <ele>641.59</ele>
        <time>2019-04-29T13:06:08Z</time>
      </trkpt>
      <trkpt lat="45.89514" lon="4.27583">
        <ele>641.212</ele>
        <time>2019-04-29T13:06:14Z</time>
      </trkpt>
      <trkpt lat="45.89505" lon="4.27581">
        <ele>641.082</ele>
        <time>2019-04-29T13:06:20Z</time>
      </trkpt>
      <trkpt lat="45.89497" lon="4.27579">
        <ele>641.279</ele>
        <time>2019-04-29T13:06:26Z</time>
      </trkpt>
      <trkpt lat="45.89492" lon="4.27577">
        <ele>641.074</ele>
        <time>2019-04-29T13:06:31Z</time>
      </trkpt>
      <trkpt lat="45.89486" lon="4.27575">
        <ele>640.851</ele>
        <time>2019-04-29T13:06:37Z</time>
      </trkpt>
      <trkpt lat="45.8948" lon="4.27571">
        <ele>640.724</ele>
        <time>2019-04-29T13:06:42Z</time>
      </trkpt>
      <trkpt lat="45.89473" lon="4.27569">
        <ele>640.49</ele>
        <time>2019-04-29T13:06:48Z</time>
      </trkpt>
      <trkpt lat="45.89467" lon="4.27567">
        <ele>640.182</ele>
        <time>2019-04-29T13:06:54Z</time>
      </trkpt>
      <trkpt lat="45.8946" lon="4.27564">
        <ele>640.203</ele>
        <time>2019-04-29T13:07:00Z</time>
      </trkpt>
      <trkpt lat="45.89454" lon="4.27561">
        <ele>640.014</ele>
        <time>2019-04-29T13:07:05Z</time>
      </trkpt>
      <trkpt lat="45.89443" lon="4.27557">
        <ele>640.036</ele>
        <time>2019-04-29T13:07:11Z</time>
      </trkpt>
      <trkpt lat="45.89439" lon="4.27553">
        <ele>639.986</ele>
        <time>2019-04-29T13:07:16Z</time>
      </trkpt>
      <trkpt lat="45.89433" lon="4.27549">
        <ele>639.499</ele>
        <time>2019-04-29T13:07:22Z</time>
      </trkpt>
      <trkpt lat="45.89425" lon="4.27544">
        <ele>638.889</ele>
        <time>2019-04-29T13:07:28Z</time>
      </trkpt>
      <trkpt lat="45.8942" lon="4.2754">
        <ele>638.269</ele>
        <time>2019-04-29T13:07:33Z</time>
      </trkpt>
      <trkpt lat="45.89414" lon="4.27533">
        <ele>637.7</ele>
        <time>2019-04-29T13:07:39Z</time>
      </trkpt>
      <trkpt lat="45.89408" lon="4.27531">
        <ele>637.671</ele>
        <time>2019-04-29T13:07:44Z</time>
      </trkpt>
      <trkpt lat="45.89399" lon="4.27528">
        <ele>637.293</ele>
        <time>2019-04-29T13:07:50Z</time>
      </trkpt>
      <trkpt lat="45.89393" lon="4.27527">
        <ele>637.492</ele>
        <time>2019-04-29T13:07:56Z</time>
      </trkpt>
      <trkpt lat="45.89385" lon="4.2753">
        <ele>637.576</ele>
        <time>2019-04-29T13:08:02Z</time>
      </trkpt>
      <trkpt lat="45.89377" lon="4.27534">
        <ele>637.799</ele>
        <time>2019-04-29T13:08:08Z</time>
      </trkpt>
      <trkpt lat="45.89371" lon="4.27539">
        <ele>638.082</ele>
        <time>2019-04-29T13:08:14Z</time>
      </trkpt>
      <trkpt lat="45.89366" lon="4.27541">
        <ele>638.184</ele>
        <time>2019-04-29T13:08:19Z</time>
      </trkpt>
      <trkpt lat="45.89358" lon="4.27542">
        <ele>638.762</ele>
        <time>2019-04-29T13:08:25Z</time>
      </trkpt>
      <trkpt lat="45.89352" lon="4.27544">
        <ele>638.844</ele>
        <time>2019-04-29T13:08:30Z</time>
      </trkpt>
      <trkpt lat="45.89347" lon="4.27543">
        <ele>638.859</ele>
        <time>2019-04-29T13:08:35Z</time>
      </trkpt>
      <trkpt lat="45.89338" lon="4.27542">
        <ele>639.22</ele>
        <time>2019-04-29T13:08:41Z</time>
      </trkpt>
      <trkpt lat="45.89332" lon="4.27544">
        <ele>639.208</ele>
        <time>2019-04-29T13:08:47Z</time>
      </trkpt>
      <trkpt lat="45.89325" lon="4.27545">
        <ele>639.279</ele>
        <time>2019-04-29T13:08:52Z</time>
      </trkpt>
      <trkpt lat="45.89318" lon="4.27547">
        <ele>639.137</ele>
        <time>2019-04-29T13:08:58Z</time>
      </trkpt>
      <trkpt lat="45.89312" lon="4.27547">
        <ele>639.427</ele>
        <time>2019-04-29T13:09:03Z</time>
      </trkpt>
      <trkpt lat="45.89303" lon="4.27548">
        <ele>639.92</ele>
        <time>2019-04-29T13:09:09Z</time>
      </trkpt>
      <trkpt lat="45.89295" lon="4.27546">
        <ele>640.447</ele>
        <time>2019-04-29T13:09:14Z</time>
      </trkpt>
      <trkpt lat="45.89286" lon="4.27545">
        <ele>640.732</ele>
        <time>2019-04-29T13:09:20Z</time>
      </trkpt>
      <trkpt lat="45.89278" lon="4.27544">
        <ele>640.826</ele>
        <time>2019-04-29T13:09:25Z</time>
      </trkpt>
      <trkpt lat="45.89272" lon="4.27542">
        <ele>640.746</ele>
        <time>2019-04-29T13:09:30Z</time>
      </trkpt>
      <trkpt lat="45.89264" lon="4.27541">
        <ele>640.636</ele>
        <time>2019-04-29T13:09:35Z</time>
      </trkpt>
      <trkpt lat="45.89255" lon="4.2754">
        <ele>640.935</ele>
        <time>2019-04-29T13:09:41Z</time>
      </trkpt>
      <trkpt lat="45.89247" lon="4.27537">
        <ele>641.344</ele>
        <time>2019-04-29T13:09:47Z</time>
      </trkpt>
      <trkpt lat="45.89239" lon="4.27535">
        <ele>642.078</ele>
        <time>2019-04-29T13:09:53Z</time>
      </trkpt>
      <trkpt lat="45.89233" lon="4.27536">
        <ele>642.305</ele>
        <time>2019-04-29T13:09:58Z</time>
      </trkpt>
      <trkpt lat="45.89227" lon="4.27534">
        <ele>642.585</ele>
        <time>2019-04-29T13:10:04Z</time>
      </trkpt>
      <trkpt lat="45.89219" lon="4.27535">
        <ele>642.849</ele>
        <time>2019-04-29T13:10:09Z</time>
      </trkpt>
      <trkpt lat="45.89216" lon="4.27534">
        <ele>643.283</ele>
        <time>2019-04-29T13:10:15Z</time>
      </trkpt>
      <trkpt lat="45.89208" lon="4.27532">
        <ele>643.705</ele>
        <time>2019-04-29T13:10:21Z</time>
      </trkpt>
      <trkpt lat="45.89203" lon="4.2753">
        <ele>643.581</ele>
        <time>2019-04-29T13:10:26Z</time>
      </trkpt>
      <trkpt lat="45.89197" lon="4.27528">
        <ele>643.105</ele>
        <time>2019-04-29T13:10:31Z</time>
      </trkpt>
      <trkpt lat="45.8919" lon="4.27524">
        <ele>642.542</ele>
        <time>2019-04-29T13:10:37Z</time>
      </trkpt>
      <trkpt lat="45.89181" lon="4.2752">
        <ele>641.749</ele>
        <time>2019-04-29T13:10:43Z</time>
      </trkpt>
      <trkpt lat="45.89176" lon="4.27519">
        <ele>641.345</ele>
        <time>2019-04-29T13:10:49Z</time>
      </trkpt>
      <trkpt lat="45.89169" lon="4.27519">
        <ele>640.72</ele>
        <time>2019-04-29T13:10:55Z</time>
      </trkpt>
      <trkpt lat="45.89161" lon="4.27521">
        <ele>640.06</ele>
        <time>2019-04-29T13:11:00Z</time>
      </trkpt>
      <trkpt lat="45.89154" lon="4.27521">
        <ele>639.654</ele>
        <time>2019-04-29T13:11:06Z</time>
      </trkpt>
      <trkpt lat="45.89146" lon="4.27522">
        <ele>638.948</ele>
        <time>2019-04-29T13:11:11Z</time>
      </trkpt>
      <trkpt lat="45.89139" lon="4.27522">
        <ele>638.557</ele>
        <time>2019-04-29T13:11:16Z</time>
      </trkpt>
      <trkpt lat="45.89129" lon="4.27525">
        <ele>638.405</ele>
        <time>2019-04-29T13:11:22Z</time>
      </trkpt>
      <trkpt lat="45.89122" lon="4.27526">
        <ele>638.619</ele>
        <time>2019-04-29T13:11:27Z</time>
      </trkpt>
      <trkpt lat="45.89113" lon="4.27525">
        <ele>639.273</ele>
        <time>2019-04-29T13:11:33Z</time>
      </trkpt>
      <trkpt lat="45.89105" lon="4.27521">
        <ele>640.01</ele>
        <time>2019-04-29T13:11:39Z</time>
      </trkpt>
      <trkpt lat="45.89098" lon="4.27521">
        <ele>640.228</ele>
        <time>2019-04-29T13:11:44Z</time>
      </trkpt>
      <trkpt lat="45.89087" lon="4.27524">
        <ele>640.046</ele>
        <time>2019-04-29T13:11:50Z</time>
      </trkpt>
      <trkpt lat="45.89079" lon="4.27524">
        <ele>639.832</ele>
        <time>2019-04-29T13:11:56Z</time>
      </trkpt>
      <trkpt lat="45.89072" lon="4.27523">
        <ele>639.827</ele>
        <time>2019-04-29T13:12:01Z</time>
      </trkpt>
      <trkpt lat="45.89066" lon="4.27522">
        <ele>639.833</ele>
        <time>2019-04-29T13:12:07Z</time>
      </trkpt>
      <trkpt lat="45.8906" lon="4.27523">
        <ele>640.019</ele>
        <time>2019-04-29T13:12:13Z</time>
      </trkpt>
      <trkpt lat="45.89052" lon="4.27523">
        <ele>640.331</ele>
        <time>2019-04-29T13:12:18Z</time>
      </trkpt>
      <trkpt lat="45.89044" lon="4.27522">
        <ele>640.94</ele>
        <time>2019-04-29T13:12:24Z</time>
      </trkpt>
      <trkpt lat="45.89038" lon="4.2752">
        <ele>641.593</ele>
        <time>2019-04-29T13:12:29Z</time>
      </trkpt>
      <trkpt lat="45.89033" lon="4.27519">
        <ele>641.898</ele>
        <time>2019-04-29T13:12:34Z</time>
      </trkpt>
      <trkpt lat="45.89028" lon="4.27518">
        <ele>642.054</ele>
        <time>2019-04-29T13:12:40Z</time>
      </trkpt>
      <trkpt lat="45.89021" lon="4.2752">
        <ele>642.141</ele>
        <time>2019-04-29T13:12:45Z</time>
      </trkpt>
      <trkpt lat="45.89014" lon="4.2752">
        <ele>642.059</ele>
        <time>2019-04-29T13:12:51Z</time>
      </trkpt>
      <trkpt lat="45.89007" lon="4.27518">
        <ele>642.036</ele>
        <time>2019-04-29T13:12:56Z</time>
      </trkpt>
      <trkpt lat="45.89" lon="4.27518">
        <ele>642.162</ele>
        <time>2019-04-29T13:13:02Z</time>
      </trkpt>
      <trkpt lat="45.88996" lon="4.27518">
        <ele>642.173</ele>
        <time>2019-04-29T13:13:07Z</time>
      </trkpt>
      <trkpt lat="45.8899" lon="4.27517">
        <ele>642.601</ele>
        <time>2019-04-29T13:13:12Z</time>
      </trkpt>
      <trkpt lat="45.88982" lon="4.27516">
        <ele>642.738</ele>
        <time>2019-04-29T13:13:18Z</time>
      </trkpt>
      <trkpt lat="45.88982" lon="4.27515">
        <ele>642.389</ele>
        <time>2019-04-29T13:13:24Z</time>
      </trkpt>
      <trkpt lat="45.88982" lon="4.27515">
        <ele>642.189</ele>
        <time>2019-04-29T13:13:29Z</time>
      </trkpt>
      <trkpt lat="45.88978" lon="4.27514">
        <ele>641.815</ele>
        <time>2019-04-29T13:13:34Z</time>
      </trkpt>
      <trkpt lat="45.88972" lon="4.27512">
        <ele>641.576</ele>
        <time>2019-04-29T13:13:39Z</time>
      </trkpt>
      <trkpt lat="45.88963" lon="4.27512">
        <ele>641.165</ele>
        <time>2019-04-29T13:13:45Z</time>
      </trkpt>
      <trkpt lat="45.88957" lon="4.27512">
        <ele>640.831</ele>
        <time>2019-04-29T13:13:51Z</time>
      </trkpt>
      <trkpt lat="45.8895" lon="4.27512">
        <ele>640.622</ele>
        <time>2019-04-29T13:13:57Z</time>
      </trkpt>
      <trkpt lat="45.88944" lon="4.2751">
        <ele>640.234</ele>
        <time>2019-04-29T13:14:02Z</time>
      </trkpt>
      <trkpt lat="45.88936" lon="4.27509">
        <ele>639.78</ele>
        <time>2019-04-29T13:14:08Z</time>
      </trkpt>
      <trkpt lat="45.88927" lon="4.27507">
        <ele>639.468</ele>
        <time>2019-04-29T13:14:14Z</time>
      </trkpt>
      <trkpt lat="45.88917" lon="4.27505">
        <ele>639.265</ele>
        <time>2019-04-29T13:14:20Z</time>
      </trkpt>
      <trkpt lat="45.88909" lon="4.27504">
        <ele>638.901</ele>
        <time>2019-04-29T13:14:26Z</time>
      </trkpt>
      <trkpt lat="45.889" lon="4.27502">
        <ele>638.463</ele>
        <time>2019-04-29T13:14:32Z</time>
      </trkpt>
      <trkpt lat="45.88894" lon="4.27501">
        <ele>638.163</ele>
        <time>2019-04-29T13:14:37Z</time>
      </trkpt>
      <trkpt lat="45.88887" lon="4.275">
        <ele>637.733</ele>
        <time>2019-04-29T13:14:42Z</time>
      </trkpt>
      <trkpt lat="45.88879" lon="4.27497">
        <ele>637.245</ele>
        <time>2019-04-29T13:14:48Z</time>
      </trkpt>
      <trkpt lat="45.88872" lon="4.27495">
        <ele>636.926</ele>
        <time>2019-04-29T13:14:54Z</time>
      </trkpt>
      <trkpt lat="45.88865" lon="4.27491">
        <ele>636.556</ele>
        <time>2019-04-29T13:14:59Z</time>
      </trkpt>
      <trkpt lat="45.88856" lon="4.27489">
        <ele>636.253</ele>
        <time>2019-04-29T13:15:05Z</time>
      </trkpt>
      <trkpt lat="45.88852" lon="4.2749">
        <ele>635.678</ele>
        <time>2019-04-29T13:15:11Z</time>
      </trkpt>
      <trkpt lat="45.88851" lon="4.27493">
        <ele>635.472</ele>
        <time>2019-04-29T13:15:17Z</time>
      </trkpt>
      <trkpt lat="45.8885" lon="4.27493">
        <ele>635.319</ele>
        <time>2019-04-29T13:15:23Z</time>
      </trkpt>
      <trkpt lat="45.8885" lon="4.27495">
        <ele>635.253</ele>
        <time>2019-04-29T13:15:28Z</time>
      </trkpt>
      <trkpt lat="45.8885" lon="4.27494">
        <ele>635.179</ele>
        <time>2019-04-29T13:15:33Z</time>
      </trkpt>
      <trkpt lat="45.8885" lon="4.27492">
        <ele>634.917</ele>
        <time>2019-04-29T13:15:39Z</time>
      </trkpt>
      <trkpt lat="45.88849" lon="4.27492">
        <ele>634.833</ele>
        <time>2019-04-29T13:15:45Z</time>
      </trkpt>
      <trkpt lat="45.88849" lon="4.27493">
        <ele>634.575</ele>
        <time>2019-04-29T13:15:50Z</time>
      </trkpt>
      <trkpt lat="45.88849" lon="4.27492">
        <ele>634.522</ele>
        <time>2019-04-29T13:15:56Z</time>
      </trkpt>
      <trkpt lat="45.88849" lon="4.2749">
        <ele>634.324</ele>
        <time>2019-04-29T13:16:02Z</time>
      </trkpt>
      <trkpt lat="45.88845" lon="4.27489">
        <ele>634.094</ele>
        <time>2019-04-29T13:16:07Z</time>
      </trkpt>
      <trkpt lat="45.88838" lon="4.27486">
        <ele>633.642</ele>
        <time>2019-04-29T13:16:13Z</time>
      </trkpt>
      <trkpt lat="45.88832" lon="4.27483">
        <ele>633.349</ele>
        <time>2019-04-29T13:16:19Z</time>
      </trkpt>
      <trkpt lat="45.88824" lon="4.27479">
        <ele>633.066</ele>
        <time>2019-04-29T13:16:25Z</time>
      </trkpt>
      <trkpt lat="45.88815" lon="4.27475">
        <ele>632.532</ele>
        <time>2019-04-29T13:16:31Z</time>
      </trkpt>
      <trkpt lat="45.88807" lon="4.2747">
        <ele>631.445</ele>
        <time>2019-04-29T13:16:37Z</time>
      </trkpt>
      <trkpt lat="45.88801" lon="4.27468">
        <ele>630.686</ele>
        <time>2019-04-29T13:16:42Z</time>
      </trkpt>
      <trkpt lat="45.88794" lon="4.27465">
        <ele>630.022</ele>
        <time>2019-04-29T13:16:48Z</time>
      </trkpt>
      <trkpt lat="45.88787" lon="4.27463">
        <ele>629.389</ele>
        <time>2019-04-29T13:16:53Z</time>
      </trkpt>
      <trkpt lat="45.8878" lon="4.27462">
        <ele>628.532</ele>
        <time>2019-04-29T13:16:59Z</time>
      </trkpt>
      <trkpt lat="45.88775" lon="4.27459">
        <ele>628.244</ele>
        <time>2019-04-29T13:17:04Z</time>
      </trkpt>
      <trkpt lat="45.88767" lon="4.27457">
        <ele>627.724</ele>
        <time>2019-04-29T13:17:10Z</time>
      </trkpt>
      <trkpt lat="45.88759" lon="4.27455">
        <ele>627.105</ele>
        <time>2019-04-29T13:17:16Z</time>
      </trkpt>
      <trkpt lat="45.88756" lon="4.27455">
        <ele>626.612</ele>
        <time>2019-04-29T13:17:21Z</time>
      </trkpt>
      <trkpt lat="45.88749" lon="4.2745">
        <ele>625.989</ele>
        <time>2019-04-29T13:17:27Z</time>
      </trkpt>
      <trkpt lat="45.88742" lon="4.27445">
        <ele>625.082</ele>
        <time>2019-04-29T13:17:33Z</time>
      </trkpt>
      <trkpt lat="45.88736" lon="4.27443">
        <ele>624.191</ele>
        <time>2019-04-29T13:17:38Z</time>
      </trkpt>
      <trkpt lat="45.88731" lon="4.27441">
        <ele>623.346</ele>
        <time>2019-04-29T13:17:44Z</time>
      </trkpt>
      <trkpt lat="45.88726" lon="4.27441">
        <ele>622.621</ele>
        <time>2019-04-29T13:17:49Z</time>
      </trkpt>
      <trkpt lat="45.88718" lon="4.27439">
        <ele>621.871</ele>
        <time>2019-04-29T13:17:55Z</time>
      </trkpt>
      <trkpt lat="45.88713" lon="4.27437">
        <ele>621.202</ele>
        <time>2019-04-29T13:18:00Z</time>
      </trkpt>
      <trkpt lat="45.88706" lon="4.27436">
        <ele>620.267</ele>
        <time>2019-04-29T13:18:06Z</time>
      </trkpt>
      <trkpt lat="45.88702" lon="4.27433">
        <ele>619.381</ele>
        <time>2019-04-29T13:18:11Z</time>
      </trkpt>
      <trkpt lat="45.88696" lon="4.27429">
        <ele>618.458</ele>
        <time>2019-04-29T13:18:16Z</time>
      </trkpt>
      <trkpt lat="45.8869" lon="4.27428">
        <ele>617.267</ele>
        <time>2019-04-29T13:18:22Z</time>
      </trkpt>
      <trkpt lat="45.88684" lon="4.27427">
        <ele>616.441</ele>
        <time>2019-04-29T13:18:27Z</time>
      </trkpt>
      <trkpt lat="45.88677" lon="4.27426">
        <ele>615.428</ele>
        <time>2019-04-29T13:18:33Z</time>
      </trkpt>
      <trkpt lat="45.88669" lon="4.27424">
        <ele>614.647</ele>
        <time>2019-04-29T13:18:39Z</time>
      </trkpt>
      <trkpt lat="45.88664" lon="4.27423">
        <ele>614.037</ele>
        <time>2019-04-29T13:18:44Z</time>
      </trkpt>
      <trkpt lat="45.88658" lon="4.27422">
        <ele>613.277</ele>
        <time>2019-04-29T13:18:49Z</time>
      </trkpt>
      <trkpt lat="45.88651" lon="4.27423">
        <ele>611.989</ele>
        <time>2019-04-29T13:18:55Z</time>
      </trkpt>
      <trkpt lat="45.88644" lon="4.27422">
        <ele>610.885</ele>
        <time>2019-04-29T13:19:01Z</time>
      </trkpt>
      <trkpt lat="45.88637" lon="4.27423">
        <ele>609.989</ele>
        <time>2019-04-29T13:19:07Z</time>
      </trkpt>
      <trkpt lat="45.88632" lon="4.27422">
        <ele>609.219</ele>
        <time>2019-04-29T13:19:13Z</time>
      </trkpt>
      <trkpt lat="45.88627" lon="4.27422">
        <ele>608.336</ele>
        <time>2019-04-29T13:19:18Z</time>
      </trkpt>
      <trkpt lat="45.88621" lon="4.27424">
        <ele>607.671</ele>
        <time>2019-04-29T13:19:23Z</time>
      </trkpt>
      <trkpt lat="45.88614" lon="4.27424">
        <ele>607.077</ele>
        <time>2019-04-29T13:19:28Z</time>
      </trkpt>
      <trkpt lat="45.88606" lon="4.27423">
        <ele>606.175</ele>
        <time>2019-04-29T13:19:34Z</time>
      </trkpt>
      <trkpt lat="45.886" lon="4.27421">
        <ele>605.535</ele>
        <time>2019-04-29T13:19:39Z</time>
      </trkpt>
      <trkpt lat="45.88592" lon="4.27421">
        <ele>604.853</ele>
        <time>2019-04-29T13:19:45Z</time>
      </trkpt>
      <trkpt lat="45.88587" lon="4.2742">
        <ele>604.069</ele>
        <time>2019-04-29T13:19:50Z</time>
      </trkpt>
      <trkpt lat="45.8858" lon="4.27415">
        <ele>603.307</ele>
        <time>2019-04-29T13:19:56Z</time>
      </trkpt>
      <trkpt lat="45.88575" lon="4.27412">
        <ele>602.656</ele>
        <time>2019-04-29T13:20:01Z</time>
      </trkpt>
      <trkpt lat="45.88568" lon="4.27411">
        <ele>601.862</ele>
        <time>2019-04-29T13:20:07Z</time>
      </trkpt>
      <trkpt lat="45.88562" lon="4.27408">
        <ele>601.288</ele>
        <time>2019-04-29T13:20:12Z</time>
      </trkpt>
      <trkpt lat="45.88557" lon="4.27406">
        <ele>600.601</ele>
        <time>2019-04-29T13:20:18Z</time>
      </trkpt>
      <trkpt lat="45.88549" lon="4.27402">
        <ele>600.255</ele>
        <time>2019-04-29T13:20:23Z</time>
      </trkpt>
      <trkpt lat="45.88544" lon="4.27399">
        <ele>599.802</ele>
        <time>2019-04-29T13:20:29Z</time>
      </trkpt>
      <trkpt lat="45.88536" lon="4.27397">
        <ele>599.085</ele>
        <time>2019-04-29T13:20:35Z</time>
      </trkpt>
      <trkpt lat="45.8853" lon="4.27396">
        <ele>598.616</ele>
        <time>2019-04-29T13:20:41Z</time>
      </trkpt>
      <trkpt lat="45.88523" lon="4.27394">
        <ele>598.011</ele>
        <time>2019-04-29T13:20:47Z</time>
      </trkpt>
      <trkpt lat="45.88519" lon="4.27392">
        <ele>597.512</ele>
        <time>2019-04-29T13:20:52Z</time>
      </trkpt>
      <trkpt lat="45.88514" lon="4.27389">
        <ele>596.749</ele>
        <time>2019-04-29T13:20:58Z</time>
      </trkpt>
      <trkpt lat="45.8851" lon="4.27386">
        <ele>595.968</ele>
        <time>2019-04-29T13:21:03Z</time>
      </trkpt>
      <trkpt lat="45.88505" lon="4.27381">
        <ele>595.413</ele>
        <time>2019-04-29T13:21:09Z</time>
      </trkpt>
      <trkpt lat="45.88501" lon="4.27375">
        <ele>595.018</ele>
        <time>2019-04-29T13:21:15Z</time>
      </trkpt>
      <trkpt lat="45.88497" lon="4.27368">
        <ele>594.338</ele>
        <time>2019-04-29T13:21:20Z</time>
      </trkpt>
      <trkpt lat="45.88491" lon="4.27365">
        <ele>593.695</ele>
        <time>2019-04-29T13:21:25Z</time>
      </trkpt>
      <trkpt lat="45.88485" lon="4.27364">
        <ele>593.146</ele>
        <time>2019-04-29T13:21:30Z</time>
      </trkpt>
      <trkpt lat="45.88478" lon="4.27362">
        <ele>592.308</ele>
        <time>2019-04-29T13:21:36Z</time>
      </trkpt>
      <trkpt lat="45.88475" lon="4.27359">
        <ele>591.477</ele>
        <time>2019-04-29T13:21:42Z</time>
      </trkpt>
      <trkpt lat="45.8847" lon="4.27356">
        <ele>590.526</ele>
        <time>2019-04-29T13:21:48Z</time>
      </trkpt>
      <trkpt lat="45.88461" lon="4.27353">
        <ele>589.774</ele>
        <time>2019-04-29T13:21:54Z</time>
      </trkpt>
      <trkpt lat="45.88457" lon="4.27351">
        <ele>589.082</ele>
        <time>2019-04-29T13:21:59Z</time>
      </trkpt>
      <trkpt lat="45.88451" lon="4.27349">
        <ele>588.061</ele>
        <time>2019-04-29T13:22:05Z</time>
      </trkpt>
      <trkpt lat="45.88445" lon="4.27347">
        <ele>586.928</ele>
        <time>2019-04-29T13:22:10Z</time>
      </trkpt>
      <trkpt lat="45.88437" lon="4.27346">
        <ele>585.89</ele>
        <time>2019-04-29T13:22:16Z</time>
      </trkpt>
      <trkpt lat="45.88429" lon="4.27347">
        <ele>585.097</ele>
        <time>2019-04-29T13:22:22Z</time>
      </trkpt>
      <trkpt lat="45.88425" lon="4.27344">
        <ele>584.056</ele>
        <time>2019-04-29T13:22:28Z</time>
      </trkpt>
      <trkpt lat="45.8842" lon="4.27343">
        <ele>583.103</ele>
        <time>2019-04-29T13:22:33Z</time>
      </trkpt>
      <trkpt lat="45.88412" lon="4.27343">
        <ele>582.19</ele>
        <time>2019-04-29T13:22:39Z</time>
      </trkpt>
      <trkpt lat="45.88406" lon="4.27345">
        <ele>581.507</ele>
        <time>2019-04-29T13:22:44Z</time>
      </trkpt>
      <trkpt lat="45.88398" lon="4.27342">
        <ele>580.849</ele>
        <time>2019-04-29T13:22:50Z</time>
      </trkpt>
      <trkpt lat="45.88394" lon="4.27339">
        <ele>580.299</ele>
        <time>2019-04-29T13:22:55Z</time>
      </trkpt>
      <trkpt lat="45.88388" lon="4.27336">
        <ele>579.56</ele>
        <time>2019-04-29T13:23:01Z</time>
      </trkpt>
      <trkpt lat="45.88382" lon="4.27335">
        <ele>579.022</ele>
        <time>2019-04-29T13:23:06Z</time>
      </trkpt>
      <trkpt lat="45.88374" lon="4.27332">
        <ele>578.446</ele>
        <time>2019-04-29T13:23:12Z</time>
      </trkpt>
      <trkpt lat="45.8837" lon="4.27331">
        <ele>577.991</ele>
        <time>2019-04-29T13:23:17Z</time>
      </trkpt>
      <trkpt lat="45.88362" lon="4.2733">
        <ele>577.298</ele>
        <time>2019-04-29T13:23:23Z</time>
      </trkpt>
      <trkpt lat="45.88356" lon="4.27333">
        <ele>576.992</ele>
        <time>2019-04-29T13:23:28Z</time>
      </trkpt>
      <trkpt lat="45.88351" lon="4.2734">
        <ele>576.188</ele>
        <time>2019-04-29T13:23:34Z</time>
      </trkpt>
      <trkpt lat="45.88347" lon="4.27345">
        <ele>575.451</ele>
        <time>2019-04-29T13:23:40Z</time>
      </trkpt>
      <trkpt lat="45.88343" lon="4.27349">
        <ele>574.859</ele>
        <time>2019-04-29T13:23:45Z</time>
      </trkpt>
      <trkpt lat="45.88338" lon="4.27356">
        <ele>574.245</ele>
        <time>2019-04-29T13:23:51Z</time>
      </trkpt>
      <trkpt lat="45.88335" lon="4.27363">
        <ele>573.466</ele>
        <time>2019-04-29T13:23:57Z</time>
      </trkpt>
      <trkpt lat="45.88331" lon="4.2737">
        <ele>572.847</ele>
        <time>2019-04-29T13:24:03Z</time>
      </trkpt>
      <trkpt lat="45.88329" lon="4.27377">
        <ele>572.733</ele>
        <time>2019-04-29T13:24:08Z</time>
      </trkpt>
      <trkpt lat="45.88328" lon="4.27384">
        <ele>572.266</ele>
        <time>2019-04-29T13:24:13Z</time>
      </trkpt>
      <trkpt lat="45.88325" lon="4.27388">
        <ele>571.625</ele>
        <time>2019-04-29T13:24:18Z</time>
      </trkpt>
      <trkpt lat="45.88319" lon="4.27397">
        <ele>571.015</ele>
        <time>2019-04-29T13:24:24Z</time>
      </trkpt>
      <trkpt lat="45.88315" lon="4.27404">
        <ele>571.123</ele>
        <time>2019-04-29T13:24:29Z</time>
      </trkpt>
      <trkpt lat="45.8831" lon="4.27411">
        <ele>571.104</ele>
        <time>2019-04-29T13:24:35Z</time>
      </trkpt>
      <trkpt lat="45.88304" lon="4.27417">
        <ele>570.849</ele>
        <time>2019-04-29T13:24:40Z</time>
      </trkpt>
      <trkpt lat="45.88302" lon="4.27424">
        <ele>570.604</ele>
        <time>2019-04-29T13:24:46Z</time>
      </trkpt>
      <trkpt lat="45.88299" lon="4.27428">
        <ele>570.39</ele>
        <time>2019-04-29T13:24:51Z</time>
      </trkpt>
      <trkpt lat="45.88294" lon="4.27434">
        <ele>569.889</ele>
        <time>2019-04-29T13:24:56Z</time>
      </trkpt>
      <trkpt lat="45.88288" lon="4.27441">
        <ele>569.345</ele>
        <time>2019-04-29T13:25:02Z</time>
      </trkpt>
      <trkpt lat="45.88284" lon="4.27446">
        <ele>569.015</ele>
        <time>2019-04-29T13:25:07Z</time>
      </trkpt>
      <trkpt lat="45.88281" lon="4.27452">
        <ele>568.65</ele>
        <time>2019-04-29T13:25:13Z</time>
      </trkpt>
      <trkpt lat="45.88277" lon="4.2746">
        <ele>568.01</ele>
        <time>2019-04-29T13:25:18Z</time>
      </trkpt>
      <trkpt lat="45.88273" lon="4.27467">
        <ele>567.304</ele>
        <time>2019-04-29T13:25:23Z</time>
      </trkpt>
      <trkpt lat="45.8827" lon="4.27472">
        <ele>565.896</ele>
        <time>2019-04-29T13:25:29Z</time>
      </trkpt>
      <trkpt lat="45.88265" lon="4.2748">
        <ele>564.984</ele>
        <time>2019-04-29T13:25:35Z</time>
      </trkpt>
      <trkpt lat="45.88259" lon="4.27484">
        <ele>564.148</ele>
        <time>2019-04-29T13:25:40Z</time>
      </trkpt>
      <trkpt lat="45.88254" lon="4.27492">
        <ele>563.56</ele>
        <time>2019-04-29T13:25:46Z</time>
      </trkpt>
      <trkpt lat="45.8825" lon="4.27497">
        <ele>562.849</ele>
        <time>2019-04-29T13:25:51Z</time>
      </trkpt>
      <trkpt lat="45.88247" lon="4.27503">
        <ele>562.075</ele>
        <time>2019-04-29T13:25:57Z</time>
      </trkpt>
      <trkpt lat="45.88238" lon="4.27509">
        <ele>561.814</ele>
        <time>2019-04-29T13:26:03Z</time>
      </trkpt>
      <trkpt lat="45.88231" lon="4.27515">
        <ele>561.196</ele>
        <time>2019-04-29T13:26:09Z</time>
      </trkpt>
      <trkpt lat="45.88229" lon="4.27519">
        <ele>560.405</ele>
        <time>2019-04-29T13:26:15Z</time>
      </trkpt>
      <trkpt lat="45.88225" lon="4.27524">
        <ele>559.485</ele>
        <time>2019-04-29T13:26:20Z</time>
      </trkpt>
      <trkpt lat="45.88221" lon="4.27528">
        <ele>558.629</ele>
        <time>2019-04-29T13:26:26Z</time>
      </trkpt>
      <trkpt lat="45.88215" lon="4.27536">
        <ele>558.374</ele>
        <time>2019-04-29T13:26:32Z</time>
      </trkpt>
      <trkpt lat="45.88209" lon="4.27541">
        <ele>558.016</ele>
        <time>2019-04-29T13:26:38Z</time>
      </trkpt>
      <trkpt lat="45.88204" lon="4.27547">
        <ele>557.411</ele>
        <time>2019-04-29T13:26:43Z</time>
      </trkpt>
      <trkpt lat="45.88199" lon="4.27555">
        <ele>556.846</ele>
        <time>2019-04-29T13:26:49Z</time>
      </trkpt>
      <trkpt lat="45.88194" lon="4.27561">
        <ele>556.187</ele>
        <time>2019-04-29T13:26:54Z</time>
      </trkpt>
      <trkpt lat="45.88189" lon="4.27571">
        <ele>555.725</ele>
        <time>2019-04-29T13:27:00Z</time>
      </trkpt>
      <trkpt lat="45.88186" lon="4.2758">
        <ele>555.642</ele>
        <time>2019-04-29T13:27:06Z</time>
      </trkpt>
      <trkpt lat="45.88183" lon="4.27591">
        <ele>555.582</ele>
        <time>2019-04-29T13:27:12Z</time>
      </trkpt>
      <trkpt lat="45.8818" lon="4.27599">
        <ele>555.472</ele>
        <time>2019-04-29T13:27:18Z</time>
      </trkpt>
      <trkpt lat="45.88177" lon="4.27609">
        <ele>555.195</ele>
        <time>2019-04-29T13:27:23Z</time>
      </trkpt>
      <trkpt lat="45.88176" lon="4.27616">
        <ele>555.003</ele>
        <time>2019-04-29T13:27:29Z</time>
      </trkpt>
      <trkpt lat="45.8817" lon="4.27625">
        <ele>554.655</ele>
        <time>2019-04-29T13:27:35Z</time>
      </trkpt>
      <trkpt lat="45.88169" lon="4.27637">
        <ele>554.681</ele>
        <time>2019-04-29T13:27:40Z</time>
      </trkpt>
      <trkpt lat="45.88169" lon="4.27647">
        <ele>554.85</ele>
        <time>2019-04-29T13:27:46Z</time>
      </trkpt>
      <trkpt lat="45.88169" lon="4.27653">
        <ele>555.001</ele>
        <time>2019-04-29T13:27:51Z</time>
      </trkpt>
      <trkpt lat="45.88167" lon="4.27666">
        <ele>555.241</ele>
        <time>2019-04-29T13:27:57Z</time>
      </trkpt>
      <trkpt lat="45.88166" lon="4.27677">
        <ele>555.477</ele>
        <time>2019-04-29T13:28:03Z</time>
      </trkpt>
      <trkpt lat="45.88165" lon="4.27687">
        <ele>555.709</ele>
        <time>2019-04-29T13:28:08Z</time>
      </trkpt>
      <trkpt lat="45.88166" lon="4.27693">
        <ele>556.284</ele>
        <time>2019-04-29T13:28:14Z</time>
      </trkpt>
      <trkpt lat="45.88168" lon="4.27696">
        <ele>556.569</ele>
        <time>2019-04-29T13:28:20Z</time>
      </trkpt>
      <trkpt lat="45.88169" lon="4.27696">
        <ele>556.649</ele>
        <time>2019-04-29T13:28:25Z</time>
      </trkpt>
      <trkpt lat="45.88169" lon="4.27697">
        <ele>557.099</ele>
        <time>2019-04-29T13:28:30Z</time>
      </trkpt>
      <trkpt lat="45.8817" lon="4.27696">
        <ele>557.687</ele>
        <time>2019-04-29T13:28:36Z</time>
      </trkpt>
      <trkpt lat="45.8817" lon="4.27696">
        <ele>558.796</ele>
        <time>2019-04-29T13:28:42Z</time>
      </trkpt>
      <trkpt lat="45.8817" lon="4.27696">
        <ele>559.671</ele>
        <time>2019-04-29T13:28:48Z</time>
      </trkpt>
      <trkpt lat="45.88169" lon="4.27697">
        <ele>560.344</ele>
        <time>2019-04-29T13:28:54Z</time>
      </trkpt>
      <trkpt lat="45.88171" lon="4.27696">
        <ele>560.376</ele>
        <time>2019-04-29T13:29:00Z</time>
      </trkpt>
      <trkpt lat="45.88171" lon="4.27694">
        <ele>560.381</ele>
        <time>2019-04-29T13:29:06Z</time>
      </trkpt>
      <trkpt lat="45.88168" lon="4.27698">
        <ele>560.575</ele>
        <time>2019-04-29T13:29:12Z</time>
      </trkpt>
      <trkpt lat="45.88167" lon="4.27697">
        <ele>560.747</ele>
        <time>2019-04-29T13:29:18Z</time>
      </trkpt>
      <trkpt lat="45.88166" lon="4.27694">
        <ele>560.769</ele>
        <time>2019-04-29T13:29:24Z</time>
      </trkpt>
      <trkpt lat="45.88166" lon="4.27695">
        <ele>560.541</ele>
        <time>2019-04-29T13:29:29Z</time>
      </trkpt>
      <trkpt lat="45.88167" lon="4.27702">
        <ele>560.397</ele>
        <time>2019-04-29T13:29:35Z</time>
      </trkpt>
      <trkpt lat="45.88166" lon="4.27699">
        <ele>559.602</ele>
        <time>2019-04-29T13:29:41Z</time>
      </trkpt>
      <trkpt lat="45.88164" lon="4.27693">
        <ele>559.281</ele>
        <time>2019-04-29T13:29:46Z</time>
      </trkpt>
      <trkpt lat="45.88164" lon="4.27692">
        <ele>558.567</ele>
        <time>2019-04-29T13:29:52Z</time>
      </trkpt>
      <trkpt lat="45.88167" lon="4.27692">
        <ele>558.424</ele>
        <time>2019-04-29T13:29:57Z</time>
      </trkpt>
      <trkpt lat="45.88169" lon="4.27694">
        <ele>558.8</ele>
        <time>2019-04-29T13:30:02Z</time>
      </trkpt>
      <trkpt lat="45.88169" lon="4.27695">
        <ele>559.008</ele>
        <time>2019-04-29T13:30:07Z</time>
      </trkpt>
      <trkpt lat="45.88169" lon="4.27695">
        <ele>558.965</ele>
        <time>2019-04-29T13:30:13Z</time>
      </trkpt>
      <trkpt lat="45.88169" lon="4.27695">
        <ele>558.899</ele>
        <time>2019-04-29T13:30:18Z</time>
      </trkpt>
      <trkpt lat="45.88169" lon="4.27695">
        <ele>558.771</ele>
        <time>2019-04-29T13:30:23Z</time>
      </trkpt>
      <trkpt lat="45.88169" lon="4.27695">
        <ele>558.655</ele>
        <time>2019-04-29T13:30:29Z</time>
      </trkpt>
      <trkpt lat="45.88169" lon="4.27695">
        <ele>558.571</ele>
        <time>2019-04-29T13:30:35Z</time>
      </trkpt>
      <trkpt lat="45.88169" lon="4.27695">
        <ele>558.462</ele>
        <time>2019-04-29T13:30:40Z</time>
      </trkpt>
      <trkpt lat="45.88169" lon="4.27695">
        <ele>558.394</ele>
        <time>2019-04-29T13:30:46Z</time>
      </trkpt>
      <trkpt lat="45.88169" lon="4.27695">
        <ele>558.331</ele>
        <time>2019-04-29T13:30:52Z</time>
      </trkpt>
      <trkpt lat="45.88169" lon="4.27695">
        <ele>558.372</ele>
        <time>2019-04-29T13:30:58Z</time>
      </trkpt>
      <trkpt lat="45.8817" lon="4.27699">
        <ele>558.714</ele>
        <time>2019-04-29T13:31:03Z</time>
      </trkpt>
      <trkpt lat="45.88173" lon="4.2771">
        <ele>559.448</ele>
        <time>2019-04-29T13:31:09Z</time>
      </trkpt>
      <trkpt lat="45.88177" lon="4.27721">
        <ele>559.725</ele>
        <time>2019-04-29T13:31:14Z</time>
      </trkpt>
      <trkpt lat="45.88178" lon="4.27731">
        <ele>559.849</ele>
        <time>2019-04-29T13:31:19Z</time>
      </trkpt>
      <trkpt lat="45.88183" lon="4.27738">
        <ele>560.099</ele>
        <time>2019-04-29T13:31:25Z</time>
      </trkpt>
      <trkpt lat="45.88185" lon="4.27741">
        <ele>559.949</ele>
        <time>2019-04-29T13:31:30Z</time>
      </trkpt>
      <trkpt lat="45.88188" lon="4.27743">
        <ele>559.741</ele>
        <time>2019-04-29T13:31:36Z</time>
      </trkpt>
      <trkpt lat="45.88189" lon="4.27743">
        <ele>559.603</ele>
        <time>2019-04-29T13:31:41Z</time>
      </trkpt>
      <trkpt lat="45.88192" lon="4.27746">
        <ele>560.055</ele>
        <time>2019-04-29T13:31:47Z</time>
      </trkpt>
      <trkpt lat="45.88199" lon="4.27754">
        <ele>560.301</ele>
        <time>2019-04-29T13:31:53Z</time>
      </trkpt>
      <trkpt lat="45.88201" lon="4.2776">
        <ele>560.596</ele>
        <time>2019-04-29T13:31:58Z</time>
      </trkpt>
      <trkpt lat="45.88203" lon="4.27767">
        <ele>560.76</ele>
        <time>2019-04-29T13:32:03Z</time>
      </trkpt>
      <trkpt lat="45.8821" lon="4.27773">
        <ele>561.194</ele>
        <time>2019-04-29T13:32:09Z</time>
      </trkpt>
      <trkpt lat="45.88213" lon="4.27779">
        <ele>561.059</ele>
        <time>2019-04-29T13:32:14Z</time>
      </trkpt>
      <trkpt lat="45.88216" lon="4.27789">
        <ele>561.201</ele>
        <time>2019-04-29T13:32:20Z</time>
      </trkpt>
      <trkpt lat="45.88222" lon="4.27798">
        <ele>561.218</ele>
        <time>2019-04-29T13:32:26Z</time>
      </trkpt>
      <trkpt lat="45.88226" lon="4.27805">
        <ele>561.449</ele>
        <time>2019-04-29T13:32:31Z</time>
      </trkpt>
      <trkpt lat="45.88232" lon="4.27812">
        <ele>561.658</ele>
        <time>2019-04-29T13:32:37Z</time>
      </trkpt>
      <trkpt lat="45.88235" lon="4.2782">
        <ele>562.274</ele>
        <time>2019-04-29T13:32:42Z</time>
      </trkpt>
      <trkpt lat="45.88242" lon="4.27827">
        <ele>562.681</ele>
        <time>2019-04-29T13:32:48Z</time>
      </trkpt>
      <trkpt lat="45.88245" lon="4.27836">
        <ele>562.809</ele>
        <time>2019-04-29T13:32:54Z</time>
      </trkpt>
      <trkpt lat="45.8825" lon="4.27844">
        <ele>563.365</ele>
        <time>2019-04-29T13:33:00Z</time>
      </trkpt>
      <trkpt lat="45.88256" lon="4.27853">
        <ele>563.875</ele>
        <time>2019-04-29T13:33:06Z</time>
      </trkpt>
      <trkpt lat="45.8826" lon="4.27859">
        <ele>563.734</ele>
        <time>2019-04-29T13:33:12Z</time>
      </trkpt>
      <trkpt lat="45.88264" lon="4.27871">
        <ele>563.677</ele>
        <time>2019-04-29T13:33:18Z</time>
      </trkpt>
      <trkpt lat="45.88268" lon="4.2788">
        <ele>563.493</ele>
        <time>2019-04-29T13:33:24Z</time>
      </trkpt>
      <trkpt lat="45.88272" lon="4.27893">
        <ele>563.3</ele>
        <time>2019-04-29T13:33:30Z</time>
      </trkpt>
      <trkpt lat="45.88275" lon="4.27903">
        <ele>562.996</ele>
        <time>2019-04-29T13:33:36Z</time>
      </trkpt>
      <trkpt lat="45.88277" lon="4.27912">
        <ele>562.722</ele>
        <time>2019-04-29T13:33:42Z</time>
      </trkpt>
      <trkpt lat="45.88281" lon="4.2792">
        <ele>562.645</ele>
        <time>2019-04-29T13:33:47Z</time>
      </trkpt>
      <trkpt lat="45.88288" lon="4.27928">
        <ele>562.306</ele>
        <time>2019-04-29T13:33:53Z</time>
      </trkpt>
      <trkpt lat="45.88292" lon="4.27936">
        <ele>562.315</ele>
        <time>2019-04-29T13:33:58Z</time>
      </trkpt>
      <trkpt lat="45.88298" lon="4.27945">
        <ele>562.482</ele>
        <time>2019-04-29T13:34:04Z</time>
      </trkpt>
      <trkpt lat="45.88302" lon="4.27955">
        <ele>562.468</ele>
        <time>2019-04-29T13:34:10Z</time>
      </trkpt>
      <trkpt lat="45.88305" lon="4.27962">
        <ele>562.386</ele>
        <time>2019-04-29T13:34:15Z</time>
      </trkpt>
      <trkpt lat="45.88308" lon="4.27972">
        <ele>562.221</ele>
        <time>2019-04-29T13:34:20Z</time>
      </trkpt>
      <trkpt lat="45.88311" lon="4.27982">
        <ele>562.19</ele>
        <time>2019-04-29T13:34:26Z</time>
      </trkpt>
      <trkpt lat="45.88314" lon="4.2799">
        <ele>562.342</ele>
        <time>2019-04-29T13:34:31Z</time>
      </trkpt>
      <trkpt lat="45.88319" lon="4.27998">
        <ele>561.997</ele>
        <time>2019-04-29T13:34:37Z</time>
      </trkpt>
      <trkpt lat="45.88323" lon="4.28008">
        <ele>561.982</ele>
        <time>2019-04-29T13:34:43Z</time>
      </trkpt>
      <trkpt lat="45.88327" lon="4.28018">
        <ele>561.799</ele>
        <time>2019-04-29T13:34:49Z</time>
      </trkpt>
      <trkpt lat="45.88331" lon="4.28027">
        <ele>561.554</ele>
        <time>2019-04-29T13:34:54Z</time>
      </trkpt>
      <trkpt lat="45.88336" lon="4.28033">
        <ele>561.298</ele>
        <time>2019-04-29T13:35:00Z</time>
      </trkpt>
      <trkpt lat="45.88338" lon="4.28044">
        <ele>561.242</ele>
        <time>2019-04-29T13:35:05Z</time>
      </trkpt>
      <trkpt lat="45.88337" lon="4.28056">
        <ele>561.303</ele>
        <time>2019-04-29T13:35:11Z</time>
      </trkpt>
      <trkpt lat="45.88337" lon="4.28064">
        <ele>561.227</ele>
        <time>2019-04-29T13:35:16Z</time>
      </trkpt>
      <trkpt lat="45.88335" lon="4.28069">
        <ele>560.893</ele>
        <time>2019-04-29T13:35:21Z</time>
      </trkpt>
      <trkpt lat="45.88334" lon="4.28082">
        <ele>561.003</ele>
        <time>2019-04-29T13:35:27Z</time>
      </trkpt>
      <trkpt lat="45.88334" lon="4.28095">
        <ele>560.996</ele>
        <time>2019-04-29T13:35:33Z</time>
      </trkpt>
      <trkpt lat="45.88332" lon="4.28101">
        <ele>560.924</ele>
        <time>2019-04-29T13:35:39Z</time>
      </trkpt>
      <trkpt lat="45.88328" lon="4.28107">
        <ele>560.75</ele>
        <time>2019-04-29T13:35:45Z</time>
      </trkpt>
      <trkpt lat="45.88323" lon="4.28114">
        <ele>560.688</ele>
        <time>2019-04-29T13:35:50Z</time>
      </trkpt>
      <trkpt lat="45.8832" lon="4.28119">
        <ele>560.262</ele>
        <time>2019-04-29T13:35:56Z</time>
      </trkpt>
      <trkpt lat="45.88317" lon="4.28126">
        <ele>560.354</ele>
        <time>2019-04-29T13:36:01Z</time>
      </trkpt>
      <trkpt lat="45.8831" lon="4.28139">
        <ele>560.605</ele>
        <time>2019-04-29T13:36:07Z</time>
      </trkpt>
      <trkpt lat="45.88307" lon="4.28151">
        <ele>561.138</ele>
        <time>2019-04-29T13:36:13Z</time>
      </trkpt>
      <trkpt lat="45.88305" lon="4.28163">
        <ele>561.693</ele>
        <time>2019-04-29T13:36:18Z</time>
      </trkpt>
      <trkpt lat="45.88305" lon="4.28172">
        <ele>561.901</ele>
        <time>2019-04-29T13:36:23Z</time>
      </trkpt>
      <trkpt lat="45.88305" lon="4.28181">
        <ele>561.888</ele>
        <time>2019-04-29T13:36:29Z</time>
      </trkpt>
      <trkpt lat="45.88306" lon="4.28189">
        <ele>562.142</ele>
        <time>2019-04-29T13:36:34Z</time>
      </trkpt>
      <trkpt lat="45.88309" lon="4.28199">
        <ele>562.31</ele>
        <time>2019-04-29T13:36:40Z</time>
      </trkpt>
      <trkpt lat="45.88311" lon="4.28208">
        <ele>562.705</ele>
        <time>2019-04-29T13:36:45Z</time>
      </trkpt>
      <trkpt lat="45.88312" lon="4.28219">
        <ele>563.113</ele>
        <time>2019-04-29T13:36:50Z</time>
      </trkpt>
      <trkpt lat="45.88314" lon="4.28229">
        <ele>563.699</ele>
        <time>2019-04-29T13:36:55Z</time>
      </trkpt>
      <trkpt lat="45.88318" lon="4.28239">
        <ele>564.154</ele>
        <time>2019-04-29T13:37:01Z</time>
      </trkpt>
      <trkpt lat="45.88319" lon="4.28248">
        <ele>564.608</ele>
        <time>2019-04-29T13:37:07Z</time>
      </trkpt>
      <trkpt lat="45.88319" lon="4.28254">
        <ele>565.057</ele>
        <time>2019-04-29T13:37:12Z</time>
      </trkpt>
      <trkpt lat="45.88319" lon="4.28265">
        <ele>565.708</ele>
        <time>2019-04-29T13:37:18Z</time>
      </trkpt>
      <trkpt lat="45.8832" lon="4.28278">
        <ele>565.816</ele>
        <time>2019-04-29T13:37:24Z</time>
      </trkpt>
      <trkpt lat="45.88321" lon="4.28291">
        <ele>565.823</ele>
        <time>2019-04-29T13:37:30Z</time>
      </trkpt>
      <trkpt lat="45.88321" lon="4.28299">
        <ele>566.156</ele>
        <time>2019-04-29T13:37:35Z</time>
      </trkpt>
      <trkpt lat="45.8832" lon="4.28309">
        <ele>566.735</ele>
        <time>2019-04-29T13:37:40Z</time>
      </trkpt>
      <trkpt lat="45.8832" lon="4.28316">
        <ele>567.12</ele>
        <time>2019-04-29T13:37:46Z</time>
      </trkpt>
      <trkpt lat="45.88322" lon="4.28326">
        <ele>567.294</ele>
        <time>2019-04-29T13:37:52Z</time>
      </trkpt>
      <trkpt lat="45.88323" lon="4.28337">
        <ele>567.217</ele>
        <time>2019-04-29T13:37:58Z</time>
      </trkpt>
      <trkpt lat="45.88323" lon="4.28349">
        <ele>567.458</ele>
        <time>2019-04-29T13:38:04Z</time>
      </trkpt>
      <trkpt lat="45.88322" lon="4.28357">
        <ele>567.684</ele>
        <time>2019-04-29T13:38:10Z</time>
      </trkpt>
      <trkpt lat="45.88324" lon="4.28367">
        <ele>567.796</ele>
        <time>2019-04-29T13:38:16Z</time>
      </trkpt>
      <trkpt lat="45.88322" lon="4.28376">
        <ele>568.048</ele>
        <time>2019-04-29T13:38:22Z</time>
      </trkpt>
      <trkpt lat="45.88323" lon="4.28384">
        <ele>568.126</ele>
        <time>2019-04-29T13:38:27Z</time>
      </trkpt>
      <trkpt lat="45.88324" lon="4.28393">
        <ele>568.505</ele>
        <time>2019-04-29T13:38:33Z</time>
      </trkpt>
      <trkpt lat="45.88325" lon="4.284">
        <ele>568.856</ele>
        <time>2019-04-29T13:38:38Z</time>
      </trkpt>
      <trkpt lat="45.88327" lon="4.28414">
        <ele>569.148</ele>
        <time>2019-04-29T13:38:44Z</time>
      </trkpt>
      <trkpt lat="45.88327" lon="4.2842">
        <ele>569.175</ele>
        <time>2019-04-29T13:38:49Z</time>
      </trkpt>
      <trkpt lat="45.88326" lon="4.28429">
        <ele>568.821</ele>
        <time>2019-04-29T13:38:55Z</time>
      </trkpt>
      <trkpt lat="45.88326" lon="4.28439">
        <ele>568.85</ele>
        <time>2019-04-29T13:39:00Z</time>
      </trkpt>
      <trkpt lat="45.88326" lon="4.28446">
        <ele>569.054</ele>
        <time>2019-04-29T13:39:06Z</time>
      </trkpt>
      <trkpt lat="45.88325" lon="4.28455">
        <ele>569.363</ele>
        <time>2019-04-29T13:39:11Z</time>
      </trkpt>
      <trkpt lat="45.88326" lon="4.28468">
        <ele>569.616</ele>
        <time>2019-04-29T13:39:17Z</time>
      </trkpt>
      <trkpt lat="45.88326" lon="4.28478">
        <ele>569.906</ele>
        <time>2019-04-29T13:39:22Z</time>
      </trkpt>
      <trkpt lat="45.88324" lon="4.28484">
        <ele>570.045</ele>
        <time>2019-04-29T13:39:28Z</time>
      </trkpt>
      <trkpt lat="45.88324" lon="4.28491">
        <ele>570.413</ele>
        <time>2019-04-29T13:39:33Z</time>
      </trkpt>
      <trkpt lat="45.88323" lon="4.28501">
        <ele>570.618</ele>
        <time>2019-04-29T13:39:39Z</time>
      </trkpt>
      <trkpt lat="45.88321" lon="4.28511">
        <ele>571.118</ele>
        <time>2019-04-29T13:39:44Z</time>
      </trkpt>
      <trkpt lat="45.8832" lon="4.28519">
        <ele>572.462</ele>
        <time>2019-04-29T13:39:50Z</time>
      </trkpt>
      <trkpt lat="45.88318" lon="4.2853">
        <ele>573.503</ele>
        <time>2019-04-29T13:39:56Z</time>
      </trkpt>
      <trkpt lat="45.88316" lon="4.2854">
        <ele>574.465</ele>
        <time>2019-04-29T13:40:02Z</time>
      </trkpt>
      <trkpt lat="45.88312" lon="4.2855">
        <ele>574.891</ele>
        <time>2019-04-29T13:40:08Z</time>
      </trkpt>
      <trkpt lat="45.88309" lon="4.28555">
        <ele>575.453</ele>
        <time>2019-04-29T13:40:14Z</time>
      </trkpt>
      <trkpt lat="45.88306" lon="4.28566">
        <ele>575.611</ele>
        <time>2019-04-29T13:40:20Z</time>
      </trkpt>
      <trkpt lat="45.883" lon="4.28574">
        <ele>575.892</ele>
        <time>2019-04-29T13:40:25Z</time>
      </trkpt>
      <trkpt lat="45.88295" lon="4.28583">
        <ele>576.164</ele>
        <time>2019-04-29T13:40:31Z</time>
      </trkpt>
      <trkpt lat="45.88291" lon="4.28591">
        <ele>576.325</ele>
        <time>2019-04-29T13:40:37Z</time>
      </trkpt>
      <trkpt lat="45.88288" lon="4.28599">
        <ele>576.448</ele>
        <time>2019-04-29T13:40:43Z</time>
      </trkpt>
      <trkpt lat="45.88283" lon="4.28609">
        <ele>576.518</ele>
        <time>2019-04-29T13:40:49Z</time>
      </trkpt>
      <trkpt lat="45.88278" lon="4.28613">
        <ele>576.624</ele>
        <time>2019-04-29T13:40:54Z</time>
      </trkpt>
      <trkpt lat="45.88273" lon="4.28622">
        <ele>576.407</ele>
        <time>2019-04-29T13:41:00Z</time>
      </trkpt>
      <trkpt lat="45.88267" lon="4.28628">
        <ele>576.58</ele>
        <time>2019-04-29T13:41:06Z</time>
      </trkpt>
      <trkpt lat="45.88262" lon="4.28637">
        <ele>577.03</ele>
        <time>2019-04-29T13:41:12Z</time>
      </trkpt>
      <trkpt lat="45.88258" lon="4.28643">
        <ele>577.545</ele>
        <time>2019-04-29T13:41:18Z</time>
      </trkpt>
      <trkpt lat="45.88254" lon="4.28654">
        <ele>577.672</ele>
        <time>2019-04-29T13:41:24Z</time>
      </trkpt>
      <trkpt lat="45.88251" lon="4.28658">
        <ele>577.875</ele>
        <time>2019-04-29T13:41:29Z</time>
      </trkpt>
      <trkpt lat="45.88247" lon="4.28667">
        <ele>577.816</ele>
        <time>2019-04-29T13:41:35Z</time>
      </trkpt>
      <trkpt lat="45.88243" lon="4.28677">
        <ele>577.91</ele>
        <time>2019-04-29T13:41:40Z</time>
      </trkpt>
      <trkpt lat="45.8824" lon="4.28684">
        <ele>578.03</ele>
        <time>2019-04-29T13:41:46Z</time>
      </trkpt>
      <trkpt lat="45.88235" lon="4.28693">
        <ele>578.191</ele>
        <time>2019-04-29T13:41:52Z</time>
      </trkpt>
      <trkpt lat="45.88232" lon="4.28704">
        <ele>578.402</ele>
        <time>2019-04-29T13:41:58Z</time>
      </trkpt>
      <trkpt lat="45.8823" lon="4.28713">
        <ele>578.619</ele>
        <time>2019-04-29T13:42:04Z</time>
      </trkpt>
      <trkpt lat="45.88228" lon="4.28717">
        <ele>578.44</ele>
        <time>2019-04-29T13:42:09Z</time>
      </trkpt>
      <trkpt lat="45.88225" lon="4.28723">
        <ele>577.836</ele>
        <time>2019-04-29T13:42:15Z</time>
      </trkpt>
      <trkpt lat="45.88221" lon="4.2873">
        <ele>577.266</ele>
        <time>2019-04-29T13:42:20Z</time>
      </trkpt>
      <trkpt lat="45.88219" lon="4.28738">
        <ele>577.136</ele>
        <time>2019-04-29T13:42:25Z</time>
      </trkpt>
      <trkpt lat="45.88213" lon="4.28745">
        <ele>576.511</ele>
        <time>2019-04-29T13:42:31Z</time>
      </trkpt>
      <trkpt lat="45.88208" lon="4.28749">
        <ele>575.9</ele>
        <time>2019-04-29T13:42:36Z</time>
      </trkpt>
      <trkpt lat="45.88203" lon="4.28752">
        <ele>575.486</ele>
        <time>2019-04-29T13:42:41Z</time>
      </trkpt>
      <trkpt lat="45.88199" lon="4.28753">
        <ele>575.581</ele>
        <time>2019-04-29T13:42:46Z</time>
      </trkpt>
      <trkpt lat="45.88192" lon="4.28756">
        <ele>575.299</ele>
        <time>2019-04-29T13:42:52Z</time>
      </trkpt>
      <trkpt lat="45.88185" lon="4.28761">
        <ele>575.241</ele>
        <time>2019-04-29T13:42:58Z</time>
      </trkpt>
      <trkpt lat="45.88179" lon="4.28764">
        <ele>575.126</ele>
        <time>2019-04-29T13:43:04Z</time>
      </trkpt>
      <trkpt lat="45.88172" lon="4.28768">
        <ele>575.016</ele>
        <time>2019-04-29T13:43:10Z</time>
      </trkpt>
      <trkpt lat="45.88164" lon="4.28771">
        <ele>574.85</ele>
        <time>2019-04-29T13:43:16Z</time>
      </trkpt>
      <trkpt lat="45.88159" lon="4.28771">
        <ele>574.585</ele>
        <time>2019-04-29T13:43:21Z</time>
      </trkpt>
      <trkpt lat="45.88156" lon="4.28769">
        <ele>574.731</ele>
        <time>2019-04-29T13:43:27Z</time>
      </trkpt>
      <trkpt lat="45.88155" lon="4.28767">
        <ele>575.114</ele>
        <time>2019-04-29T13:43:32Z</time>
      </trkpt>
      <trkpt lat="45.88152" lon="4.28767">
        <ele>575.204</ele>
        <time>2019-04-29T13:43:38Z</time>
      </trkpt>
      <trkpt lat="45.88151" lon="4.28771">
        <ele>575.133</ele>
        <time>2019-04-29T13:43:44Z</time>
      </trkpt>
      <trkpt lat="45.88153" lon="4.28773">
        <ele>574.779</ele>
        <time>2019-04-29T13:43:50Z</time>
      </trkpt>
      <trkpt lat="45.88152" lon="4.28768">
        <ele>573.878</ele>
        <time>2019-04-29T13:43:56Z</time>
      </trkpt>
      <trkpt lat="45.8815" lon="4.28768">
        <ele>573.77</ele>
        <time>2019-04-29T13:44:01Z</time>
      </trkpt>
      <trkpt lat="45.88149" lon="4.28768">
        <ele>573.786</ele>
        <time>2019-04-29T13:44:07Z</time>
      </trkpt>
      <trkpt lat="45.88149" lon="4.28766">
        <ele>573.995</ele>
        <time>2019-04-29T13:44:13Z</time>
      </trkpt>
      <trkpt lat="45.88148" lon="4.28768">
        <ele>574.69</ele>
        <time>2019-04-29T13:44:19Z</time>
      </trkpt>
      <trkpt lat="45.88147" lon="4.28774">
        <ele>575.417</ele>
        <time>2019-04-29T13:44:24Z</time>
      </trkpt>
      <trkpt lat="45.88145" lon="4.28779">
        <ele>576.063</ele>
        <time>2019-04-29T13:44:30Z</time>
      </trkpt>
      <trkpt lat="45.88145" lon="4.28788">
        <ele>576.121</ele>
        <time>2019-04-29T13:44:36Z</time>
      </trkpt>
      <trkpt lat="45.88143" lon="4.28798">
        <ele>575.723</ele>
        <time>2019-04-29T13:44:42Z</time>
      </trkpt>
      <trkpt lat="45.88143" lon="4.28805">
        <ele>575.44</ele>
        <time>2019-04-29T13:44:47Z</time>
      </trkpt>
      <trkpt lat="45.88142" lon="4.28816">
        <ele>575.044</ele>
        <time>2019-04-29T13:44:53Z</time>
      </trkpt>
      <trkpt lat="45.88141" lon="4.28825">
        <ele>574.529</ele>
        <time>2019-04-29T13:44:58Z</time>
      </trkpt>
      <trkpt lat="45.88139" lon="4.28832">
        <ele>573.794</ele>
        <time>2019-04-29T13:45:04Z</time>
      </trkpt>
      <trkpt lat="45.88137" lon="4.28841">
        <ele>573.44</ele>
        <time>2019-04-29T13:45:10Z</time>
      </trkpt>
      <trkpt lat="45.88135" lon="4.28849">
        <ele>573.24</ele>
        <time>2019-04-29T13:45:15Z</time>
      </trkpt>
      <trkpt lat="45.88134" lon="4.28857">
        <ele>573.305</ele>
        <time>2019-04-29T13:45:21Z</time>
      </trkpt>
      <trkpt lat="45.88133" lon="4.28865">
        <ele>573.293</ele>
        <time>2019-04-29T13:45:26Z</time>
      </trkpt>
      <trkpt lat="45.88131" lon="4.28875">
        <ele>573.186</ele>
        <time>2019-04-29T13:45:32Z</time>
      </trkpt>
      <trkpt lat="45.88129" lon="4.28886">
        <ele>573.236</ele>
        <time>2019-04-29T13:45:38Z</time>
      </trkpt>
      <trkpt lat="45.88128" lon="4.28894">
        <ele>573.464</ele>
        <time>2019-04-29T13:45:43Z</time>
      </trkpt>
      <trkpt lat="45.88124" lon="4.28904">
        <ele>573.776</ele>
        <time>2019-04-29T13:45:49Z</time>
      </trkpt>
      <trkpt lat="45.88123" lon="4.28909">
        <ele>573.984</ele>
        <time>2019-04-29T13:45:54Z</time>
      </trkpt>
      <trkpt lat="45.88119" lon="4.28919">
        <ele>574.192</ele>
        <time>2019-04-29T13:46:00Z</time>
      </trkpt>
      <trkpt lat="45.88115" lon="4.28926">
        <ele>574.428</ele>
        <time>2019-04-29T13:46:06Z</time>
      </trkpt>
      <trkpt lat="45.8811" lon="4.28937">
        <ele>574.103</ele>
        <time>2019-04-29T13:46:12Z</time>
      </trkpt>
      <trkpt lat="45.88108" lon="4.28944">
        <ele>574.232</ele>
        <time>2019-04-29T13:46:17Z</time>
      </trkpt>
      <trkpt lat="45.88105" lon="4.28953">
        <ele>574.487</ele>
        <time>2019-04-29T13:46:23Z</time>
      </trkpt>
      <trkpt lat="45.88102" lon="4.28958">
        <ele>574.518</ele>
        <time>2019-04-29T13:46:28Z</time>
      </trkpt>
      <trkpt lat="45.88099" lon="4.28966">
        <ele>574.841</ele>
        <time>2019-04-29T13:46:34Z</time>
      </trkpt>
      <trkpt lat="45.88096" lon="4.28978">
        <ele>574.918</ele>
        <time>2019-04-29T13:46:40Z</time>
      </trkpt>
      <trkpt lat="45.88094" lon="4.28989">
        <ele>574.864</ele>
        <time>2019-04-29T13:46:46Z</time>
      </trkpt>
      <trkpt lat="45.88092" lon="4.29">
        <ele>574.723</ele>
        <time>2019-04-29T13:46:52Z</time>
      </trkpt>
      <trkpt lat="45.88092" lon="4.29012">
        <ele>574.83</ele>
        <time>2019-04-29T13:46:58Z</time>
      </trkpt>
      <trkpt lat="45.88093" lon="4.29019">
        <ele>574.902</ele>
        <time>2019-04-29T13:47:04Z</time>
      </trkpt>
      <trkpt lat="45.88093" lon="4.29028">
        <ele>574.964</ele>
        <time>2019-04-29T13:47:09Z</time>
      </trkpt>
      <trkpt lat="45.88093" lon="4.29039">
        <ele>575.204</ele>
        <time>2019-04-29T13:47:15Z</time>
      </trkpt>
      <trkpt lat="45.88093" lon="4.29049">
        <ele>575.319</ele>
        <time>2019-04-29T13:47:21Z</time>
      </trkpt>
      <trkpt lat="45.88093" lon="4.29058">
        <ele>575.242</ele>
        <time>2019-04-29T13:47:27Z</time>
      </trkpt>
      <trkpt lat="45.88094" lon="4.29065">
        <ele>575.478</ele>
        <time>2019-04-29T13:47:32Z</time>
      </trkpt>
      <trkpt lat="45.88093" lon="4.29078">
        <ele>575.82</ele>
        <time>2019-04-29T13:47:38Z</time>
      </trkpt>
      <trkpt lat="45.88091" lon="4.2909">
        <ele>576.223</ele>
        <time>2019-04-29T13:47:44Z</time>
      </trkpt>
      <trkpt lat="45.88092" lon="4.29104">
        <ele>576.94</ele>
        <time>2019-04-29T13:47:50Z</time>
      </trkpt>
      <trkpt lat="45.88091" lon="4.29118">
        <ele>577.561</ele>
        <time>2019-04-29T13:47:56Z</time>
      </trkpt>
      <trkpt lat="45.88092" lon="4.29129">
        <ele>578.276</ele>
        <time>2019-04-29T13:48:02Z</time>
      </trkpt>
      <trkpt lat="45.88092" lon="4.29138">
        <ele>578.685</ele>
        <time>2019-04-29T13:48:07Z</time>
      </trkpt>
      <trkpt lat="45.88094" lon="4.29148">
        <ele>578.986</ele>
        <time>2019-04-29T13:48:12Z</time>
      </trkpt>
      <trkpt lat="45.88095" lon="4.29157">
        <ele>579.009</ele>
        <time>2019-04-29T13:48:18Z</time>
      </trkpt>
      <trkpt lat="45.88096" lon="4.2917">
        <ele>579.386</ele>
        <time>2019-04-29T13:48:24Z</time>
      </trkpt>
      <trkpt lat="45.881" lon="4.29178">
        <ele>579.462</ele>
        <time>2019-04-29T13:48:30Z</time>
      </trkpt>
      <trkpt lat="45.88103" lon="4.29184">
        <ele>579.765</ele>
        <time>2019-04-29T13:48:36Z</time>
      </trkpt>
      <trkpt lat="45.88107" lon="4.29191">
        <ele>579.828</ele>
        <time>2019-04-29T13:48:42Z</time>
      </trkpt>
      <trkpt lat="45.8811" lon="4.29199">
        <ele>579.611</ele>
        <time>2019-04-29T13:48:47Z</time>
      </trkpt>
      <trkpt lat="45.88113" lon="4.29204">
        <ele>579.342</ele>
        <time>2019-04-29T13:48:52Z</time>
      </trkpt>
      <trkpt lat="45.88117" lon="4.29207">
        <ele>579.329</ele>
        <time>2019-04-29T13:48:58Z</time>
      </trkpt>
      <trkpt lat="45.88123" lon="4.29216">
        <ele>580.014</ele>
        <time>2019-04-29T13:49:04Z</time>
      </trkpt>
      <trkpt lat="45.88126" lon="4.29218">
        <ele>580.64</ele>
        <time>2019-04-29T13:49:10Z</time>
      </trkpt>
      <trkpt lat="45.88127" lon="4.29218">
        <ele>581.093</ele>
        <time>2019-04-29T13:49:16Z</time>
      </trkpt>
      <trkpt lat="45.88128" lon="4.29218">
        <ele>580.905</ele>
        <time>2019-04-29T13:49:21Z</time>
      </trkpt>
      <trkpt lat="45.88127" lon="4.29218">
        <ele>580.764</ele>
        <time>2019-04-29T13:49:27Z</time>
      </trkpt>
      <trkpt lat="45.88127" lon="4.29219">
        <ele>581.525</ele>
        <time>2019-04-29T13:49:33Z</time>
      </trkpt>
      <trkpt lat="45.88128" lon="4.29221">
        <ele>582.569</ele>
        <time>2019-04-29T13:49:38Z</time>
      </trkpt>
      <trkpt lat="45.88128" lon="4.29218">
        <ele>583.335</ele>
        <time>2019-04-29T13:49:44Z</time>
      </trkpt>
      <trkpt lat="45.88128" lon="4.29215">
        <ele>583.692</ele>
        <time>2019-04-29T13:49:49Z</time>
      </trkpt>
      <trkpt lat="45.88128" lon="4.29215">
        <ele>584.339</ele>
        <time>2019-04-29T13:49:55Z</time>
      </trkpt>
      <trkpt lat="45.88128" lon="4.29215">
        <ele>584.327</ele>
        <time>2019-04-29T13:50:01Z</time>
      </trkpt>
      <trkpt lat="45.88128" lon="4.29215">
        <ele>584.319</ele>
        <time>2019-04-29T13:50:06Z</time>
      </trkpt>
      <trkpt lat="45.88128" lon="4.29215">
        <ele>584.311</ele>
        <time>2019-04-29T13:50:12Z</time>
      </trkpt>
      <trkpt lat="45.88127" lon="4.29214">
        <ele>584.363</ele>
        <time>2019-04-29T13:50:17Z</time>
      </trkpt>
      <trkpt lat="45.88126" lon="4.29214">
        <ele>584.608</ele>
        <time>2019-04-29T13:50:23Z</time>
      </trkpt>
      <trkpt lat="45.88126" lon="4.29214">
        <ele>584.728</ele>
        <time>2019-04-29T13:50:28Z</time>
      </trkpt>
      <trkpt lat="45.88126" lon="4.29214">
        <ele>584.831</ele>
        <time>2019-04-29T13:50:34Z</time>
      </trkpt>
      <trkpt lat="45.88128" lon="4.29209">
        <ele>585.075</ele>
        <time>2019-04-29T13:50:39Z</time>
      </trkpt>
      <trkpt lat="45.8813" lon="4.29201">
        <ele>585.874</ele>
        <time>2019-04-29T13:50:45Z</time>
      </trkpt>
      <trkpt lat="45.88133" lon="4.29194">
        <ele>585.824</ele>
        <time>2019-04-29T13:50:51Z</time>
      </trkpt>
      <trkpt lat="45.88137" lon="4.2919">
        <ele>585.839</ele>
        <time>2019-04-29T13:50:56Z</time>
      </trkpt>
      <trkpt lat="45.88142" lon="4.2919">
        <ele>586.661</ele>
        <time>2019-04-29T13:51:02Z</time>
      </trkpt>
      <trkpt lat="45.88148" lon="4.29191">
        <ele>587.456</ele>
        <time>2019-04-29T13:51:08Z</time>
      </trkpt>
      <trkpt lat="45.88154" lon="4.2919">
        <ele>588.274</ele>
        <time>2019-04-29T13:51:14Z</time>
      </trkpt>
      <trkpt lat="45.88158" lon="4.29191">
        <ele>588.995</ele>
        <time>2019-04-29T13:51:19Z</time>
      </trkpt>
      <trkpt lat="45.88163" lon="4.2919">
        <ele>590.382</ele>
        <time>2019-04-29T13:51:25Z</time>
      </trkpt>
      <trkpt lat="45.88167" lon="4.29189">
        <ele>591.322</ele>
        <time>2019-04-29T13:51:30Z</time>
      </trkpt>
      <trkpt lat="45.88172" lon="4.29187">
        <ele>592.354</ele>
        <time>2019-04-29T13:51:36Z</time>
      </trkpt>
      <trkpt lat="45.88179" lon="4.29196">
        <ele>592.855</ele>
        <time>2019-04-29T13:51:41Z</time>
      </trkpt>
      <trkpt lat="45.88178" lon="4.29205">
        <ele>593.291</ele>
        <time>2019-04-29T13:51:47Z</time>
      </trkpt>
      <trkpt lat="45.88177" lon="4.29211">
        <ele>593.298</ele>
        <time>2019-04-29T13:51:52Z</time>
      </trkpt>
      <trkpt lat="45.88172" lon="4.29219">
        <ele>593.11</ele>
        <time>2019-04-29T13:51:58Z</time>
      </trkpt>
      <trkpt lat="45.88169" lon="4.29228">
        <ele>592.984</ele>
        <time>2019-04-29T13:52:03Z</time>
      </trkpt>
      <trkpt lat="45.88164" lon="4.2924">
        <ele>593.201</ele>
        <time>2019-04-29T13:52:09Z</time>
      </trkpt>
      <trkpt lat="45.88162" lon="4.29247">
        <ele>593.635</ele>
        <time>2019-04-29T13:52:15Z</time>
      </trkpt>
      <trkpt lat="45.8816" lon="4.29252">
        <ele>594.216</ele>
        <time>2019-04-29T13:52:20Z</time>
      </trkpt>
      <trkpt lat="45.88158" lon="4.29262">
        <ele>594.831</ele>
        <time>2019-04-29T13:52:26Z</time>
      </trkpt>
      <trkpt lat="45.88157" lon="4.29267">
        <ele>595.407</ele>
        <time>2019-04-29T13:52:31Z</time>
      </trkpt>
      <trkpt lat="45.88155" lon="4.2927">
        <ele>595.994</ele>
        <time>2019-04-29T13:52:37Z</time>
      </trkpt>
      <trkpt lat="45.88154" lon="4.29271">
        <ele>596.262</ele>
        <time>2019-04-29T13:52:42Z</time>
      </trkpt>
      <trkpt lat="45.88153" lon="4.29271">
        <ele>596.619</ele>
        <time>2019-04-29T13:52:47Z</time>
      </trkpt>
      <trkpt lat="45.88153" lon="4.29272">
        <ele>596.982</ele>
        <time>2019-04-29T13:52:53Z</time>
      </trkpt>
      <trkpt lat="45.88156" lon="4.29279">
        <ele>597.622</ele>
        <time>2019-04-29T13:52:58Z</time>
      </trkpt>
      <trkpt lat="45.88162" lon="4.2929">
        <ele>598.115</ele>
        <time>2019-04-29T13:53:04Z</time>
      </trkpt>
      <trkpt lat="45.88165" lon="4.29298">
        <ele>598.407</ele>
        <time>2019-04-29T13:53:09Z</time>
      </trkpt>
      <trkpt lat="45.88167" lon="4.29305">
        <ele>598.589</ele>
        <time>2019-04-29T13:53:15Z</time>
      </trkpt>
      <trkpt lat="45.88171" lon="4.2931">
        <ele>598.585</ele>
        <time>2019-04-29T13:53:20Z</time>
      </trkpt>
      <trkpt lat="45.88174" lon="4.29318">
        <ele>599.025</ele>
        <time>2019-04-29T13:53:26Z</time>
      </trkpt>
      <trkpt lat="45.88177" lon="4.29326">
        <ele>599.284</ele>
        <time>2019-04-29T13:53:31Z</time>
      </trkpt>
      <trkpt lat="45.88181" lon="4.29333">
        <ele>599.437</ele>
        <time>2019-04-29T13:53:36Z</time>
      </trkpt>
      <trkpt lat="45.88185" lon="4.29339">
        <ele>599.729</ele>
        <time>2019-04-29T13:53:42Z</time>
      </trkpt>
      <trkpt lat="45.88187" lon="4.29344">
        <ele>599.855</ele>
        <time>2019-04-29T13:53:47Z</time>
      </trkpt>
      <trkpt lat="45.88189" lon="4.29351">
        <ele>600.541</ele>
        <time>2019-04-29T13:53:53Z</time>
      </trkpt>
      <trkpt lat="45.88192" lon="4.2936">
        <ele>600.934</ele>
        <time>2019-04-29T13:53:58Z</time>
      </trkpt>
      <trkpt lat="45.88194" lon="4.29368">
        <ele>601.402</ele>
        <time>2019-04-29T13:54:04Z</time>
      </trkpt>
      <trkpt lat="45.88196" lon="4.29375">
        <ele>602.032</ele>
        <time>2019-04-29T13:54:10Z</time>
      </trkpt>
      <trkpt lat="45.88197" lon="4.29381">
        <ele>602.739</ele>
        <time>2019-04-29T13:54:15Z</time>
      </trkpt>
      <trkpt lat="45.88201" lon="4.29393">
        <ele>603.687</ele>
        <time>2019-04-29T13:54:21Z</time>
      </trkpt>
      <trkpt lat="45.88201" lon="4.29398">
        <ele>604.645</ele>
        <time>2019-04-29T13:54:26Z</time>
      </trkpt>
      <trkpt lat="45.88201" lon="4.29407">
        <ele>605.54</ele>
        <time>2019-04-29T13:54:32Z</time>
      </trkpt>
      <trkpt lat="45.88202" lon="4.29413">
        <ele>606.18</ele>
        <time>2019-04-29T13:54:37Z</time>
      </trkpt>
      <trkpt lat="45.88203" lon="4.29419">
        <ele>606.249</ele>
        <time>2019-04-29T13:54:43Z</time>
      </trkpt>
      <trkpt lat="45.88204" lon="4.29426">
        <ele>606.88</ele>
        <time>2019-04-29T13:54:48Z</time>
      </trkpt>
      <trkpt lat="45.88204" lon="4.29436">
        <ele>607.704</ele>
        <time>2019-04-29T13:54:54Z</time>
      </trkpt>
      <trkpt lat="45.88207" lon="4.29446">
        <ele>608.322</ele>
        <time>2019-04-29T13:54:59Z</time>
      </trkpt>
      <trkpt lat="45.88212" lon="4.29456">
        <ele>608.952</ele>
        <time>2019-04-29T13:55:05Z</time>
      </trkpt>
      <trkpt lat="45.88215" lon="4.29463">
        <ele>609.571</ele>
        <time>2019-04-29T13:55:11Z</time>
      </trkpt>
      <trkpt lat="45.88219" lon="4.29471">
        <ele>610.121</ele>
        <time>2019-04-29T13:55:17Z</time>
      </trkpt>
      <trkpt lat="45.88222" lon="4.29477">
        <ele>610.565</ele>
        <time>2019-04-29T13:55:22Z</time>
      </trkpt>
      <trkpt lat="45.88227" lon="4.29485">
        <ele>611.169</ele>
        <time>2019-04-29T13:55:28Z</time>
      </trkpt>
      <trkpt lat="45.88229" lon="4.2949">
        <ele>611.258</ele>
        <time>2019-04-29T13:55:34Z</time>
      </trkpt>
      <trkpt lat="45.88231" lon="4.29498">
        <ele>610.96</ele>
        <time>2019-04-29T13:55:39Z</time>
      </trkpt>
      <trkpt lat="45.88237" lon="4.29506">
        <ele>610.767</ele>
        <time>2019-04-29T13:55:45Z</time>
      </trkpt>
      <trkpt lat="45.88241" lon="4.29513">
        <ele>611.338</ele>
        <time>2019-04-29T13:55:51Z</time>
      </trkpt>
      <trkpt lat="45.88243" lon="4.29519">
        <ele>611.853</ele>
        <time>2019-04-29T13:55:56Z</time>
      </trkpt>
      <trkpt lat="45.88245" lon="4.29529">
        <ele>612.186</ele>
        <time>2019-04-29T13:56:02Z</time>
      </trkpt>
      <trkpt lat="45.88245" lon="4.29539">
        <ele>612.442</ele>
        <time>2019-04-29T13:56:08Z</time>
      </trkpt>
      <trkpt lat="45.88242" lon="4.29543">
        <ele>612.766</ele>
        <time>2019-04-29T13:56:13Z</time>
      </trkpt>
      <trkpt lat="45.88239" lon="4.2955">
        <ele>612.791</ele>
        <time>2019-04-29T13:56:19Z</time>
      </trkpt>
      <trkpt lat="45.88237" lon="4.29557">
        <ele>613.26</ele>
        <time>2019-04-29T13:56:24Z</time>
      </trkpt>
      <trkpt lat="45.88235" lon="4.29567">
        <ele>614.425</ele>
        <time>2019-04-29T13:56:30Z</time>
      </trkpt>
      <trkpt lat="45.88233" lon="4.29576">
        <ele>615.697</ele>
        <time>2019-04-29T13:56:35Z</time>
      </trkpt>
      <trkpt lat="45.88233" lon="4.29587">
        <ele>616.344</ele>
        <time>2019-04-29T13:56:41Z</time>
      </trkpt>
      <trkpt lat="45.88235" lon="4.29591">
        <ele>617.078</ele>
        <time>2019-04-29T13:56:46Z</time>
      </trkpt>
      <trkpt lat="45.88233" lon="4.29602">
        <ele>617.773</ele>
        <time>2019-04-29T13:56:52Z</time>
      </trkpt>
      <trkpt lat="45.88232" lon="4.29608">
        <ele>618.091</ele>
        <time>2019-04-29T13:56:57Z</time>
      </trkpt>
      <trkpt lat="45.88231" lon="4.29617">
        <ele>618.402</ele>
        <time>2019-04-29T13:57:03Z</time>
      </trkpt>
      <trkpt lat="45.8823" lon="4.29627">
        <ele>618.468</ele>
        <time>2019-04-29T13:57:08Z</time>
      </trkpt>
      <trkpt lat="45.88228" lon="4.29638">
        <ele>618.486</ele>
        <time>2019-04-29T13:57:14Z</time>
      </trkpt>
      <trkpt lat="45.88227" lon="4.29648">
        <ele>618.663</ele>
        <time>2019-04-29T13:57:20Z</time>
      </trkpt>
      <trkpt lat="45.88226" lon="4.29655">
        <ele>618.58</ele>
        <time>2019-04-29T13:57:26Z</time>
      </trkpt>
      <trkpt lat="45.88226" lon="4.29663">
        <ele>618.939</ele>
        <time>2019-04-29T13:57:32Z</time>
      </trkpt>
      <trkpt lat="45.88225" lon="4.29671">
        <ele>619.753</ele>
        <time>2019-04-29T13:57:37Z</time>
      </trkpt>
      <trkpt lat="45.88224" lon="4.29675">
        <ele>620.764</ele>
        <time>2019-04-29T13:57:42Z</time>
      </trkpt>
      <trkpt lat="45.88225" lon="4.29682">
        <ele>621.354</ele>
        <time>2019-04-29T13:57:47Z</time>
      </trkpt>
      <trkpt lat="45.88227" lon="4.2969">
        <ele>621.962</ele>
        <time>2019-04-29T13:57:53Z</time>
      </trkpt>
      <trkpt lat="45.88227" lon="4.29695">
        <ele>622.948</ele>
        <time>2019-04-29T13:57:59Z</time>
      </trkpt>
      <trkpt lat="45.88233" lon="4.29704">
        <ele>624.023</ele>
        <time>2019-04-29T13:58:05Z</time>
      </trkpt>
      <trkpt lat="45.88238" lon="4.29711">
        <ele>624.014</ele>
        <time>2019-04-29T13:58:11Z</time>
      </trkpt>
      <trkpt lat="45.88244" lon="4.2972">
        <ele>623.169</ele>
        <time>2019-04-29T13:58:17Z</time>
      </trkpt>
      <trkpt lat="45.8825" lon="4.29724">
        <ele>622.902</ele>
        <time>2019-04-29T13:58:23Z</time>
      </trkpt>
      <trkpt lat="45.88257" lon="4.2973">
        <ele>622.65</ele>
        <time>2019-04-29T13:58:29Z</time>
      </trkpt>
      <trkpt lat="45.88263" lon="4.29736">
        <ele>622.599</ele>
        <time>2019-04-29T13:58:35Z</time>
      </trkpt>
      <trkpt lat="45.88268" lon="4.29741">
        <ele>622.733</ele>
        <time>2019-04-29T13:58:41Z</time>
      </trkpt>
      <trkpt lat="45.88275" lon="4.29744">
        <ele>622.848</ele>
        <time>2019-04-29T13:58:47Z</time>
      </trkpt>
      <trkpt lat="45.88282" lon="4.29747">
        <ele>622.604</ele>
        <time>2019-04-29T13:58:53Z</time>
      </trkpt>
      <trkpt lat="45.88286" lon="4.29749">
        <ele>622.559</ele>
        <time>2019-04-29T13:58:58Z</time>
      </trkpt>
      <trkpt lat="45.88289" lon="4.2975">
        <ele>622.733</ele>
        <time>2019-04-29T13:59:04Z</time>
      </trkpt>
      <trkpt lat="45.88294" lon="4.29753">
        <ele>622.825</ele>
        <time>2019-04-29T13:59:10Z</time>
      </trkpt>
      <trkpt lat="45.88299" lon="4.29758">
        <ele>623.316</ele>
        <time>2019-04-29T13:59:16Z</time>
      </trkpt>
      <trkpt lat="45.88303" lon="4.2976">
        <ele>624.164</ele>
        <time>2019-04-29T13:59:22Z</time>
      </trkpt>
      <trkpt lat="45.88308" lon="4.29762">
        <ele>624.986</ele>
        <time>2019-04-29T13:59:28Z</time>
      </trkpt>
      <trkpt lat="45.8831" lon="4.29761">
        <ele>625.522</ele>
        <time>2019-04-29T13:59:33Z</time>
      </trkpt>
      <trkpt lat="45.8831" lon="4.29761">
        <ele>625.996</ele>
        <time>2019-04-29T13:59:38Z</time>
      </trkpt>
      <trkpt lat="45.88312" lon="4.29764">
        <ele>626.876</ele>
        <time>2019-04-29T13:59:44Z</time>
      </trkpt>
      <trkpt lat="45.88319" lon="4.29769">
        <ele>627.278</ele>
        <time>2019-04-29T13:59:50Z</time>
      </trkpt>
      <trkpt lat="45.88323" lon="4.2977">
        <ele>627.747</ele>
        <time>2019-04-29T13:59:55Z</time>
      </trkpt>
      <trkpt lat="45.88322" lon="4.29769">
        <ele>628.667</ele>
        <time>2019-04-29T14:00:01Z</time>
      </trkpt>
      <trkpt lat="45.88322" lon="4.29769">
        <ele>630.027</ele>
        <time>2019-04-29T14:00:07Z</time>
      </trkpt>
      <trkpt lat="45.8832" lon="4.29766">
        <ele>630.447</ele>
        <time>2019-04-29T14:00:13Z</time>
      </trkpt>
      <trkpt lat="45.88319" lon="4.29763">
        <ele>632.165</ele>
        <time>2019-04-29T14:00:19Z</time>
      </trkpt>
      <trkpt lat="45.88322" lon="4.29761">
        <ele>633.088</ele>
        <time>2019-04-29T14:00:24Z</time>
      </trkpt>
      <trkpt lat="45.88325" lon="4.29762">
        <ele>633.215</ele>
        <time>2019-04-29T14:00:29Z</time>
      </trkpt>
      <trkpt lat="45.88328" lon="4.29762">
        <ele>633.319</ele>
        <time>2019-04-29T14:00:35Z</time>
      </trkpt>
      <trkpt lat="45.88327" lon="4.29761">
        <ele>633.422</ele>
        <time>2019-04-29T14:00:41Z</time>
      </trkpt>
      <trkpt lat="45.88327" lon="4.29761">
        <ele>634.316</ele>
        <time>2019-04-29T14:00:46Z</time>
      </trkpt>
      <trkpt lat="45.88325" lon="4.29764">
        <ele>635.229</ele>
        <time>2019-04-29T14:00:52Z</time>
      </trkpt>
      <trkpt lat="45.88323" lon="4.29769">
        <ele>635.257</ele>
        <time>2019-04-29T14:00:57Z</time>
      </trkpt>
      <trkpt lat="45.88323" lon="4.29772">
        <ele>635.271</ele>
        <time>2019-04-29T14:01:03Z</time>
      </trkpt>
      <trkpt lat="45.88322" lon="4.29773">
        <ele>635.307</ele>
        <time>2019-04-29T14:01:08Z</time>
      </trkpt>
      <trkpt lat="45.88323" lon="4.29772">
        <ele>635.26</ele>
        <time>2019-04-29T14:01:14Z</time>
      </trkpt>
      <trkpt lat="45.88323" lon="4.29771">
        <ele>635.142</ele>
        <time>2019-04-29T14:01:20Z</time>
      </trkpt>
      <trkpt lat="45.88323" lon="4.29771">
        <ele>635.039</ele>
        <time>2019-04-29T14:01:26Z</time>
      </trkpt>
      <trkpt lat="45.88322" lon="4.29771">
        <ele>634.977</ele>
        <time>2019-04-29T14:01:31Z</time>
      </trkpt>
      <trkpt lat="45.88322" lon="4.2977">
        <ele>634.753</ele>
        <time>2019-04-29T14:01:36Z</time>
      </trkpt>
      <trkpt lat="45.88319" lon="4.29769">
        <ele>634.63</ele>
        <time>2019-04-29T14:01:42Z</time>
      </trkpt>
      <trkpt lat="45.88318" lon="4.29769">
        <ele>634.485</ele>
        <time>2019-04-29T14:01:48Z</time>
      </trkpt>
      <trkpt lat="45.88319" lon="4.29771">
        <ele>633.673</ele>
        <time>2019-04-29T14:01:53Z</time>
      </trkpt>
      <trkpt lat="45.88321" lon="4.29772">
        <ele>633.044</ele>
        <time>2019-04-29T14:01:59Z</time>
      </trkpt>
      <trkpt lat="45.88323" lon="4.29772">
        <ele>632.492</ele>
        <time>2019-04-29T14:02:05Z</time>
      </trkpt>
      <trkpt lat="45.88326" lon="4.29771">
        <ele>632.008</ele>
        <time>2019-04-29T14:02:11Z</time>
      </trkpt>
      <trkpt lat="45.88327" lon="4.29771">
        <ele>631.967</ele>
        <time>2019-04-29T14:02:16Z</time>
      </trkpt>
      <trkpt lat="45.88332" lon="4.29775">
        <ele>631.722</ele>
        <time>2019-04-29T14:02:22Z</time>
      </trkpt>
      <trkpt lat="45.88337" lon="4.29777">
        <ele>630.511</ele>
        <time>2019-04-29T14:02:28Z</time>
      </trkpt>
      <trkpt lat="45.88342" lon="4.29778">
        <ele>629.774</ele>
        <time>2019-04-29T14:02:33Z</time>
      </trkpt>
      <trkpt lat="45.88349" lon="4.29779">
        <ele>629.354</ele>
        <time>2019-04-29T14:02:39Z</time>
      </trkpt>
      <trkpt lat="45.88354" lon="4.29781">
        <ele>629.288</ele>
        <time>2019-04-29T14:02:44Z</time>
      </trkpt>
      <trkpt lat="45.88358" lon="4.29782">
        <ele>628.957</ele>
        <time>2019-04-29T14:02:49Z</time>
      </trkpt>
      <trkpt lat="45.88364" lon="4.29783">
        <ele>628.334</ele>
        <time>2019-04-29T14:02:55Z</time>
      </trkpt>
      <trkpt lat="45.88369" lon="4.29788">
        <ele>627.744</ele>
        <time>2019-04-29T14:03:00Z</time>
      </trkpt>
      <trkpt lat="45.88372" lon="4.29794">
        <ele>627.919</ele>
        <time>2019-04-29T14:03:05Z</time>
      </trkpt>
      <trkpt lat="45.88375" lon="4.29804">
        <ele>627.568</ele>
        <time>2019-04-29T14:03:11Z</time>
      </trkpt>
      <trkpt lat="45.8838" lon="4.29815">
        <ele>627.643</ele>
        <time>2019-04-29T14:03:17Z</time>
      </trkpt>
      <trkpt lat="45.88382" lon="4.29825">
        <ele>627.856</ele>
        <time>2019-04-29T14:03:23Z</time>
      </trkpt>
      <trkpt lat="45.88383" lon="4.29834">
        <ele>628.267</ele>
        <time>2019-04-29T14:03:29Z</time>
      </trkpt>
      <trkpt lat="45.88386" lon="4.29845">
        <ele>628.942</ele>
        <time>2019-04-29T14:03:35Z</time>
      </trkpt>
      <trkpt lat="45.88387" lon="4.29855">
        <ele>629.728</ele>
        <time>2019-04-29T14:03:41Z</time>
      </trkpt>
      <trkpt lat="45.88388" lon="4.29866">
        <ele>630.198</ele>
        <time>2019-04-29T14:03:47Z</time>
      </trkpt>
      <trkpt lat="45.88389" lon="4.29878">
        <ele>630.279</ele>
        <time>2019-04-29T14:03:53Z</time>
      </trkpt>
      <trkpt lat="45.8839" lon="4.29887">
        <ele>630.244</ele>
        <time>2019-04-29T14:03:59Z</time>
      </trkpt>
      <trkpt lat="45.88391" lon="4.29899">
        <ele>630.06</ele>
        <time>2019-04-29T14:04:05Z</time>
      </trkpt>
      <trkpt lat="45.88391" lon="4.29908">
        <ele>630.005</ele>
        <time>2019-04-29T14:04:11Z</time>
      </trkpt>
      <trkpt lat="45.88389" lon="4.29916">
        <ele>629.783</ele>
        <time>2019-04-29T14:04:17Z</time>
      </trkpt>
      <trkpt lat="45.88387" lon="4.29927">
        <ele>629.418</ele>
        <time>2019-04-29T14:04:23Z</time>
      </trkpt>
      <trkpt lat="45.88389" lon="4.29938">
        <ele>628.908</ele>
        <time>2019-04-29T14:04:29Z</time>
      </trkpt>
      <trkpt lat="45.88392" lon="4.29945">
        <ele>628.296</ele>
        <time>2019-04-29T14:04:35Z</time>
      </trkpt>
      <trkpt lat="45.88397" lon="4.29955">
        <ele>628.035</ele>
        <time>2019-04-29T14:04:41Z</time>
      </trkpt>
      <trkpt lat="45.88402" lon="4.29964">
        <ele>628.208</ele>
        <time>2019-04-29T14:04:47Z</time>
      </trkpt>
      <trkpt lat="45.88408" lon="4.29971">
        <ele>627.785</ele>
        <time>2019-04-29T14:04:53Z</time>
      </trkpt>
      <trkpt lat="45.88417" lon="4.2998">
        <ele>627.551</ele>
        <time>2019-04-29T14:04:59Z</time>
      </trkpt>
      <trkpt lat="45.8842" lon="4.29989">
        <ele>627.066</ele>
        <time>2019-04-29T14:05:05Z</time>
      </trkpt>
      <trkpt lat="45.88425" lon="4.29993">
        <ele>626.665</ele>
        <time>2019-04-29T14:05:10Z</time>
      </trkpt>
      <trkpt lat="45.88432" lon="4.30001">
        <ele>626.86</ele>
        <time>2019-04-29T14:05:16Z</time>
      </trkpt>
      <trkpt lat="45.88436" lon="4.30005">
        <ele>627.357</ele>
        <time>2019-04-29T14:05:21Z</time>
      </trkpt>
      <trkpt lat="45.88439" lon="4.30012">
        <ele>627.533</ele>
        <time>2019-04-29T14:05:26Z</time>
      </trkpt>
      <trkpt lat="45.88443" lon="4.3002">
        <ele>627.444</ele>
        <time>2019-04-29T14:05:31Z</time>
      </trkpt>
      <trkpt lat="45.88449" lon="4.30029">
        <ele>626.786</ele>
        <time>2019-04-29T14:05:37Z</time>
      </trkpt>
      <trkpt lat="45.88454" lon="4.30036">
        <ele>626.394</ele>
        <time>2019-04-29T14:05:43Z</time>
      </trkpt>
      <trkpt lat="45.88459" lon="4.30041">
        <ele>625.966</ele>
        <time>2019-04-29T14:05:49Z</time>
      </trkpt>
      <trkpt lat="45.88467" lon="4.30047">
        <ele>625.44</ele>
        <time>2019-04-29T14:05:55Z</time>
      </trkpt>
      <trkpt lat="45.88473" lon="4.30051">
        <ele>625.032</ele>
        <time>2019-04-29T14:06:01Z</time>
      </trkpt>
      <trkpt lat="45.88478" lon="4.30053">
        <ele>625.356</ele>
        <time>2019-04-29T14:06:06Z</time>
      </trkpt>
      <trkpt lat="45.88486" lon="4.30058">
        <ele>625.525</ele>
        <time>2019-04-29T14:06:12Z</time>
      </trkpt>
      <trkpt lat="45.88496" lon="4.30059">
        <ele>624.611</ele>
        <time>2019-04-29T14:06:18Z</time>
      </trkpt>
      <trkpt lat="45.88503" lon="4.3006">
        <ele>624.004</ele>
        <time>2019-04-29T14:06:24Z</time>
      </trkpt>
      <trkpt lat="45.88507" lon="4.30062">
        <ele>623.407</ele>
        <time>2019-04-29T14:06:29Z</time>
      </trkpt>
      <trkpt lat="45.88514" lon="4.30061">
        <ele>623.139</ele>
        <time>2019-04-29T14:06:35Z</time>
      </trkpt>
      <trkpt lat="45.88522" lon="4.30062">
        <ele>622.948</ele>
        <time>2019-04-29T14:06:41Z</time>
      </trkpt>
      <trkpt lat="45.88529" lon="4.30062">
        <ele>623.324</ele>
        <time>2019-04-29T14:06:46Z</time>
      </trkpt>
      <trkpt lat="45.88534" lon="4.3006">
        <ele>623.855</ele>
        <time>2019-04-29T14:06:51Z</time>
      </trkpt>
      <trkpt lat="45.88544" lon="4.30057">
        <ele>624.43</ele>
        <time>2019-04-29T14:06:57Z</time>
      </trkpt>
      <trkpt lat="45.88551" lon="4.30055">
        <ele>625.058</ele>
        <time>2019-04-29T14:07:02Z</time>
      </trkpt>
      <trkpt lat="45.88561" lon="4.30056">
        <ele>625.667</ele>
        <time>2019-04-29T14:07:08Z</time>
      </trkpt>
      <trkpt lat="45.88571" lon="4.30059">
        <ele>626.415</ele>
        <time>2019-04-29T14:07:13Z</time>
      </trkpt>
      <trkpt lat="45.88576" lon="4.30059">
        <ele>627.637</ele>
        <time>2019-04-29T14:07:19Z</time>
      </trkpt>
      <trkpt lat="45.88579" lon="4.3006">
        <ele>628.64</ele>
        <time>2019-04-29T14:07:24Z</time>
      </trkpt>
      <trkpt lat="45.8858" lon="4.30059">
        <ele>630.004</ele>
        <time>2019-04-29T14:07:30Z</time>
      </trkpt>
      <trkpt lat="45.8858" lon="4.30059">
        <ele>630.149</ele>
        <time>2019-04-29T14:07:35Z</time>
      </trkpt>
      <trkpt lat="45.8858" lon="4.30059">
        <ele>630.251</ele>
        <time>2019-04-29T14:07:41Z</time>
      </trkpt>
      <trkpt lat="45.8858" lon="4.30059">
        <ele>630.337</ele>
        <time>2019-04-29T14:07:46Z</time>
      </trkpt>
      <trkpt lat="45.8858" lon="4.30059">
        <ele>630.579</ele>
        <time>2019-04-29T14:07:52Z</time>
      </trkpt>
      <trkpt lat="45.88582" lon="4.30058">
        <ele>631.869</ele>
        <time>2019-04-29T14:07:57Z</time>
      </trkpt>
      <trkpt lat="45.88588" lon="4.3006">
        <ele>633.549</ele>
        <time>2019-04-29T14:08:03Z</time>
      </trkpt>
      <trkpt lat="45.88593" lon="4.30064">
        <ele>634.738</ele>
        <time>2019-04-29T14:08:09Z</time>
      </trkpt>
      <trkpt lat="45.88598" lon="4.30068">
        <ele>635.132</ele>
        <time>2019-04-29T14:08:14Z</time>
      </trkpt>
      <trkpt lat="45.88603" lon="4.30071">
        <ele>635.169</ele>
        <time>2019-04-29T14:08:20Z</time>
      </trkpt>
      <trkpt lat="45.88608" lon="4.30076">
        <ele>635.598</ele>
        <time>2019-04-29T14:08:25Z</time>
      </trkpt>
      <trkpt lat="45.88614" lon="4.30079">
        <ele>636.182</ele>
        <time>2019-04-29T14:08:30Z</time>
      </trkpt>
      <trkpt lat="45.88617" lon="4.30082">
        <ele>636.888</ele>
        <time>2019-04-29T14:08:36Z</time>
      </trkpt>
      <trkpt lat="45.8862" lon="4.30086">
        <ele>636.983</ele>
        <time>2019-04-29T14:08:42Z</time>
      </trkpt>
      <trkpt lat="45.88626" lon="4.30089">
        <ele>636.871</ele>
        <time>2019-04-29T14:08:48Z</time>
      </trkpt>
      <trkpt lat="45.88628" lon="4.3009">
        <ele>636.529</ele>
        <time>2019-04-29T14:08:53Z</time>
      </trkpt>
      <trkpt lat="45.88631" lon="4.30095">
        <ele>636.223</ele>
        <time>2019-04-29T14:08:58Z</time>
      </trkpt>
      <trkpt lat="45.88637" lon="4.30098">
        <ele>636.307</ele>
        <time>2019-04-29T14:09:04Z</time>
      </trkpt>
      <trkpt lat="45.88643" lon="4.30104">
        <ele>636.327</ele>
        <time>2019-04-29T14:09:09Z</time>
      </trkpt>
      <trkpt lat="45.88647" lon="4.3011">
        <ele>636.294</ele>
        <time>2019-04-29T14:09:15Z</time>
      </trkpt>
      <trkpt lat="45.88652" lon="4.30115">
        <ele>636.684</ele>
        <time>2019-04-29T14:09:21Z</time>
      </trkpt>
      <trkpt lat="45.88655" lon="4.30118">
        <ele>636.896</ele>
        <time>2019-04-29T14:09:26Z</time>
      </trkpt>
      <trkpt lat="45.88663" lon="4.30125">
        <ele>637.238</ele>
        <time>2019-04-29T14:09:32Z</time>
      </trkpt>
      <trkpt lat="45.88667" lon="4.30129">
        <ele>637.795</ele>
        <time>2019-04-29T14:09:37Z</time>
      </trkpt>
      <trkpt lat="45.88674" lon="4.30133">
        <ele>639.133</ele>
        <time>2019-04-29T14:09:43Z</time>
      </trkpt>
      <trkpt lat="45.88678" lon="4.30137">
        <ele>640.315</ele>
        <time>2019-04-29T14:09:49Z</time>
      </trkpt>
      <trkpt lat="45.88685" lon="4.30142">
        <ele>640.619</ele>
        <time>2019-04-29T14:09:55Z</time>
      </trkpt>
      <trkpt lat="45.8869" lon="4.30147">
        <ele>640.317</ele>
        <time>2019-04-29T14:10:01Z</time>
      </trkpt>
      <trkpt lat="45.88695" lon="4.30154">
        <ele>640.254</ele>
        <time>2019-04-29T14:10:07Z</time>
      </trkpt>
      <trkpt lat="45.887" lon="4.30161">
        <ele>640.232</ele>
        <time>2019-04-29T14:10:13Z</time>
      </trkpt>
      <trkpt lat="45.88707" lon="4.30169">
        <ele>641.161</ele>
        <time>2019-04-29T14:10:19Z</time>
      </trkpt>
      <trkpt lat="45.88713" lon="4.30176">
        <ele>640.813</ele>
        <time>2019-04-29T14:10:25Z</time>
      </trkpt>
      <trkpt lat="45.88718" lon="4.30181">
        <ele>640.563</ele>
        <time>2019-04-29T14:10:30Z</time>
      </trkpt>
      <trkpt lat="45.88722" lon="4.30188">
        <ele>640.889</ele>
        <time>2019-04-29T14:10:36Z</time>
      </trkpt>
      <trkpt lat="45.88728" lon="4.30198">
        <ele>641.153</ele>
        <time>2019-04-29T14:10:42Z</time>
      </trkpt>
      <trkpt lat="45.8873" lon="4.30201">
        <ele>640.818</ele>
        <time>2019-04-29T14:10:47Z</time>
      </trkpt>
      <trkpt lat="45.88738" lon="4.30209">
        <ele>640.663</ele>
        <time>2019-04-29T14:10:54Z</time>
      </trkpt>
      <trkpt lat="45.88743" lon="4.30216">
        <ele>640.922</ele>
        <time>2019-04-29T14:11:00Z</time>
      </trkpt>
      <trkpt lat="45.88748" lon="4.30218">
        <ele>640.826</ele>
        <time>2019-04-29T14:11:05Z</time>
      </trkpt>
      <trkpt lat="45.88752" lon="4.30223">
        <ele>640.685</ele>
        <time>2019-04-29T14:11:11Z</time>
      </trkpt>
      <trkpt lat="45.88757" lon="4.30225">
        <ele>640.633</ele>
        <time>2019-04-29T14:11:16Z</time>
      </trkpt>
      <trkpt lat="45.88762" lon="4.30229">
        <ele>640.502</ele>
        <time>2019-04-29T14:11:21Z</time>
      </trkpt>
      <trkpt lat="45.88768" lon="4.30234">
        <ele>640.056</ele>
        <time>2019-04-29T14:11:27Z</time>
      </trkpt>
      <trkpt lat="45.88775" lon="4.30238">
        <ele>640.123</ele>
        <time>2019-04-29T14:11:32Z</time>
      </trkpt>
      <trkpt lat="45.88782" lon="4.30243">
        <ele>640.953</ele>
        <time>2019-04-29T14:11:37Z</time>
      </trkpt>
      <trkpt lat="45.88789" lon="4.30247">
        <ele>641.659</ele>
        <time>2019-04-29T14:11:43Z</time>
      </trkpt>
      <trkpt lat="45.88794" lon="4.3025">
        <ele>642.421</ele>
        <time>2019-04-29T14:11:48Z</time>
      </trkpt>
      <trkpt lat="45.88799" lon="4.30252">
        <ele>642.759</ele>
        <time>2019-04-29T14:11:53Z</time>
      </trkpt>
      <trkpt lat="45.88806" lon="4.30257">
        <ele>642.918</ele>
        <time>2019-04-29T14:11:59Z</time>
      </trkpt>
      <trkpt lat="45.88813" lon="4.30262">
        <ele>642.669</ele>
        <time>2019-04-29T14:12:05Z</time>
      </trkpt>
      <trkpt lat="45.88818" lon="4.30264">
        <ele>642.969</ele>
        <time>2019-04-29T14:12:10Z</time>
      </trkpt>
      <trkpt lat="45.88823" lon="4.30267">
        <ele>643.475</ele>
        <time>2019-04-29T14:12:16Z</time>
      </trkpt>
      <trkpt lat="45.88829" lon="4.30269">
        <ele>644.192</ele>
        <time>2019-04-29T14:12:22Z</time>
      </trkpt>
      <trkpt lat="45.88833" lon="4.30271">
        <ele>644.025</ele>
        <time>2019-04-29T14:12:27Z</time>
      </trkpt>
      <trkpt lat="45.88838" lon="4.30274">
        <ele>643.373</ele>
        <time>2019-04-29T14:12:33Z</time>
      </trkpt>
      <trkpt lat="45.88845" lon="4.30275">
        <ele>642.577</ele>
        <time>2019-04-29T14:12:39Z</time>
      </trkpt>
      <trkpt lat="45.8885" lon="4.30275">
        <ele>641.866</ele>
        <time>2019-04-29T14:12:45Z</time>
      </trkpt>
      <trkpt lat="45.88854" lon="4.30274">
        <ele>641.293</ele>
        <time>2019-04-29T14:12:51Z</time>
      </trkpt>
      <trkpt lat="45.88857" lon="4.30275">
        <ele>641.062</ele>
        <time>2019-04-29T14:12:56Z</time>
      </trkpt>
      <trkpt lat="45.88861" lon="4.30274">
        <ele>640.855</ele>
        <time>2019-04-29T14:13:02Z</time>
      </trkpt>
      <trkpt lat="45.88866" lon="4.30275">
        <ele>640.981</ele>
        <time>2019-04-29T14:13:08Z</time>
      </trkpt>
      <trkpt lat="45.88867" lon="4.30273">
        <ele>641.313</ele>
        <time>2019-04-29T14:13:13Z</time>
      </trkpt>
      <trkpt lat="45.88868" lon="4.3027">
        <ele>641.307</ele>
        <time>2019-04-29T14:13:18Z</time>
      </trkpt>
      <trkpt lat="45.88871" lon="4.30266">
        <ele>641.506</ele>
        <time>2019-04-29T14:13:24Z</time>
      </trkpt>
      <trkpt lat="45.88876" lon="4.30259">
        <ele>642.068</ele>
        <time>2019-04-29T14:13:29Z</time>
      </trkpt>
      <trkpt lat="45.88881" lon="4.30255">
        <ele>643.063</ele>
        <time>2019-04-29T14:13:35Z</time>
      </trkpt>
      <trkpt lat="45.88884" lon="4.30253">
        <ele>643.874</ele>
        <time>2019-04-29T14:13:41Z</time>
      </trkpt>
      <trkpt lat="45.88888" lon="4.30252">
        <ele>643.225</ele>
        <time>2019-04-29T14:13:46Z</time>
      </trkpt>
      <trkpt lat="45.88892" lon="4.3025">
        <ele>642.574</ele>
        <time>2019-04-29T14:13:52Z</time>
      </trkpt>
      <trkpt lat="45.88898" lon="4.30245">
        <ele>642.448</ele>
        <time>2019-04-29T14:13:57Z</time>
      </trkpt>
      <trkpt lat="45.88905" lon="4.30238">
        <ele>642.128</ele>
        <time>2019-04-29T14:14:03Z</time>
      </trkpt>
      <trkpt lat="45.8891" lon="4.30235">
        <ele>642.431</ele>
        <time>2019-04-29T14:14:08Z</time>
      </trkpt>
      <trkpt lat="45.88914" lon="4.30233">
        <ele>642.742</ele>
        <time>2019-04-29T14:14:13Z</time>
      </trkpt>
      <trkpt lat="45.8892" lon="4.30229">
        <ele>643.422</ele>
        <time>2019-04-29T14:14:19Z</time>
      </trkpt>
      <trkpt lat="45.88924" lon="4.30224">
        <ele>644.152</ele>
        <time>2019-04-29T14:14:24Z</time>
      </trkpt>
      <trkpt lat="45.88929" lon="4.30221">
        <ele>644.704</ele>
        <time>2019-04-29T14:14:29Z</time>
      </trkpt>
      <trkpt lat="45.88934" lon="4.3022">
        <ele>645.414</ele>
        <time>2019-04-29T14:14:35Z</time>
      </trkpt>
      <trkpt lat="45.88938" lon="4.30218">
        <ele>645.854</ele>
        <time>2019-04-29T14:14:40Z</time>
      </trkpt>
      <trkpt lat="45.88942" lon="4.30218">
        <ele>646.066</ele>
        <time>2019-04-29T14:14:45Z</time>
      </trkpt>
      <trkpt lat="45.88945" lon="4.30218">
        <ele>645.974</ele>
        <time>2019-04-29T14:14:51Z</time>
      </trkpt>
      <trkpt lat="45.88953" lon="4.30219">
        <ele>646.187</ele>
        <time>2019-04-29T14:14:57Z</time>
      </trkpt>
      <trkpt lat="45.88957" lon="4.3022">
        <ele>646.604</ele>
        <time>2019-04-29T14:15:02Z</time>
      </trkpt>
      <trkpt lat="45.88964" lon="4.3022">
        <ele>646.843</ele>
        <time>2019-04-29T14:15:08Z</time>
      </trkpt>
      <trkpt lat="45.8897" lon="4.30221">
        <ele>646.588</ele>
        <time>2019-04-29T14:15:14Z</time>
      </trkpt>
      <trkpt lat="45.8898" lon="4.30221">
        <ele>646.2</ele>
        <time>2019-04-29T14:15:20Z</time>
      </trkpt>
      <trkpt lat="45.88988" lon="4.30225">
        <ele>645.581</ele>
        <time>2019-04-29T14:15:26Z</time>
      </trkpt>
      <trkpt lat="45.88994" lon="4.30227">
        <ele>644.801</ele>
        <time>2019-04-29T14:15:32Z</time>
      </trkpt>
      <trkpt lat="45.89002" lon="4.30228">
        <ele>644.251</ele>
        <time>2019-04-29T14:15:38Z</time>
      </trkpt>
      <trkpt lat="45.89005" lon="4.30229">
        <ele>644.188</ele>
        <time>2019-04-29T14:15:44Z</time>
      </trkpt>
      <trkpt lat="45.8901" lon="4.3023">
        <ele>644.966</ele>
        <time>2019-04-29T14:15:50Z</time>
      </trkpt>
      <trkpt lat="45.89016" lon="4.30233">
        <ele>645.752</ele>
        <time>2019-04-29T14:15:55Z</time>
      </trkpt>
      <trkpt lat="45.89023" lon="4.30235">
        <ele>646.462</ele>
        <time>2019-04-29T14:16:01Z</time>
      </trkpt>
      <trkpt lat="45.89029" lon="4.30237">
        <ele>647.583</ele>
        <time>2019-04-29T14:16:07Z</time>
      </trkpt>
      <trkpt lat="45.89035" lon="4.30238">
        <ele>648.168</ele>
        <time>2019-04-29T14:16:12Z</time>
      </trkpt>
      <trkpt lat="45.89045" lon="4.3024">
        <ele>648.414</ele>
        <time>2019-04-29T14:16:18Z</time>
      </trkpt>
      <trkpt lat="45.89049" lon="4.30243">
        <ele>648.615</ele>
        <time>2019-04-29T14:16:24Z</time>
      </trkpt>
      <trkpt lat="45.89054" lon="4.30244">
        <ele>648.309</ele>
        <time>2019-04-29T14:16:29Z</time>
      </trkpt>
      <trkpt lat="45.89062" lon="4.30251">
        <ele>648.301</ele>
        <time>2019-04-29T14:16:35Z</time>
      </trkpt>
      <trkpt lat="45.89069" lon="4.30253">
        <ele>648.287</ele>
        <time>2019-04-29T14:16:41Z</time>
      </trkpt>
      <trkpt lat="45.89076" lon="4.30256">
        <ele>648.068</ele>
        <time>2019-04-29T14:16:46Z</time>
      </trkpt>
      <trkpt lat="45.89082" lon="4.30259">
        <ele>647.486</ele>
        <time>2019-04-29T14:16:52Z</time>
      </trkpt>
      <trkpt lat="45.89087" lon="4.30262">
        <ele>646.986</ele>
        <time>2019-04-29T14:16:57Z</time>
      </trkpt>
      <trkpt lat="45.89094" lon="4.30267">
        <ele>646.617</ele>
        <time>2019-04-29T14:17:03Z</time>
      </trkpt>
      <trkpt lat="45.89098" lon="4.30271">
        <ele>646.872</ele>
        <time>2019-04-29T14:17:08Z</time>
      </trkpt>
      <trkpt lat="45.89104" lon="4.30275">
        <ele>647.228</ele>
        <time>2019-04-29T14:17:14Z</time>
      </trkpt>
      <trkpt lat="45.89109" lon="4.30279">
        <ele>647.651</ele>
        <time>2019-04-29T14:17:19Z</time>
      </trkpt>
      <trkpt lat="45.89115" lon="4.30282">
        <ele>648.26</ele>
        <time>2019-04-29T14:17:24Z</time>
      </trkpt>
      <trkpt lat="45.89119" lon="4.30284">
        <ele>648.505</ele>
        <time>2019-04-29T14:17:30Z</time>
      </trkpt>
      <trkpt lat="45.89122" lon="4.30286">
        <ele>649.167</ele>
        <time>2019-04-29T14:17:35Z</time>
      </trkpt>
      <trkpt lat="45.8913" lon="4.30292">
        <ele>649.936</ele>
        <time>2019-04-29T14:17:41Z</time>
      </trkpt>
      <trkpt lat="45.89134" lon="4.30293">
        <ele>649.879</ele>
        <time>2019-04-29T14:17:46Z</time>
      </trkpt>
      <trkpt lat="45.89141" lon="4.30295">
        <ele>649.939</ele>
        <time>2019-04-29T14:17:52Z</time>
      </trkpt>
      <trkpt lat="45.89145" lon="4.30297">
        <ele>650.991</ele>
        <time>2019-04-29T14:17:58Z</time>
      </trkpt>
      <trkpt lat="45.8915" lon="4.303">
        <ele>652.374</ele>
        <time>2019-04-29T14:18:03Z</time>
      </trkpt>
      <trkpt lat="45.89158" lon="4.30302">
        <ele>653.624</ele>
        <time>2019-04-29T14:18:09Z</time>
      </trkpt>
      <trkpt lat="45.89161" lon="4.30302">
        <ele>654.544</ele>
        <time>2019-04-29T14:18:14Z</time>
      </trkpt>
      <trkpt lat="45.89167" lon="4.30302">
        <ele>655.429</ele>
        <time>2019-04-29T14:18:20Z</time>
      </trkpt>
      <trkpt lat="45.89172" lon="4.30303">
        <ele>656.509</ele>
        <time>2019-04-29T14:18:25Z</time>
      </trkpt>
      <trkpt lat="45.89178" lon="4.30301">
        <ele>657.566</ele>
        <time>2019-04-29T14:18:31Z</time>
      </trkpt>
      <trkpt lat="45.89185" lon="4.30299">
        <ele>658.337</ele>
        <time>2019-04-29T14:18:37Z</time>
      </trkpt>
      <trkpt lat="45.89188" lon="4.30299">
        <ele>658.365</ele>
        <time>2019-04-29T14:18:43Z</time>
      </trkpt>
      <trkpt lat="45.8919" lon="4.303">
        <ele>658.567</ele>
        <time>2019-04-29T14:18:49Z</time>
      </trkpt>
      <trkpt lat="45.89193" lon="4.30301">
        <ele>659.046</ele>
        <time>2019-04-29T14:18:54Z</time>
      </trkpt>
      <trkpt lat="45.89195" lon="4.303">
        <ele>659.997</ele>
        <time>2019-04-29T14:19:01Z</time>
      </trkpt>
      <trkpt lat="45.89198" lon="4.30299">
        <ele>660.024</ele>
        <time>2019-04-29T14:19:07Z</time>
      </trkpt>
      <trkpt lat="45.89198" lon="4.30302">
        <ele>659.157</ele>
        <time>2019-04-29T14:19:12Z</time>
      </trkpt>
      <trkpt lat="45.89198" lon="4.30308">
        <ele>658.605</ele>
        <time>2019-04-29T14:19:17Z</time>
      </trkpt>
      <trkpt lat="45.89198" lon="4.30312">
        <ele>658.317</ele>
        <time>2019-04-29T14:19:23Z</time>
      </trkpt>
      <trkpt lat="45.89199" lon="4.30318">
        <ele>657.762</ele>
        <time>2019-04-29T14:19:28Z</time>
      </trkpt>
      <trkpt lat="45.892" lon="4.30324">
        <ele>657.942</ele>
        <time>2019-04-29T14:19:34Z</time>
      </trkpt>
      <trkpt lat="45.89201" lon="4.30332">
        <ele>657.898</ele>
        <time>2019-04-29T14:19:40Z</time>
      </trkpt>
      <trkpt lat="45.89201" lon="4.30344">
        <ele>658.264</ele>
        <time>2019-04-29T14:19:46Z</time>
      </trkpt>
      <trkpt lat="45.892" lon="4.30353">
        <ele>658.467</ele>
        <time>2019-04-29T14:19:52Z</time>
      </trkpt>
      <trkpt lat="45.89198" lon="4.30361">
        <ele>658.914</ele>
        <time>2019-04-29T14:19:57Z</time>
      </trkpt>
      <trkpt lat="45.89195" lon="4.30368">
        <ele>658.98</ele>
        <time>2019-04-29T14:20:02Z</time>
      </trkpt>
      <trkpt lat="45.89193" lon="4.30373">
        <ele>659.079</ele>
        <time>2019-04-29T14:20:08Z</time>
      </trkpt>
      <trkpt lat="45.8919" lon="4.30378">
        <ele>659.461</ele>
        <time>2019-04-29T14:20:14Z</time>
      </trkpt>
      <trkpt lat="45.89189" lon="4.30382">
        <ele>660.148</ele>
        <time>2019-04-29T14:20:20Z</time>
      </trkpt>
      <trkpt lat="45.89187" lon="4.30384">
        <ele>660.823</ele>
        <time>2019-04-29T14:20:26Z</time>
      </trkpt>
      <trkpt lat="45.89184" lon="4.3039">
        <ele>662.172</ele>
        <time>2019-04-29T14:20:32Z</time>
      </trkpt>
      <trkpt lat="45.8918" lon="4.30396">
        <ele>663.981</ele>
        <time>2019-04-29T14:20:38Z</time>
      </trkpt>
      <trkpt lat="45.89176" lon="4.30402">
        <ele>665.961</ele>
        <time>2019-04-29T14:20:43Z</time>
      </trkpt>
      <trkpt lat="45.89173" lon="4.30406">
        <ele>668.061</ele>
        <time>2019-04-29T14:20:48Z</time>
      </trkpt>
      <trkpt lat="45.89171" lon="4.30406">
        <ele>669.743</ele>
        <time>2019-04-29T14:20:54Z</time>
      </trkpt>
      <trkpt lat="45.8917" lon="4.30407">
        <ele>671.168</ele>
        <time>2019-04-29T14:21:00Z</time>
      </trkpt>
      <trkpt lat="45.89163" lon="4.30406">
        <ele>672.214</ele>
        <time>2019-04-29T14:21:06Z</time>
      </trkpt>
      <trkpt lat="45.89158" lon="4.30413">
        <ele>673.745</ele>
        <time>2019-04-29T14:21:12Z</time>
      </trkpt>
      <trkpt lat="45.89155" lon="4.30418">
        <ele>674.623</ele>
        <time>2019-04-29T14:21:18Z</time>
      </trkpt>
      <trkpt lat="45.89152" lon="4.30423">
        <ele>674.848</ele>
        <time>2019-04-29T14:21:24Z</time>
      </trkpt>
      <trkpt lat="45.8915" lon="4.30426">
        <ele>674.484</ele>
        <time>2019-04-29T14:21:29Z</time>
      </trkpt>
      <trkpt lat="45.89149" lon="4.30428">
        <ele>673.975</ele>
        <time>2019-04-29T14:21:34Z</time>
      </trkpt>
      <trkpt lat="45.89148" lon="4.30433">
        <ele>673.753</ele>
        <time>2019-04-29T14:21:40Z</time>
      </trkpt>
      <trkpt lat="45.89146" lon="4.30434">
        <ele>673.477</ele>
        <time>2019-04-29T14:21:45Z</time>
      </trkpt>
      <trkpt lat="45.89145" lon="4.30435">
        <ele>673.172</ele>
        <time>2019-04-29T14:21:51Z</time>
      </trkpt>
      <trkpt lat="45.89145" lon="4.30435">
        <ele>672.743</ele>
        <time>2019-04-29T14:21:57Z</time>
      </trkpt>
      <trkpt lat="45.89145" lon="4.30435">
        <ele>672.322</ele>
        <time>2019-04-29T14:22:02Z</time>
      </trkpt>
      <trkpt lat="45.89145" lon="4.30435">
        <ele>671.82</ele>
        <time>2019-04-29T14:22:08Z</time>
      </trkpt>
      <trkpt lat="45.89144" lon="4.30435">
        <ele>670.22</ele>
        <time>2019-04-29T14:22:13Z</time>
      </trkpt>
      <trkpt lat="45.89144" lon="4.30435">
        <ele>669.969</ele>
        <time>2019-04-29T14:22:19Z</time>
      </trkpt>
      <trkpt lat="45.89144" lon="4.30435">
        <ele>669.734</ele>
        <time>2019-04-29T14:22:25Z</time>
      </trkpt>
      <trkpt lat="45.89144" lon="4.30435">
        <ele>669.536</ele>
        <time>2019-04-29T14:22:31Z</time>
      </trkpt>
      <trkpt lat="45.89144" lon="4.30435">
        <ele>669.419</ele>
        <time>2019-04-29T14:22:36Z</time>
      </trkpt>
      <trkpt lat="45.89144" lon="4.30435">
        <ele>669.408</ele>
        <time>2019-04-29T14:22:42Z</time>
      </trkpt>
      <trkpt lat="45.89144" lon="4.30435">
        <ele>669.304</ele>
        <time>2019-04-29T14:22:47Z</time>
      </trkpt>
      <trkpt lat="45.89143" lon="4.30437">
        <ele>668.755</ele>
        <time>2019-04-29T14:22:53Z</time>
      </trkpt>
      <trkpt lat="45.89143" lon="4.30438">
        <ele>667.742</ele>
        <time>2019-04-29T14:22:59Z</time>
      </trkpt>
      <trkpt lat="45.89143" lon="4.3044">
        <ele>667.387</ele>
        <time>2019-04-29T14:23:05Z</time>
      </trkpt>
      <trkpt lat="45.89141" lon="4.30443">
        <ele>667.547</ele>
        <time>2019-04-29T14:23:10Z</time>
      </trkpt>
      <trkpt lat="45.8914" lon="4.30443">
        <ele>668.377</ele>
        <time>2019-04-29T14:23:16Z</time>
      </trkpt>
      <trkpt lat="45.8914" lon="4.30443">
        <ele>668.714</ele>
        <time>2019-04-29T14:23:21Z</time>
      </trkpt>
      <trkpt lat="45.8914" lon="4.30447">
        <ele>668.578</ele>
        <time>2019-04-29T14:23:27Z</time>
      </trkpt>
      <trkpt lat="45.89139" lon="4.30449">
        <ele>669.027</ele>
        <time>2019-04-29T14:23:32Z</time>
      </trkpt>
      <trkpt lat="45.89139" lon="4.30449">
        <ele>669.366</ele>
        <time>2019-04-29T14:23:37Z</time>
      </trkpt>
      <trkpt lat="45.89139" lon="4.3045">
        <ele>670.11</ele>
        <time>2019-04-29T14:23:43Z</time>
      </trkpt>
      <trkpt lat="45.89137" lon="4.30454">
        <ele>670.742</ele>
        <time>2019-04-29T14:23:49Z</time>
      </trkpt>
      <trkpt lat="45.89137" lon="4.30458">
        <ele>671.106</ele>
        <time>2019-04-29T14:23:54Z</time>
      </trkpt>
      <trkpt lat="45.89137" lon="4.30465">
        <ele>671.818</ele>
        <time>2019-04-29T14:23:59Z</time>
      </trkpt>
      <trkpt lat="45.89137" lon="4.30471">
        <ele>673.103</ele>
        <time>2019-04-29T14:24:05Z</time>
      </trkpt>
      <trkpt lat="45.89135" lon="4.30481">
        <ele>673.775</ele>
        <time>2019-04-29T14:24:11Z</time>
      </trkpt>
      <trkpt lat="45.89133" lon="4.30487">
        <ele>674.162</ele>
        <time>2019-04-29T14:24:16Z</time>
      </trkpt>
      <trkpt lat="45.89132" lon="4.30491">
        <ele>674.709</ele>
        <time>2019-04-29T14:24:21Z</time>
      </trkpt>
      <trkpt lat="45.89131" lon="4.30492">
        <ele>675.359</ele>
        <time>2019-04-29T14:24:26Z</time>
      </trkpt>
      <trkpt lat="45.8913" lon="4.30499">
        <ele>676.123</ele>
        <time>2019-04-29T14:24:32Z</time>
      </trkpt>
      <trkpt lat="45.8913" lon="4.30505">
        <ele>676.96</ele>
        <time>2019-04-29T14:24:38Z</time>
      </trkpt>
      <trkpt lat="45.89129" lon="4.30513">
        <ele>677.227</ele>
        <time>2019-04-29T14:24:43Z</time>
      </trkpt>
      <trkpt lat="45.8913" lon="4.30522">
        <ele>677.894</ele>
        <time>2019-04-29T14:24:49Z</time>
      </trkpt>
      <trkpt lat="45.8913" lon="4.30528">
        <ele>678.56</ele>
        <time>2019-04-29T14:24:54Z</time>
      </trkpt>
      <trkpt lat="45.89129" lon="4.30536">
        <ele>679.256</ele>
        <time>2019-04-29T14:24:59Z</time>
      </trkpt>
      <trkpt lat="45.89129" lon="4.30539">
        <ele>680.111</ele>
        <time>2019-04-29T14:25:05Z</time>
      </trkpt>
      <trkpt lat="45.89127" lon="4.30545">
        <ele>680.604</ele>
        <time>2019-04-29T14:25:11Z</time>
      </trkpt>
      <trkpt lat="45.89123" lon="4.30549">
        <ele>681.234</ele>
        <time>2019-04-29T14:25:17Z</time>
      </trkpt>
      <trkpt lat="45.8912" lon="4.30557">
        <ele>682.07</ele>
        <time>2019-04-29T14:25:22Z</time>
      </trkpt>
      <trkpt lat="45.89117" lon="4.30565">
        <ele>682.892</ele>
        <time>2019-04-29T14:25:27Z</time>
      </trkpt>
      <trkpt lat="45.89115" lon="4.30571">
        <ele>683.746</ele>
        <time>2019-04-29T14:25:33Z</time>
      </trkpt>
      <trkpt lat="45.89113" lon="4.3058">
        <ele>684.24</ele>
        <time>2019-04-29T14:25:39Z</time>
      </trkpt>
      <trkpt lat="45.8911" lon="4.30588">
        <ele>684.642</ele>
        <time>2019-04-29T14:25:45Z</time>
      </trkpt>
      <trkpt lat="45.89108" lon="4.30593">
        <ele>684.793</ele>
        <time>2019-04-29T14:25:50Z</time>
      </trkpt>
      <trkpt lat="45.89106" lon="4.30596">
        <ele>684.862</ele>
        <time>2019-04-29T14:25:55Z</time>
      </trkpt>
      <trkpt lat="45.89103" lon="4.30595">
        <ele>685.421</ele>
        <time>2019-04-29T14:26:01Z</time>
      </trkpt>
      <trkpt lat="45.89098" lon="4.30595">
        <ele>686.072</ele>
        <time>2019-04-29T14:26:06Z</time>
      </trkpt>
      <trkpt lat="45.89095" lon="4.30594">
        <ele>685.826</ele>
        <time>2019-04-29T14:26:11Z</time>
      </trkpt>
      <trkpt lat="45.89091" lon="4.30593">
        <ele>685.187</ele>
        <time>2019-04-29T14:26:16Z</time>
      </trkpt>
      <trkpt lat="45.89087" lon="4.30587">
        <ele>684.674</ele>
        <time>2019-04-29T14:26:22Z</time>
      </trkpt>
      <trkpt lat="45.89084" lon="4.30583">
        <ele>684.408</ele>
        <time>2019-04-29T14:26:28Z</time>
      </trkpt>
      <trkpt lat="45.89082" lon="4.30581">
        <ele>684.544</ele>
        <time>2019-04-29T14:26:33Z</time>
      </trkpt>
      <trkpt lat="45.89081" lon="4.3058">
        <ele>684.492</ele>
        <time>2019-04-29T14:26:39Z</time>
      </trkpt>
      <trkpt lat="45.89082" lon="4.30581">
        <ele>684.175</ele>
        <time>2019-04-29T14:26:45Z</time>
      </trkpt>
      <trkpt lat="45.89082" lon="4.30582">
        <ele>684.211</ele>
        <time>2019-04-29T14:26:51Z</time>
      </trkpt>
    </trkseg>
  </trk>
</gpx>